﻿<?xml version="1.0" encoding="UTF-8" standalone="no" ?>
<gpx xmlns="http://www.topografix.com/GPX/1/1" creator="CompeGPS" version="1.1" xmlns:xsi="http://www.w3.org/2001/XMLSchema-instance" xsi:schemaLocation="http://www.topografix.com/GPX/1/1 http://www.topografix.com/GPX/1/1/gpx.xsd http://www.garmin.com/xmlschemas/GpxExtensions/v3 http://www.garmin.com/xmlschemas/GpxExtensionsv3.xsd http://www.garmin.com/xmlschemas/TrackPointExtension/v1 http://www.garmin.com/xmlschemas/TrackPointExtensionv1.xsd" xmlns:gpxtpx="http://www.garmin.com/xmlschemas/TrackPointExtension/v1">
  <metadata>
    <link href="http://www.compegps.com">
      <text>CompeGPS TEAM, SL</text>
    </link>
    <time>2015-03-02T19:47:29Z</time>
    <bounds maxlat="42.479049" maxlon="2.151645" minlat="42.434441" minlon="2.104079"/>
  </metadata>
  <trk>
    <name>tour_d_eyne</name>
    <trkseg>
      <trkpt lat="42.476516" lon="2.104079">
        <ele>1790.0</ele>
        <time>2009-06-30T06:21:52Z</time>
      </trkpt>
      <trkpt lat="42.476516" lon="2.104079">
        <ele>1802.0</ele>
        <time>2009-06-30T06:24:40Z</time>
      </trkpt>
      <trkpt lat="42.476509" lon="2.104205">
        <ele>1802.0</ele>
        <time>2009-06-30T06:24:50Z</time>
      </trkpt>
      <trkpt lat="42.476496" lon="2.104331">
        <ele>1802.0</ele>
        <time>2009-06-30T06:24:58Z</time>
      </trkpt>
      <trkpt lat="42.476522" lon="2.104447">
        <ele>1802.0</ele>
        <time>2009-06-30T06:25:05Z</time>
      </trkpt>
      <trkpt lat="42.476516" lon="2.104573">
        <ele>1802.0</ele>
        <time>2009-06-30T06:25:13Z</time>
      </trkpt>
      <trkpt lat="42.476502" lon="2.104699">
        <ele>1802.0</ele>
        <time>2009-06-30T06:25:21Z</time>
      </trkpt>
      <trkpt lat="42.476536" lon="2.104816">
        <ele>1802.0</ele>
        <time>2009-06-30T06:25:27Z</time>
      </trkpt>
      <trkpt lat="42.476496" lon="2.104941">
        <ele>1802.0</ele>
        <time>2009-06-30T06:25:35Z</time>
      </trkpt>
      <trkpt lat="42.476496" lon="2.105085">
        <ele>1802.0</ele>
        <time>2009-06-30T06:25:43Z</time>
      </trkpt>
      <trkpt lat="42.476436" lon="2.105211">
        <ele>1802.0</ele>
        <time>2009-06-30T06:25:51Z</time>
      </trkpt>
      <trkpt lat="42.476403" lon="2.105337">
        <ele>1802.0</ele>
        <time>2009-06-30T06:26:00Z</time>
      </trkpt>
      <trkpt lat="42.476389" lon="2.105462">
        <ele>1802.0</ele>
        <time>2009-06-30T06:26:08Z</time>
      </trkpt>
      <trkpt lat="42.476349" lon="2.105588">
        <ele>1802.0</ele>
        <time>2009-06-30T06:26:15Z</time>
      </trkpt>
      <trkpt lat="42.476296" lon="2.105705">
        <ele>1802.0</ele>
        <time>2009-06-30T06:26:22Z</time>
      </trkpt>
      <trkpt lat="42.476230" lon="2.105795">
        <ele>1802.0</ele>
        <time>2009-06-30T06:26:29Z</time>
      </trkpt>
      <trkpt lat="42.476196" lon="2.105921">
        <ele>1802.0</ele>
        <time>2009-06-30T06:26:37Z</time>
      </trkpt>
      <trkpt lat="42.476143" lon="2.106019">
        <ele>1809.0</ele>
        <time>2009-06-30T06:26:44Z</time>
      </trkpt>
      <trkpt lat="42.476083" lon="2.106127">
        <ele>1809.0</ele>
        <time>2009-06-30T06:26:52Z</time>
      </trkpt>
      <trkpt lat="42.476030" lon="2.106244">
        <ele>1809.0</ele>
        <time>2009-06-30T06:27:00Z</time>
      </trkpt>
      <trkpt lat="42.476017" lon="2.106370">
        <ele>1809.0</ele>
        <time>2009-06-30T06:27:08Z</time>
      </trkpt>
      <trkpt lat="42.475944" lon="2.106460">
        <ele>1816.0</ele>
        <time>2009-06-30T06:27:16Z</time>
      </trkpt>
      <trkpt lat="42.475897" lon="2.106567">
        <ele>1816.0</ele>
        <time>2009-06-30T06:27:24Z</time>
      </trkpt>
      <trkpt lat="42.475831" lon="2.106657">
        <ele>1816.0</ele>
        <time>2009-06-30T06:27:30Z</time>
      </trkpt>
      <trkpt lat="42.475764" lon="2.106765">
        <ele>1827.0</ele>
        <time>2009-06-30T06:27:41Z</time>
      </trkpt>
      <trkpt lat="42.475684" lon="2.106828">
        <ele>1839.0</ele>
        <time>2009-06-30T06:27:52Z</time>
      </trkpt>
      <trkpt lat="42.475585" lon="2.106846">
        <ele>1844.0</ele>
        <time>2009-06-30T06:27:59Z</time>
      </trkpt>
      <trkpt lat="42.475505" lon="2.106927">
        <ele>1850.0</ele>
        <time>2009-06-30T06:28:08Z</time>
      </trkpt>
      <trkpt lat="42.475418" lon="2.106963">
        <ele>1858.0</ele>
        <time>2009-06-30T06:28:14Z</time>
      </trkpt>
      <trkpt lat="42.475339" lon="2.107025">
        <ele>1858.0</ele>
        <time>2009-06-30T06:28:22Z</time>
      </trkpt>
      <trkpt lat="42.475239" lon="2.107052">
        <ele>1858.0</ele>
        <time>2009-06-30T06:28:38Z</time>
      </trkpt>
      <trkpt lat="42.475146" lon="2.107070">
        <ele>1858.0</ele>
        <time>2009-06-30T06:28:47Z</time>
      </trkpt>
      <trkpt lat="42.475059" lon="2.107124">
        <ele>1852.0</ele>
        <time>2009-06-30T06:28:56Z</time>
      </trkpt>
      <trkpt lat="42.474946" lon="2.107097">
        <ele>1852.0</ele>
        <time>2009-06-30T06:29:02Z</time>
      </trkpt>
      <trkpt lat="42.474886" lon="2.107196">
        <ele>1866.0</ele>
        <time>2009-06-30T06:29:19Z</time>
      </trkpt>
      <trkpt lat="42.474787" lon="2.107232">
        <ele>1866.0</ele>
        <time>2009-06-30T06:29:30Z</time>
      </trkpt>
      <trkpt lat="42.474680" lon="2.107214">
        <ele>1859.0</ele>
        <time>2009-06-30T06:29:36Z</time>
      </trkpt>
      <trkpt lat="42.474587" lon="2.107205">
        <ele>1859.0</ele>
        <time>2009-06-30T06:29:43Z</time>
      </trkpt>
      <trkpt lat="42.474501" lon="2.107241">
        <ele>1859.0</ele>
        <time>2009-06-30T06:29:52Z</time>
      </trkpt>
      <trkpt lat="42.474408" lon="2.107214">
        <ele>1859.0</ele>
        <time>2009-06-30T06:29:58Z</time>
      </trkpt>
      <trkpt lat="42.474328" lon="2.107277">
        <ele>1859.0</ele>
        <time>2009-06-30T06:30:06Z</time>
      </trkpt>
      <trkpt lat="42.474228" lon="2.107313">
        <ele>1859.0</ele>
        <time>2009-06-30T06:30:14Z</time>
      </trkpt>
      <trkpt lat="42.474122" lon="2.107340">
        <ele>1874.0</ele>
        <time>2009-06-30T06:30:32Z</time>
      </trkpt>
      <trkpt lat="42.474049" lon="2.107430">
        <ele>1874.0</ele>
        <time>2009-06-30T06:30:56Z</time>
      </trkpt>
      <trkpt lat="42.473975" lon="2.107520">
        <ele>1865.0</ele>
        <time>2009-06-30T06:31:16Z</time>
      </trkpt>
      <trkpt lat="42.473962" lon="2.107645">
        <ele>1865.0</ele>
        <time>2009-06-30T06:31:38Z</time>
      </trkpt>
      <trkpt lat="42.474035" lon="2.107726">
        <ele>1865.0</ele>
        <time>2009-06-30T06:31:59Z</time>
      </trkpt>
      <trkpt lat="42.474075" lon="2.107843">
        <ele>1865.0</ele>
        <time>2009-06-30T06:32:08Z</time>
      </trkpt>
      <trkpt lat="42.474015" lon="2.107951">
        <ele>1865.0</ele>
        <time>2009-06-30T06:32:22Z</time>
      </trkpt>
      <trkpt lat="42.473916" lon="2.107915">
        <ele>1873.0</ele>
        <time>2009-06-30T06:32:29Z</time>
      </trkpt>
      <trkpt lat="42.473829" lon="2.107843">
        <ele>1873.0</ele>
        <time>2009-06-30T06:32:41Z</time>
      </trkpt>
      <trkpt lat="42.473736" lon="2.107879">
        <ele>1873.0</ele>
        <time>2009-06-30T06:32:48Z</time>
      </trkpt>
      <trkpt lat="42.473643" lon="2.107870">
        <ele>1879.0</ele>
        <time>2009-06-30T06:32:55Z</time>
      </trkpt>
      <trkpt lat="42.473550" lon="2.107879">
        <ele>1879.0</ele>
        <time>2009-06-30T06:33:03Z</time>
      </trkpt>
      <trkpt lat="42.473457" lon="2.107861">
        <ele>1879.0</ele>
        <time>2009-06-30T06:33:12Z</time>
      </trkpt>
      <trkpt lat="42.473364" lon="2.107879">
        <ele>1872.0</ele>
        <time>2009-06-30T06:33:25Z</time>
      </trkpt>
      <trkpt lat="42.473264" lon="2.107861">
        <ele>1872.0</ele>
        <time>2009-06-30T06:33:33Z</time>
      </trkpt>
      <trkpt lat="42.473171" lon="2.107825">
        <ele>1878.0</ele>
        <time>2009-06-30T06:33:40Z</time>
      </trkpt>
      <trkpt lat="42.473171" lon="2.107951">
        <ele>1884.0</ele>
        <time>2009-06-30T06:33:52Z</time>
      </trkpt>
      <trkpt lat="42.473264" lon="2.107978">
        <ele>1884.0</ele>
        <time>2009-06-30T06:34:00Z</time>
      </trkpt>
      <trkpt lat="42.473364" lon="2.108005">
        <ele>1884.0</ele>
        <time>2009-06-30T06:34:09Z</time>
      </trkpt>
      <trkpt lat="42.473450" lon="2.108041">
        <ele>1884.0</ele>
        <time>2009-06-30T06:34:18Z</time>
      </trkpt>
      <trkpt lat="42.473543" lon="2.108103">
        <ele>1884.0</ele>
        <time>2009-06-30T06:34:26Z</time>
      </trkpt>
      <trkpt lat="42.473636" lon="2.108148">
        <ele>1884.0</ele>
        <time>2009-06-30T06:34:33Z</time>
      </trkpt>
      <trkpt lat="42.473716" lon="2.108220">
        <ele>1884.0</ele>
        <time>2009-06-30T06:34:40Z</time>
      </trkpt>
      <trkpt lat="42.473802" lon="2.108283">
        <ele>1884.0</ele>
        <time>2009-06-30T06:34:47Z</time>
      </trkpt>
      <trkpt lat="42.473856" lon="2.108409">
        <ele>1884.0</ele>
        <time>2009-06-30T06:34:55Z</time>
      </trkpt>
      <trkpt lat="42.473876" lon="2.108535">
        <ele>1884.0</ele>
        <time>2009-06-30T06:35:02Z</time>
      </trkpt>
      <trkpt lat="42.473929" lon="2.108633">
        <ele>1884.0</ele>
        <time>2009-06-30T06:35:08Z</time>
      </trkpt>
      <trkpt lat="42.473969" lon="2.108750">
        <ele>1884.0</ele>
        <time>2009-06-30T06:35:15Z</time>
      </trkpt>
      <trkpt lat="42.474022" lon="2.108849">
        <ele>1884.0</ele>
        <time>2009-06-30T06:35:21Z</time>
      </trkpt>
      <trkpt lat="42.474075" lon="2.108966">
        <ele>1884.0</ele>
        <time>2009-06-30T06:35:27Z</time>
      </trkpt>
      <trkpt lat="42.474075" lon="2.109101">
        <ele>1890.0</ele>
        <time>2009-06-30T06:35:35Z</time>
      </trkpt>
      <trkpt lat="42.474108" lon="2.109226">
        <ele>1890.0</ele>
        <time>2009-06-30T06:35:43Z</time>
      </trkpt>
      <trkpt lat="42.474155" lon="2.109334">
        <ele>1890.0</ele>
        <time>2009-06-30T06:35:50Z</time>
      </trkpt>
      <trkpt lat="42.474175" lon="2.109460">
        <ele>1890.0</ele>
        <time>2009-06-30T06:35:58Z</time>
      </trkpt>
      <trkpt lat="42.474175" lon="2.109586">
        <ele>1890.0</ele>
        <time>2009-06-30T06:36:05Z</time>
      </trkpt>
      <trkpt lat="42.474195" lon="2.109720">
        <ele>1890.0</ele>
        <time>2009-06-30T06:36:13Z</time>
      </trkpt>
      <trkpt lat="42.474182" lon="2.109855">
        <ele>1890.0</ele>
        <time>2009-06-30T06:36:21Z</time>
      </trkpt>
      <trkpt lat="42.474135" lon="2.109981">
        <ele>1901.0</ele>
        <time>2009-06-30T06:36:29Z</time>
      </trkpt>
      <trkpt lat="42.474128" lon="2.110107">
        <ele>1901.0</ele>
        <time>2009-06-30T06:36:37Z</time>
      </trkpt>
      <trkpt lat="42.474155" lon="2.110232">
        <ele>1901.0</ele>
        <time>2009-06-30T06:36:44Z</time>
      </trkpt>
      <trkpt lat="42.474148" lon="2.110358">
        <ele>1901.0</ele>
        <time>2009-06-30T06:36:52Z</time>
      </trkpt>
      <trkpt lat="42.474142" lon="2.110484">
        <ele>1901.0</ele>
        <time>2009-06-30T06:36:59Z</time>
      </trkpt>
      <trkpt lat="42.474102" lon="2.110601">
        <ele>1901.0</ele>
        <time>2009-06-30T06:37:06Z</time>
      </trkpt>
      <trkpt lat="42.474108" lon="2.110727">
        <ele>1901.0</ele>
        <time>2009-06-30T06:37:13Z</time>
      </trkpt>
      <trkpt lat="42.474122" lon="2.110852">
        <ele>1901.0</ele>
        <time>2009-06-30T06:37:20Z</time>
      </trkpt>
      <trkpt lat="42.474128" lon="2.110987">
        <ele>1901.0</ele>
        <time>2009-06-30T06:37:28Z</time>
      </trkpt>
      <trkpt lat="42.474155" lon="2.111104">
        <ele>1901.0</ele>
        <time>2009-06-30T06:37:36Z</time>
      </trkpt>
      <trkpt lat="42.474142" lon="2.111230">
        <ele>1901.0</ele>
        <time>2009-06-30T06:37:43Z</time>
      </trkpt>
      <trkpt lat="42.474148" lon="2.111364">
        <ele>1901.0</ele>
        <time>2009-06-30T06:37:51Z</time>
      </trkpt>
      <trkpt lat="42.474162" lon="2.111499">
        <ele>1901.0</ele>
        <time>2009-06-30T06:37:58Z</time>
      </trkpt>
      <trkpt lat="42.474168" lon="2.111625">
        <ele>1901.0</ele>
        <time>2009-06-30T06:38:06Z</time>
      </trkpt>
      <trkpt lat="42.474168" lon="2.111760">
        <ele>1901.0</ele>
        <time>2009-06-30T06:38:14Z</time>
      </trkpt>
      <trkpt lat="42.474182" lon="2.111885">
        <ele>1901.0</ele>
        <time>2009-06-30T06:38:21Z</time>
      </trkpt>
      <trkpt lat="42.474135" lon="2.112002">
        <ele>1907.0</ele>
        <time>2009-06-30T06:38:27Z</time>
      </trkpt>
      <trkpt lat="42.474122" lon="2.112137">
        <ele>1907.0</ele>
        <time>2009-06-30T06:38:34Z</time>
      </trkpt>
      <trkpt lat="42.474142" lon="2.112263">
        <ele>1907.0</ele>
        <time>2009-06-30T06:38:41Z</time>
      </trkpt>
      <trkpt lat="42.474135" lon="2.112388">
        <ele>1907.0</ele>
        <time>2009-06-30T06:38:49Z</time>
      </trkpt>
      <trkpt lat="42.474142" lon="2.112523">
        <ele>1907.0</ele>
        <time>2009-06-30T06:38:57Z</time>
      </trkpt>
      <trkpt lat="42.474182" lon="2.112649">
        <ele>1907.0</ele>
        <time>2009-06-30T06:39:04Z</time>
      </trkpt>
      <trkpt lat="42.474195" lon="2.112784">
        <ele>1907.0</ele>
        <time>2009-06-30T06:39:11Z</time>
      </trkpt>
      <trkpt lat="42.474175" lon="2.112909">
        <ele>1912.0</ele>
        <time>2009-06-30T06:39:19Z</time>
      </trkpt>
      <trkpt lat="42.474135" lon="2.113026">
        <ele>1912.0</ele>
        <time>2009-06-30T06:39:26Z</time>
      </trkpt>
      <trkpt lat="42.474122" lon="2.113161">
        <ele>1912.0</ele>
        <time>2009-06-30T06:39:33Z</time>
      </trkpt>
      <trkpt lat="42.474128" lon="2.113296">
        <ele>1912.0</ele>
        <time>2009-06-30T06:39:41Z</time>
      </trkpt>
      <trkpt lat="42.474122" lon="2.113421">
        <ele>1918.0</ele>
        <time>2009-06-30T06:39:49Z</time>
      </trkpt>
      <trkpt lat="42.474122" lon="2.113556">
        <ele>1918.0</ele>
        <time>2009-06-30T06:39:56Z</time>
      </trkpt>
      <trkpt lat="42.474108" lon="2.113691">
        <ele>1918.0</ele>
        <time>2009-06-30T06:40:03Z</time>
      </trkpt>
      <trkpt lat="42.474108" lon="2.113826">
        <ele>1918.0</ele>
        <time>2009-06-30T06:40:11Z</time>
      </trkpt>
      <trkpt lat="42.474088" lon="2.113951">
        <ele>1918.0</ele>
        <time>2009-06-30T06:40:19Z</time>
      </trkpt>
      <trkpt lat="42.474068" lon="2.114077">
        <ele>1918.0</ele>
        <time>2009-06-30T06:40:26Z</time>
      </trkpt>
      <trkpt lat="42.474055" lon="2.114203">
        <ele>1927.0</ele>
        <time>2009-06-30T06:40:33Z</time>
      </trkpt>
      <trkpt lat="42.474015" lon="2.114320">
        <ele>1927.0</ele>
        <time>2009-06-30T06:40:41Z</time>
      </trkpt>
      <trkpt lat="42.473955" lon="2.114437">
        <ele>1927.0</ele>
        <time>2009-06-30T06:40:49Z</time>
      </trkpt>
      <trkpt lat="42.473896" lon="2.114544">
        <ele>1927.0</ele>
        <time>2009-06-30T06:40:55Z</time>
      </trkpt>
      <trkpt lat="42.473809" lon="2.114607">
        <ele>1927.0</ele>
        <time>2009-06-30T06:41:00Z</time>
      </trkpt>
      <trkpt lat="42.473776" lon="2.114733">
        <ele>1927.0</ele>
        <time>2009-06-30T06:41:07Z</time>
      </trkpt>
      <trkpt lat="42.473769" lon="2.114859">
        <ele>1927.0</ele>
        <time>2009-06-30T06:41:14Z</time>
      </trkpt>
      <trkpt lat="42.473776" lon="2.114994">
        <ele>1927.0</ele>
        <time>2009-06-30T06:41:22Z</time>
      </trkpt>
      <trkpt lat="42.473716" lon="2.115092">
        <ele>1927.0</ele>
        <time>2009-06-30T06:41:29Z</time>
      </trkpt>
      <trkpt lat="42.473650" lon="2.115200">
        <ele>1927.0</ele>
        <time>2009-06-30T06:41:37Z</time>
      </trkpt>
      <trkpt lat="42.473570" lon="2.115299">
        <ele>1927.0</ele>
        <time>2009-06-30T06:41:45Z</time>
      </trkpt>
      <trkpt lat="42.473503" lon="2.115398">
        <ele>1927.0</ele>
        <time>2009-06-30T06:41:55Z</time>
      </trkpt>
      <trkpt lat="42.473443" lon="2.115524">
        <ele>1927.0</ele>
        <time>2009-06-30T06:42:04Z</time>
      </trkpt>
      <trkpt lat="42.473423" lon="2.115649">
        <ele>1932.0</ele>
        <time>2009-06-30T06:42:10Z</time>
      </trkpt>
      <trkpt lat="42.473370" lon="2.115748">
        <ele>1932.0</ele>
        <time>2009-06-30T06:42:19Z</time>
      </trkpt>
      <trkpt lat="42.473330" lon="2.115865">
        <ele>1932.0</ele>
        <time>2009-06-30T06:42:26Z</time>
      </trkpt>
      <trkpt lat="42.473310" lon="2.115991">
        <ele>1932.0</ele>
        <time>2009-06-30T06:42:33Z</time>
      </trkpt>
      <trkpt lat="42.473310" lon="2.116125">
        <ele>1932.0</ele>
        <time>2009-06-30T06:42:41Z</time>
      </trkpt>
      <trkpt lat="42.473290" lon="2.116251">
        <ele>1937.0</ele>
        <time>2009-06-30T06:42:49Z</time>
      </trkpt>
      <trkpt lat="42.473237" lon="2.116350">
        <ele>1937.0</ele>
        <time>2009-06-30T06:42:56Z</time>
      </trkpt>
      <trkpt lat="42.473164" lon="2.116431">
        <ele>1937.0</ele>
        <time>2009-06-30T06:43:03Z</time>
      </trkpt>
      <trkpt lat="42.473091" lon="2.116539">
        <ele>1937.0</ele>
        <time>2009-06-30T06:43:10Z</time>
      </trkpt>
      <trkpt lat="42.473051" lon="2.116673">
        <ele>1937.0</ele>
        <time>2009-06-30T06:43:19Z</time>
      </trkpt>
      <trkpt lat="42.472985" lon="2.116772">
        <ele>1937.0</ele>
        <time>2009-06-30T06:43:26Z</time>
      </trkpt>
      <trkpt lat="42.472978" lon="2.116898">
        <ele>1937.0</ele>
        <time>2009-06-30T06:43:34Z</time>
      </trkpt>
      <trkpt lat="42.472898" lon="2.116979">
        <ele>1937.0</ele>
        <time>2009-06-30T06:43:41Z</time>
      </trkpt>
      <trkpt lat="42.472812" lon="2.117033">
        <ele>1932.0</ele>
        <time>2009-06-30T06:43:47Z</time>
      </trkpt>
      <trkpt lat="42.472725" lon="2.117069">
        <ele>1937.0</ele>
        <time>2009-06-30T06:44:06Z</time>
      </trkpt>
      <trkpt lat="42.472652" lon="2.117149">
        <ele>1937.0</ele>
        <time>2009-06-30T06:44:15Z</time>
      </trkpt>
      <trkpt lat="42.472572" lon="2.117212">
        <ele>1937.0</ele>
        <time>2009-06-30T06:44:30Z</time>
      </trkpt>
      <trkpt lat="42.472506" lon="2.117320">
        <ele>1937.0</ele>
        <time>2009-06-30T06:44:40Z</time>
      </trkpt>
      <trkpt lat="42.472439" lon="2.117419">
        <ele>1943.0</ele>
        <time>2009-06-30T06:44:49Z</time>
      </trkpt>
      <trkpt lat="42.472366" lon="2.117491">
        <ele>1943.0</ele>
        <time>2009-06-30T06:44:54Z</time>
      </trkpt>
      <trkpt lat="42.472293" lon="2.117563">
        <ele>1943.0</ele>
        <time>2009-06-30T06:45:00Z</time>
      </trkpt>
      <trkpt lat="42.472226" lon="2.117670">
        <ele>1943.0</ele>
        <time>2009-06-30T06:45:08Z</time>
      </trkpt>
      <trkpt lat="42.472200" lon="2.117796">
        <ele>1943.0</ele>
        <time>2009-06-30T06:45:15Z</time>
      </trkpt>
      <trkpt lat="42.472206" lon="2.117931">
        <ele>1943.0</ele>
        <time>2009-06-30T06:45:22Z</time>
      </trkpt>
      <trkpt lat="42.472226" lon="2.118066">
        <ele>1943.0</ele>
        <time>2009-06-30T06:45:29Z</time>
      </trkpt>
      <trkpt lat="42.472266" lon="2.118183">
        <ele>1943.0</ele>
        <time>2009-06-30T06:45:35Z</time>
      </trkpt>
      <trkpt lat="42.472428" lon="2.118340">
        <ele>1938.5</ele>
        <time>2009-06-30T06:45:41Z</time>
      </trkpt>
      <trkpt lat="42.472611" lon="2.118459">
        <ele>1935.0</ele>
        <time>2009-06-30T06:45:48Z</time>
      </trkpt>
      <trkpt lat="42.472735" lon="2.118487">
        <ele>1932.2</ele>
        <time>2009-06-30T06:45:55Z</time>
      </trkpt>
      <trkpt lat="42.472852" lon="2.118601">
        <ele>1928.9</ele>
        <time>2009-06-30T06:46:03Z</time>
      </trkpt>
      <trkpt lat="42.472939" lon="2.118858">
        <ele>1924.9</ele>
        <time>2009-06-30T06:46:08Z</time>
      </trkpt>
      <trkpt lat="42.472972" lon="2.119086">
        <ele>1922.4</ele>
        <time>2009-06-30T06:46:18Z</time>
      </trkpt>
      <trkpt lat="42.472987" lon="2.119318">
        <ele>1921.2</ele>
        <time>2009-06-30T06:46:25Z</time>
      </trkpt>
      <trkpt lat="42.473024" lon="2.119539">
        <ele>1930.0</ele>
        <time>2009-06-30T06:50:02Z</time>
      </trkpt>
      <trkpt lat="42.473091" lon="2.119638">
        <ele>1930.0</ele>
        <time>2009-06-30T06:50:06Z</time>
      </trkpt>
      <trkpt lat="42.473157" lon="2.119728">
        <ele>1930.0</ele>
        <time>2009-06-30T06:50:11Z</time>
      </trkpt>
      <trkpt lat="42.473177" lon="2.119862">
        <ele>1940.0</ele>
        <time>2009-06-30T06:50:16Z</time>
      </trkpt>
      <trkpt lat="42.473257" lon="2.119961">
        <ele>1940.0</ele>
        <time>2009-06-30T06:50:23Z</time>
      </trkpt>
      <trkpt lat="42.473324" lon="2.120078">
        <ele>1932.0</ele>
        <time>2009-06-30T06:50:30Z</time>
      </trkpt>
      <trkpt lat="42.473403" lon="2.120159">
        <ele>1932.0</ele>
        <time>2009-06-30T06:50:35Z</time>
      </trkpt>
      <trkpt lat="42.473477" lon="2.120240">
        <ele>1932.0</ele>
        <time>2009-06-30T06:50:42Z</time>
      </trkpt>
      <trkpt lat="42.473570" lon="2.120285">
        <ele>1932.0</ele>
        <time>2009-06-30T06:50:48Z</time>
      </trkpt>
      <trkpt lat="42.473676" lon="2.120321">
        <ele>1932.0</ele>
        <time>2009-06-30T06:50:54Z</time>
      </trkpt>
      <trkpt lat="42.473769" lon="2.120374">
        <ele>1932.0</ele>
        <time>2009-06-30T06:51:00Z</time>
      </trkpt>
      <trkpt lat="42.473842" lon="2.120473">
        <ele>1932.0</ele>
        <time>2009-06-30T06:51:08Z</time>
      </trkpt>
      <trkpt lat="42.473935" lon="2.120527">
        <ele>1932.0</ele>
        <time>2009-06-30T06:51:14Z</time>
      </trkpt>
      <trkpt lat="42.474029" lon="2.120563">
        <ele>1932.0</ele>
        <time>2009-06-30T06:51:21Z</time>
      </trkpt>
      <trkpt lat="42.474128" lon="2.120635">
        <ele>1932.0</ele>
        <time>2009-06-30T06:51:28Z</time>
      </trkpt>
      <trkpt lat="42.474208" lon="2.120698">
        <ele>1926.0</ele>
        <time>2009-06-30T06:51:32Z</time>
      </trkpt>
      <trkpt lat="42.474281" lon="2.120788">
        <ele>1926.0</ele>
        <time>2009-06-30T06:51:37Z</time>
      </trkpt>
      <trkpt lat="42.474335" lon="2.120913">
        <ele>1926.0</ele>
        <time>2009-06-30T06:51:44Z</time>
      </trkpt>
      <trkpt lat="42.474388" lon="2.121012">
        <ele>1926.0</ele>
        <time>2009-06-30T06:51:49Z</time>
      </trkpt>
      <trkpt lat="42.474441" lon="2.121120">
        <ele>1926.0</ele>
        <time>2009-06-30T06:51:56Z</time>
      </trkpt>
      <trkpt lat="42.474514" lon="2.121210">
        <ele>1926.0</ele>
        <time>2009-06-30T06:52:03Z</time>
      </trkpt>
      <trkpt lat="42.474567" lon="2.121318">
        <ele>1926.0</ele>
        <time>2009-06-30T06:52:10Z</time>
      </trkpt>
      <trkpt lat="42.474614" lon="2.121425">
        <ele>1926.0</ele>
        <time>2009-06-30T06:52:16Z</time>
      </trkpt>
      <trkpt lat="42.474647" lon="2.121551">
        <ele>1926.0</ele>
        <time>2009-06-30T06:52:22Z</time>
      </trkpt>
      <trkpt lat="42.474680" lon="2.121668">
        <ele>1926.0</ele>
        <time>2009-06-30T06:52:27Z</time>
      </trkpt>
      <trkpt lat="42.474720" lon="2.121785">
        <ele>1918.0</ele>
        <time>2009-06-30T06:52:32Z</time>
      </trkpt>
      <trkpt lat="42.474767" lon="2.121911">
        <ele>1918.0</ele>
        <time>2009-06-30T06:52:38Z</time>
      </trkpt>
      <trkpt lat="42.474847" lon="2.122000">
        <ele>1918.0</ele>
        <time>2009-06-30T06:52:44Z</time>
      </trkpt>
      <trkpt lat="42.474913" lon="2.122108">
        <ele>1918.0</ele>
        <time>2009-06-30T06:52:51Z</time>
      </trkpt>
      <trkpt lat="42.474980" lon="2.122198">
        <ele>1924.0</ele>
        <time>2009-06-30T06:52:58Z</time>
      </trkpt>
      <trkpt lat="42.475053" lon="2.122306">
        <ele>1924.0</ele>
        <time>2009-06-30T06:53:05Z</time>
      </trkpt>
      <trkpt lat="42.475146" lon="2.122360">
        <ele>1924.0</ele>
        <time>2009-06-30T06:53:13Z</time>
      </trkpt>
      <trkpt lat="42.475219" lon="2.122459">
        <ele>1917.0</ele>
        <time>2009-06-30T06:53:20Z</time>
      </trkpt>
      <trkpt lat="42.475299" lon="2.122557">
        <ele>1917.0</ele>
        <time>2009-06-30T06:53:26Z</time>
      </trkpt>
      <trkpt lat="42.475385" lon="2.122647">
        <ele>1917.0</ele>
        <time>2009-06-30T06:53:32Z</time>
      </trkpt>
      <trkpt lat="42.475465" lon="2.122719">
        <ele>1912.0</ele>
        <time>2009-06-30T06:53:38Z</time>
      </trkpt>
      <trkpt lat="42.475545" lon="2.122791">
        <ele>1912.0</ele>
        <time>2009-06-30T06:53:43Z</time>
      </trkpt>
      <trkpt lat="42.475591" lon="2.122908">
        <ele>1912.0</ele>
        <time>2009-06-30T06:53:51Z</time>
      </trkpt>
      <trkpt lat="42.475645" lon="2.123024">
        <ele>1905.0</ele>
        <time>2009-06-30T06:53:57Z</time>
      </trkpt>
      <trkpt lat="42.475684" lon="2.123150">
        <ele>1905.0</ele>
        <time>2009-06-30T06:54:03Z</time>
      </trkpt>
      <trkpt lat="42.475738" lon="2.123276">
        <ele>1905.0</ele>
        <time>2009-06-30T06:54:09Z</time>
      </trkpt>
      <trkpt lat="42.475744" lon="2.123402">
        <ele>1905.0</ele>
        <time>2009-06-30T06:54:15Z</time>
      </trkpt>
      <trkpt lat="42.475711" lon="2.123536">
        <ele>1905.0</ele>
        <time>2009-06-30T06:54:21Z</time>
      </trkpt>
      <trkpt lat="42.475665" lon="2.123662">
        <ele>1905.0</ele>
        <time>2009-06-30T06:54:27Z</time>
      </trkpt>
      <trkpt lat="42.475605" lon="2.123779">
        <ele>1905.0</ele>
        <time>2009-06-30T06:54:33Z</time>
      </trkpt>
      <trkpt lat="42.475571" lon="2.123896">
        <ele>1910.0</ele>
        <time>2009-06-30T06:54:42Z</time>
      </trkpt>
      <trkpt lat="42.475512" lon="2.124022">
        <ele>1910.0</ele>
        <time>2009-06-30T06:54:48Z</time>
      </trkpt>
      <trkpt lat="42.475452" lon="2.124138">
        <ele>1910.0</ele>
        <time>2009-06-30T06:54:54Z</time>
      </trkpt>
      <trkpt lat="42.475405" lon="2.124264">
        <ele>1910.0</ele>
        <time>2009-06-30T06:55:04Z</time>
      </trkpt>
      <trkpt lat="42.475345" lon="2.124372">
        <ele>1910.0</ele>
        <time>2009-06-30T06:55:11Z</time>
      </trkpt>
      <trkpt lat="42.475319" lon="2.124507">
        <ele>1910.0</ele>
        <time>2009-06-30T06:55:19Z</time>
      </trkpt>
      <trkpt lat="42.475266" lon="2.124605">
        <ele>1910.0</ele>
        <time>2009-06-30T06:55:25Z</time>
      </trkpt>
      <trkpt lat="42.475219" lon="2.124722">
        <ele>1910.0</ele>
        <time>2009-06-30T06:55:31Z</time>
      </trkpt>
      <trkpt lat="42.475166" lon="2.124821">
        <ele>1910.0</ele>
        <time>2009-06-30T06:55:37Z</time>
      </trkpt>
      <trkpt lat="42.475099" lon="2.124929">
        <ele>1910.0</ele>
        <time>2009-06-30T06:55:44Z</time>
      </trkpt>
      <trkpt lat="42.475039" lon="2.125046">
        <ele>1910.0</ele>
        <time>2009-06-30T06:55:51Z</time>
      </trkpt>
      <trkpt lat="42.474993" lon="2.125162">
        <ele>1910.0</ele>
        <time>2009-06-30T06:55:58Z</time>
      </trkpt>
      <trkpt lat="42.474973" lon="2.125297">
        <ele>1904.0</ele>
        <time>2009-06-30T06:56:06Z</time>
      </trkpt>
      <trkpt lat="42.474946" lon="2.125423">
        <ele>1904.0</ele>
        <time>2009-06-30T06:56:12Z</time>
      </trkpt>
      <trkpt lat="42.474867" lon="2.125495">
        <ele>1904.0</ele>
        <time>2009-06-30T06:56:17Z</time>
      </trkpt>
      <trkpt lat="42.474813" lon="2.125603">
        <ele>1904.0</ele>
        <time>2009-06-30T06:56:23Z</time>
      </trkpt>
      <trkpt lat="42.474753" lon="2.125719">
        <ele>1911.0</ele>
        <time>2009-06-30T06:56:30Z</time>
      </trkpt>
      <trkpt lat="42.474700" lon="2.125827">
        <ele>1911.0</ele>
        <time>2009-06-30T06:56:35Z</time>
      </trkpt>
      <trkpt lat="42.474654" lon="2.125935">
        <ele>1911.0</ele>
        <time>2009-06-30T06:56:40Z</time>
      </trkpt>
      <trkpt lat="42.474620" lon="2.126052">
        <ele>1911.0</ele>
        <time>2009-06-30T06:56:47Z</time>
      </trkpt>
      <trkpt lat="42.474587" lon="2.126169">
        <ele>1911.0</ele>
        <time>2009-06-30T06:56:54Z</time>
      </trkpt>
      <trkpt lat="42.474534" lon="2.126285">
        <ele>1905.0</ele>
        <time>2009-06-30T06:57:02Z</time>
      </trkpt>
      <trkpt lat="42.474527" lon="2.126411">
        <ele>1905.0</ele>
        <time>2009-06-30T06:57:10Z</time>
      </trkpt>
      <trkpt lat="42.474487" lon="2.126537">
        <ele>1905.0</ele>
        <time>2009-06-30T06:57:17Z</time>
      </trkpt>
      <trkpt lat="42.474454" lon="2.126654">
        <ele>1905.0</ele>
        <time>2009-06-30T06:57:21Z</time>
      </trkpt>
      <trkpt lat="42.474428" lon="2.126770">
        <ele>1905.0</ele>
        <time>2009-06-30T06:57:26Z</time>
      </trkpt>
      <trkpt lat="42.474361" lon="2.126905">
        <ele>1914.0</ele>
        <time>2009-06-30T06:57:34Z</time>
      </trkpt>
      <trkpt lat="42.474308" lon="2.127022">
        <ele>1914.0</ele>
        <time>2009-06-30T06:57:39Z</time>
      </trkpt>
      <trkpt lat="42.474241" lon="2.127148">
        <ele>1914.0</ele>
        <time>2009-06-30T06:57:45Z</time>
      </trkpt>
      <trkpt lat="42.474168" lon="2.127238">
        <ele>1920.0</ele>
        <time>2009-06-30T06:57:50Z</time>
      </trkpt>
      <trkpt lat="42.474122" lon="2.127354">
        <ele>1905.0</ele>
        <time>2009-06-30T06:58:00Z</time>
      </trkpt>
      <trkpt lat="42.474068" lon="2.127453">
        <ele>1905.0</ele>
        <time>2009-06-30T06:58:07Z</time>
      </trkpt>
      <trkpt lat="42.474029" lon="2.127579">
        <ele>1894.0</ele>
        <time>2009-06-30T06:58:15Z</time>
      </trkpt>
      <trkpt lat="42.473942" lon="2.127651">
        <ele>1894.0</ele>
        <time>2009-06-30T06:58:22Z</time>
      </trkpt>
      <trkpt lat="42.473889" lon="2.127759">
        <ele>1894.0</ele>
        <time>2009-06-30T06:58:29Z</time>
      </trkpt>
      <trkpt lat="42.473816" lon="2.127857">
        <ele>1894.0</ele>
        <time>2009-06-30T06:58:37Z</time>
      </trkpt>
      <trkpt lat="42.473743" lon="2.127938">
        <ele>1904.0</ele>
        <time>2009-06-30T06:58:44Z</time>
      </trkpt>
      <trkpt lat="42.473716" lon="2.128055">
        <ele>1904.0</ele>
        <time>2009-06-30T06:58:51Z</time>
      </trkpt>
      <trkpt lat="42.473650" lon="2.128163">
        <ele>1904.0</ele>
        <time>2009-06-30T06:58:58Z</time>
      </trkpt>
      <trkpt lat="42.473623" lon="2.128280">
        <ele>1904.0</ele>
        <time>2009-06-30T06:59:05Z</time>
      </trkpt>
      <trkpt lat="42.473616" lon="2.128423">
        <ele>1904.0</ele>
        <time>2009-06-30T06:59:14Z</time>
      </trkpt>
      <trkpt lat="42.473536" lon="2.128504">
        <ele>1904.0</ele>
        <time>2009-06-30T06:59:21Z</time>
      </trkpt>
      <trkpt lat="42.473437" lon="2.128567">
        <ele>1904.0</ele>
        <time>2009-06-30T06:59:29Z</time>
      </trkpt>
      <trkpt lat="42.473370" lon="2.128666">
        <ele>1904.0</ele>
        <time>2009-06-30T06:59:36Z</time>
      </trkpt>
      <trkpt lat="42.473304" lon="2.128774">
        <ele>1904.0</ele>
        <time>2009-06-30T06:59:43Z</time>
      </trkpt>
      <trkpt lat="42.473237" lon="2.128881">
        <ele>1904.0</ele>
        <time>2009-06-30T06:59:51Z</time>
      </trkpt>
      <trkpt lat="42.473224" lon="2.129007">
        <ele>1904.0</ele>
        <time>2009-06-30T07:00:00Z</time>
      </trkpt>
      <trkpt lat="42.473310" lon="2.129043">
        <ele>1912.0</ele>
        <time>2009-06-30T07:00:06Z</time>
      </trkpt>
      <trkpt lat="42.473410" lon="2.129052">
        <ele>1912.0</ele>
        <time>2009-06-30T07:00:10Z</time>
      </trkpt>
      <trkpt lat="42.473503" lon="2.129061">
        <ele>1912.0</ele>
        <time>2009-06-30T07:00:19Z</time>
      </trkpt>
      <trkpt lat="42.473603" lon="2.129079">
        <ele>1912.0</ele>
        <time>2009-06-30T07:00:24Z</time>
      </trkpt>
      <trkpt lat="42.473689" lon="2.129151">
        <ele>1917.0</ele>
        <time>2009-06-30T07:00:30Z</time>
      </trkpt>
      <trkpt lat="42.473763" lon="2.129241">
        <ele>1917.0</ele>
        <time>2009-06-30T07:00:35Z</time>
      </trkpt>
      <trkpt lat="42.473763" lon="2.129376">
        <ele>1917.0</ele>
        <time>2009-06-30T07:00:41Z</time>
      </trkpt>
      <trkpt lat="42.473776" lon="2.129510">
        <ele>1917.0</ele>
        <time>2009-06-30T07:00:49Z</time>
      </trkpt>
      <trkpt lat="42.473789" lon="2.129645">
        <ele>1917.0</ele>
        <time>2009-06-30T07:00:58Z</time>
      </trkpt>
      <trkpt lat="42.473842" lon="2.129753">
        <ele>1928.0</ele>
        <time>2009-06-30T07:01:06Z</time>
      </trkpt>
      <trkpt lat="42.473916" lon="2.129834">
        <ele>1928.0</ele>
        <time>2009-06-30T07:01:13Z</time>
      </trkpt>
      <trkpt lat="42.473916" lon="2.129959">
        <ele>1928.0</ele>
        <time>2009-06-30T07:01:25Z</time>
      </trkpt>
      <trkpt lat="42.474015" lon="2.130004">
        <ele>1928.0</ele>
        <time>2009-06-30T07:01:32Z</time>
      </trkpt>
      <trkpt lat="42.474108" lon="2.130004">
        <ele>1928.0</ele>
        <time>2009-06-30T07:01:52Z</time>
      </trkpt>
      <trkpt lat="42.474202" lon="2.130013">
        <ele>1922.0</ele>
        <time>2009-06-30T07:02:00Z</time>
      </trkpt>
      <trkpt lat="42.474301" lon="2.130004">
        <ele>1922.0</ele>
        <time>2009-06-30T07:02:08Z</time>
      </trkpt>
      <trkpt lat="42.474394" lon="2.130031">
        <ele>1922.0</ele>
        <time>2009-06-30T07:02:14Z</time>
      </trkpt>
      <trkpt lat="42.474494" lon="2.130013">
        <ele>1931.0</ele>
        <time>2009-06-30T07:02:20Z</time>
      </trkpt>
      <trkpt lat="42.474587" lon="2.130040">
        <ele>1931.0</ele>
        <time>2009-06-30T07:02:32Z</time>
      </trkpt>
      <trkpt lat="42.474680" lon="2.130085">
        <ele>1931.0</ele>
        <time>2009-06-30T07:02:41Z</time>
      </trkpt>
      <trkpt lat="42.474753" lon="2.130004">
        <ele>1931.0</ele>
        <time>2009-06-30T07:02:51Z</time>
      </trkpt>
      <trkpt lat="42.474847" lon="2.130049">
        <ele>1931.0</ele>
        <time>2009-06-30T07:02:55Z</time>
      </trkpt>
      <trkpt lat="42.474946" lon="2.130094">
        <ele>1931.0</ele>
        <time>2009-06-30T07:03:01Z</time>
      </trkpt>
      <trkpt lat="42.475039" lon="2.130121">
        <ele>1931.0</ele>
        <time>2009-06-30T07:03:09Z</time>
      </trkpt>
      <trkpt lat="42.475139" lon="2.130103">
        <ele>1931.0</ele>
        <time>2009-06-30T07:03:19Z</time>
      </trkpt>
      <trkpt lat="42.475232" lon="2.130103">
        <ele>1931.0</ele>
        <time>2009-06-30T07:03:25Z</time>
      </trkpt>
      <trkpt lat="42.475339" lon="2.130103">
        <ele>1931.0</ele>
        <time>2009-06-30T07:03:35Z</time>
      </trkpt>
      <trkpt lat="42.475438" lon="2.130094">
        <ele>1931.0</ele>
        <time>2009-06-30T07:03:43Z</time>
      </trkpt>
      <trkpt lat="42.475518" lon="2.130031">
        <ele>1938.0</ele>
        <time>2009-06-30T07:03:52Z</time>
      </trkpt>
      <trkpt lat="42.475611" lon="2.130004">
        <ele>1938.0</ele>
        <time>2009-06-30T07:04:03Z</time>
      </trkpt>
      <trkpt lat="42.475711" lon="2.130022">
        <ele>1938.0</ele>
        <time>2009-06-30T07:04:10Z</time>
      </trkpt>
      <trkpt lat="42.475804" lon="2.130004">
        <ele>1938.0</ele>
        <time>2009-06-30T07:04:19Z</time>
      </trkpt>
      <trkpt lat="42.475891" lon="2.130040">
        <ele>1938.0</ele>
        <time>2009-06-30T07:04:27Z</time>
      </trkpt>
      <trkpt lat="42.475964" lon="2.129959">
        <ele>1946.0</ele>
        <time>2009-06-30T07:04:35Z</time>
      </trkpt>
      <trkpt lat="42.476057" lon="2.129932">
        <ele>1946.0</ele>
        <time>2009-06-30T07:04:40Z</time>
      </trkpt>
      <trkpt lat="42.476077" lon="2.129798">
        <ele>1952.0</ele>
        <time>2009-06-30T07:04:46Z</time>
      </trkpt>
      <trkpt lat="42.476183" lon="2.129771">
        <ele>1952.0</ele>
        <time>2009-06-30T07:04:57Z</time>
      </trkpt>
      <trkpt lat="42.476270" lon="2.129699">
        <ele>1952.0</ele>
        <time>2009-06-30T07:05:05Z</time>
      </trkpt>
      <trkpt lat="42.476363" lon="2.129672">
        <ele>1952.0</ele>
        <time>2009-06-30T07:05:13Z</time>
      </trkpt>
      <trkpt lat="42.476456" lon="2.129627">
        <ele>1952.0</ele>
        <time>2009-06-30T07:05:19Z</time>
      </trkpt>
      <trkpt lat="42.476549" lon="2.129609">
        <ele>1952.0</ele>
        <time>2009-06-30T07:05:26Z</time>
      </trkpt>
      <trkpt lat="42.476642" lon="2.129627">
        <ele>1952.0</ele>
        <time>2009-06-30T07:05:33Z</time>
      </trkpt>
      <trkpt lat="42.476735" lon="2.129609">
        <ele>1952.0</ele>
        <time>2009-06-30T07:05:41Z</time>
      </trkpt>
      <trkpt lat="42.476835" lon="2.129609">
        <ele>1952.0</ele>
        <time>2009-06-30T07:05:49Z</time>
      </trkpt>
      <trkpt lat="42.476908" lon="2.129510">
        <ele>1952.0</ele>
        <time>2009-06-30T07:05:56Z</time>
      </trkpt>
      <trkpt lat="42.476994" lon="2.129447">
        <ele>1952.0</ele>
        <time>2009-06-30T07:06:03Z</time>
      </trkpt>
      <trkpt lat="42.477088" lon="2.129420">
        <ele>1952.0</ele>
        <time>2009-06-30T07:06:10Z</time>
      </trkpt>
      <trkpt lat="42.477181" lon="2.129420">
        <ele>1952.0</ele>
        <time>2009-06-30T07:06:16Z</time>
      </trkpt>
      <trkpt lat="42.477267" lon="2.129456">
        <ele>1952.0</ele>
        <time>2009-06-30T07:06:21Z</time>
      </trkpt>
      <trkpt lat="42.477354" lon="2.129501">
        <ele>1957.0</ele>
        <time>2009-06-30T07:06:26Z</time>
      </trkpt>
      <trkpt lat="42.477460" lon="2.129528">
        <ele>1957.0</ele>
        <time>2009-06-30T07:06:34Z</time>
      </trkpt>
      <trkpt lat="42.477560" lon="2.129537">
        <ele>1957.0</ele>
        <time>2009-06-30T07:06:41Z</time>
      </trkpt>
      <trkpt lat="42.477653" lon="2.129564">
        <ele>1957.0</ele>
        <time>2009-06-30T07:06:51Z</time>
      </trkpt>
      <trkpt lat="42.477739" lon="2.129645">
        <ele>1957.0</ele>
        <time>2009-06-30T07:06:59Z</time>
      </trkpt>
      <trkpt lat="42.477832" lon="2.129654">
        <ele>1957.0</ele>
        <time>2009-06-30T07:07:05Z</time>
      </trkpt>
      <trkpt lat="42.477925" lon="2.129690">
        <ele>1957.0</ele>
        <time>2009-06-30T07:07:11Z</time>
      </trkpt>
      <trkpt lat="42.478019" lon="2.129708">
        <ele>1957.0</ele>
        <time>2009-06-30T07:07:17Z</time>
      </trkpt>
      <trkpt lat="42.478118" lon="2.129762">
        <ele>1957.0</ele>
        <time>2009-06-30T07:07:25Z</time>
      </trkpt>
      <trkpt lat="42.478211" lon="2.129798">
        <ele>1957.0</ele>
        <time>2009-06-30T07:07:30Z</time>
      </trkpt>
      <trkpt lat="42.478298" lon="2.129861">
        <ele>1957.0</ele>
        <time>2009-06-30T07:07:37Z</time>
      </trkpt>
      <trkpt lat="42.478384" lon="2.129897">
        <ele>1957.0</ele>
        <time>2009-06-30T07:07:43Z</time>
      </trkpt>
      <trkpt lat="42.478471" lon="2.129968">
        <ele>1957.0</ele>
        <time>2009-06-30T07:07:51Z</time>
      </trkpt>
      <trkpt lat="42.478544" lon="2.130058">
        <ele>1957.0</ele>
        <time>2009-06-30T07:08:00Z</time>
      </trkpt>
      <trkpt lat="42.478624" lon="2.130139">
        <ele>1957.0</ele>
        <time>2009-06-30T07:08:08Z</time>
      </trkpt>
      <trkpt lat="42.478697" lon="2.130238">
        <ele>1951.0</ele>
        <time>2009-06-30T07:08:15Z</time>
      </trkpt>
      <trkpt lat="42.478757" lon="2.130355">
        <ele>1951.0</ele>
        <time>2009-06-30T07:08:23Z</time>
      </trkpt>
      <trkpt lat="42.478850" lon="2.130427">
        <ele>1959.0</ele>
        <time>2009-06-30T07:08:29Z</time>
      </trkpt>
      <trkpt lat="42.478910" lon="2.130534">
        <ele>1959.0</ele>
        <time>2009-06-30T07:08:36Z</time>
      </trkpt>
      <trkpt lat="42.478963" lon="2.130633">
        <ele>1959.0</ele>
        <time>2009-06-30T07:08:43Z</time>
      </trkpt>
      <trkpt lat="42.479016" lon="2.130741">
        <ele>1959.0</ele>
        <time>2009-06-30T07:08:49Z</time>
      </trkpt>
      <trkpt lat="42.479049" lon="2.130876">
        <ele>1951.0</ele>
        <time>2009-06-30T07:08:56Z</time>
      </trkpt>
      <trkpt lat="42.479029" lon="2.131010">
        <ele>1951.0</ele>
        <time>2009-06-30T07:09:04Z</time>
      </trkpt>
      <trkpt lat="42.478969" lon="2.131109">
        <ele>1951.0</ele>
        <time>2009-06-30T07:09:10Z</time>
      </trkpt>
      <trkpt lat="42.478896" lon="2.131208">
        <ele>1951.0</ele>
        <time>2009-06-30T07:09:17Z</time>
      </trkpt>
      <trkpt lat="42.478830" lon="2.131316">
        <ele>1951.0</ele>
        <time>2009-06-30T07:09:23Z</time>
      </trkpt>
      <trkpt lat="42.478770" lon="2.131415">
        <ele>1951.0</ele>
        <time>2009-06-30T07:09:28Z</time>
      </trkpt>
      <trkpt lat="42.478703" lon="2.131514">
        <ele>1951.0</ele>
        <time>2009-06-30T07:09:35Z</time>
      </trkpt>
      <trkpt lat="42.478637" lon="2.131612">
        <ele>1951.0</ele>
        <time>2009-06-30T07:09:44Z</time>
      </trkpt>
      <trkpt lat="42.478557" lon="2.131693">
        <ele>1951.0</ele>
        <time>2009-06-30T07:09:51Z</time>
      </trkpt>
      <trkpt lat="42.478471" lon="2.131738">
        <ele>1951.0</ele>
        <time>2009-06-30T07:09:56Z</time>
      </trkpt>
      <trkpt lat="42.478418" lon="2.131846">
        <ele>1951.0</ele>
        <time>2009-06-30T07:10:01Z</time>
      </trkpt>
      <trkpt lat="42.478331" lon="2.131909">
        <ele>1951.0</ele>
        <time>2009-06-30T07:10:08Z</time>
      </trkpt>
      <trkpt lat="42.478251" lon="2.131999">
        <ele>1957.0</ele>
        <time>2009-06-30T07:10:14Z</time>
      </trkpt>
      <trkpt lat="42.478165" lon="2.132097">
        <ele>1957.0</ele>
        <time>2009-06-30T07:10:21Z</time>
      </trkpt>
      <trkpt lat="42.478098" lon="2.132187">
        <ele>1957.0</ele>
        <time>2009-06-30T07:10:27Z</time>
      </trkpt>
      <trkpt lat="42.478019" lon="2.132277">
        <ele>1957.0</ele>
        <time>2009-06-30T07:10:35Z</time>
      </trkpt>
      <trkpt lat="42.477939" lon="2.132358">
        <ele>1957.0</ele>
        <time>2009-06-30T07:10:42Z</time>
      </trkpt>
      <trkpt lat="42.477872" lon="2.132457">
        <ele>1957.0</ele>
        <time>2009-06-30T07:10:50Z</time>
      </trkpt>
      <trkpt lat="42.477799" lon="2.132547">
        <ele>1957.0</ele>
        <time>2009-06-30T07:10:57Z</time>
      </trkpt>
      <trkpt lat="42.477719" lon="2.132618">
        <ele>1947.0</ele>
        <time>2009-06-30T07:11:05Z</time>
      </trkpt>
      <trkpt lat="42.477633" lon="2.132690">
        <ele>1942.0</ele>
        <time>2009-06-30T07:11:12Z</time>
      </trkpt>
      <trkpt lat="42.477560" lon="2.132780">
        <ele>1942.0</ele>
        <time>2009-06-30T07:11:20Z</time>
      </trkpt>
      <trkpt lat="42.477507" lon="2.132897">
        <ele>1942.0</ele>
        <time>2009-06-30T07:11:26Z</time>
      </trkpt>
      <trkpt lat="42.477433" lon="2.132978">
        <ele>1942.0</ele>
        <time>2009-06-30T07:11:34Z</time>
      </trkpt>
      <trkpt lat="42.477367" lon="2.133086">
        <ele>1942.0</ele>
        <time>2009-06-30T07:11:42Z</time>
      </trkpt>
      <trkpt lat="42.477300" lon="2.133175">
        <ele>1950.0</ele>
        <time>2009-06-30T07:11:48Z</time>
      </trkpt>
      <trkpt lat="42.477241" lon="2.133283">
        <ele>1950.0</ele>
        <time>2009-06-30T07:11:55Z</time>
      </trkpt>
      <trkpt lat="42.477187" lon="2.133382">
        <ele>1950.0</ele>
        <time>2009-06-30T07:12:01Z</time>
      </trkpt>
      <trkpt lat="42.477134" lon="2.133490">
        <ele>1955.0</ele>
        <time>2009-06-30T07:12:08Z</time>
      </trkpt>
      <trkpt lat="42.477127" lon="2.133625">
        <ele>1950.0</ele>
        <time>2009-06-30T07:12:16Z</time>
      </trkpt>
      <trkpt lat="42.477081" lon="2.133759">
        <ele>1960.0</ele>
        <time>2009-06-30T07:12:25Z</time>
      </trkpt>
      <trkpt lat="42.477048" lon="2.133903">
        <ele>1960.0</ele>
        <time>2009-06-30T07:12:32Z</time>
      </trkpt>
      <trkpt lat="42.477001" lon="2.134020">
        <ele>1960.0</ele>
        <time>2009-06-30T07:12:40Z</time>
      </trkpt>
      <trkpt lat="42.476955" lon="2.134137">
        <ele>1960.0</ele>
        <time>2009-06-30T07:12:49Z</time>
      </trkpt>
      <trkpt lat="42.476921" lon="2.134262">
        <ele>1960.0</ele>
        <time>2009-06-30T07:12:57Z</time>
      </trkpt>
      <trkpt lat="42.476921" lon="2.134406">
        <ele>1960.0</ele>
        <time>2009-06-30T07:13:05Z</time>
      </trkpt>
      <trkpt lat="42.476915" lon="2.134532">
        <ele>1960.0</ele>
        <time>2009-06-30T07:13:12Z</time>
      </trkpt>
      <trkpt lat="42.476915" lon="2.134667">
        <ele>1960.0</ele>
        <time>2009-06-30T07:13:20Z</time>
      </trkpt>
      <trkpt lat="42.476928" lon="2.134792">
        <ele>1960.0</ele>
        <time>2009-06-30T07:13:27Z</time>
      </trkpt>
      <trkpt lat="42.476941" lon="2.134927">
        <ele>1960.0</ele>
        <time>2009-06-30T07:13:35Z</time>
      </trkpt>
      <trkpt lat="42.476941" lon="2.135071">
        <ele>1966.0</ele>
        <time>2009-06-30T07:13:44Z</time>
      </trkpt>
      <trkpt lat="42.476961" lon="2.135206">
        <ele>1971.0</ele>
        <time>2009-06-30T07:13:54Z</time>
      </trkpt>
      <trkpt lat="42.476968" lon="2.135331">
        <ele>1971.0</ele>
        <time>2009-06-30T07:14:02Z</time>
      </trkpt>
      <trkpt lat="42.477021" lon="2.135430">
        <ele>1971.0</ele>
        <time>2009-06-30T07:14:08Z</time>
      </trkpt>
      <trkpt lat="42.477074" lon="2.135547">
        <ele>1971.0</ele>
        <time>2009-06-30T07:14:17Z</time>
      </trkpt>
      <trkpt lat="42.477147" lon="2.135628">
        <ele>1971.0</ele>
        <time>2009-06-30T07:14:24Z</time>
      </trkpt>
      <trkpt lat="42.477194" lon="2.135736">
        <ele>1971.0</ele>
        <time>2009-06-30T07:14:32Z</time>
      </trkpt>
      <trkpt lat="42.477267" lon="2.135807">
        <ele>1971.0</ele>
        <time>2009-06-30T07:14:39Z</time>
      </trkpt>
      <trkpt lat="42.477334" lon="2.135897">
        <ele>1971.0</ele>
        <time>2009-06-30T07:14:47Z</time>
      </trkpt>
      <trkpt lat="42.477427" lon="2.135960">
        <ele>1977.0</ele>
        <time>2009-06-30T07:14:54Z</time>
      </trkpt>
      <trkpt lat="42.477500" lon="2.136041">
        <ele>1977.0</ele>
        <time>2009-06-30T07:15:03Z</time>
      </trkpt>
      <trkpt lat="42.477586" lon="2.136122">
        <ele>1977.0</ele>
        <time>2009-06-30T07:15:10Z</time>
      </trkpt>
      <trkpt lat="42.477640" lon="2.136221">
        <ele>1977.0</ele>
        <time>2009-06-30T07:15:18Z</time>
      </trkpt>
      <trkpt lat="42.477706" lon="2.136311">
        <ele>1977.0</ele>
        <time>2009-06-30T07:15:26Z</time>
      </trkpt>
      <trkpt lat="42.477779" lon="2.136418">
        <ele>1977.0</ele>
        <time>2009-06-30T07:15:34Z</time>
      </trkpt>
      <trkpt lat="42.477759" lon="2.136553">
        <ele>1977.0</ele>
        <time>2009-06-30T07:15:40Z</time>
      </trkpt>
      <trkpt lat="42.477819" lon="2.136652">
        <ele>1977.0</ele>
        <time>2009-06-30T07:15:48Z</time>
      </trkpt>
      <trkpt lat="42.477899" lon="2.136742">
        <ele>1972.0</ele>
        <time>2009-06-30T07:15:55Z</time>
      </trkpt>
      <trkpt lat="42.477965" lon="2.136850">
        <ele>1972.0</ele>
        <time>2009-06-30T07:16:03Z</time>
      </trkpt>
      <trkpt lat="42.478025" lon="2.136957">
        <ele>1972.0</ele>
        <time>2009-06-30T07:16:10Z</time>
      </trkpt>
      <trkpt lat="42.478092" lon="2.137065">
        <ele>1972.0</ele>
        <time>2009-06-30T07:16:17Z</time>
      </trkpt>
      <trkpt lat="42.478158" lon="2.137164">
        <ele>1972.0</ele>
        <time>2009-06-30T07:16:23Z</time>
      </trkpt>
      <trkpt lat="42.478178" lon="2.137308">
        <ele>1972.0</ele>
        <time>2009-06-30T07:16:30Z</time>
      </trkpt>
      <trkpt lat="42.478225" lon="2.137415">
        <ele>1972.0</ele>
        <time>2009-06-30T07:16:37Z</time>
      </trkpt>
      <trkpt lat="42.478251" lon="2.137541">
        <ele>1972.0</ele>
        <time>2009-06-30T07:16:44Z</time>
      </trkpt>
      <trkpt lat="42.478304" lon="2.137658">
        <ele>1972.0</ele>
        <time>2009-06-30T07:16:50Z</time>
      </trkpt>
      <trkpt lat="42.478331" lon="2.137784">
        <ele>1972.0</ele>
        <time>2009-06-30T07:16:57Z</time>
      </trkpt>
      <trkpt lat="42.478351" lon="2.137919">
        <ele>1972.0</ele>
        <time>2009-06-30T07:17:03Z</time>
      </trkpt>
      <trkpt lat="42.478378" lon="2.138044">
        <ele>1972.0</ele>
        <time>2009-06-30T07:17:10Z</time>
      </trkpt>
      <trkpt lat="42.478404" lon="2.138170">
        <ele>1972.0</ele>
        <time>2009-06-30T07:17:17Z</time>
      </trkpt>
      <trkpt lat="42.478358" lon="2.138305">
        <ele>1972.0</ele>
        <time>2009-06-30T07:17:23Z</time>
      </trkpt>
      <trkpt lat="42.478285" lon="2.138386">
        <ele>1972.0</ele>
        <time>2009-06-30T07:17:29Z</time>
      </trkpt>
      <trkpt lat="42.478218" lon="2.138475">
        <ele>1972.0</ele>
        <time>2009-06-30T07:17:36Z</time>
      </trkpt>
      <trkpt lat="42.478138" lon="2.138538">
        <ele>1972.0</ele>
        <time>2009-06-30T07:17:43Z</time>
      </trkpt>
      <trkpt lat="42.478058" lon="2.138637">
        <ele>1984.0</ele>
        <time>2009-06-30T07:17:49Z</time>
      </trkpt>
      <trkpt lat="42.477985" lon="2.138718">
        <ele>1984.0</ele>
        <time>2009-06-30T07:17:55Z</time>
      </trkpt>
      <trkpt lat="42.477892" lon="2.138754">
        <ele>1978.0</ele>
        <time>2009-06-30T07:18:04Z</time>
      </trkpt>
      <trkpt lat="42.477806" lon="2.138826">
        <ele>1978.0</ele>
        <time>2009-06-30T07:18:12Z</time>
      </trkpt>
      <trkpt lat="42.477726" lon="2.138898">
        <ele>1978.0</ele>
        <time>2009-06-30T07:18:18Z</time>
      </trkpt>
      <trkpt lat="42.477646" lon="2.138988">
        <ele>1978.0</ele>
        <time>2009-06-30T07:18:25Z</time>
      </trkpt>
      <trkpt lat="42.477580" lon="2.139077">
        <ele>1978.0</ele>
        <time>2009-06-30T07:18:32Z</time>
      </trkpt>
      <trkpt lat="42.477513" lon="2.139176">
        <ele>1978.0</ele>
        <time>2009-06-30T07:18:40Z</time>
      </trkpt>
      <trkpt lat="42.477433" lon="2.139248">
        <ele>1978.0</ele>
        <time>2009-06-30T07:18:47Z</time>
      </trkpt>
      <trkpt lat="42.477407" lon="2.139374">
        <ele>1978.0</ele>
        <time>2009-06-30T07:18:54Z</time>
      </trkpt>
      <trkpt lat="42.477360" lon="2.139482">
        <ele>1978.0</ele>
        <time>2009-06-30T07:19:00Z</time>
      </trkpt>
      <trkpt lat="42.477327" lon="2.139607">
        <ele>1978.0</ele>
        <time>2009-06-30T07:19:07Z</time>
      </trkpt>
      <trkpt lat="42.477280" lon="2.139733">
        <ele>1978.0</ele>
        <time>2009-06-30T07:19:15Z</time>
      </trkpt>
      <trkpt lat="42.477227" lon="2.139850">
        <ele>1978.0</ele>
        <time>2009-06-30T07:19:22Z</time>
      </trkpt>
      <trkpt lat="42.477187" lon="2.139967">
        <ele>1983.0</ele>
        <time>2009-06-30T07:19:28Z</time>
      </trkpt>
      <trkpt lat="42.477167" lon="2.140101">
        <ele>1983.0</ele>
        <time>2009-06-30T07:19:35Z</time>
      </trkpt>
      <trkpt lat="42.477127" lon="2.140218">
        <ele>1983.0</ele>
        <time>2009-06-30T07:19:43Z</time>
      </trkpt>
      <trkpt lat="42.477088" lon="2.140344">
        <ele>1983.0</ele>
        <time>2009-06-30T07:19:50Z</time>
      </trkpt>
      <trkpt lat="42.477054" lon="2.140479">
        <ele>1983.0</ele>
        <time>2009-06-30T07:19:56Z</time>
      </trkpt>
      <trkpt lat="42.476994" lon="2.140595">
        <ele>1983.0</ele>
        <time>2009-06-30T07:20:02Z</time>
      </trkpt>
      <trkpt lat="42.476948" lon="2.140703">
        <ele>1983.0</ele>
        <time>2009-06-30T07:20:09Z</time>
      </trkpt>
      <trkpt lat="42.476875" lon="2.140775">
        <ele>1983.0</ele>
        <time>2009-06-30T07:20:17Z</time>
      </trkpt>
      <trkpt lat="42.476808" lon="2.140865">
        <ele>1977.0</ele>
        <time>2009-06-30T07:20:24Z</time>
      </trkpt>
      <trkpt lat="42.476728" lon="2.140973">
        <ele>1977.0</ele>
        <time>2009-06-30T07:20:31Z</time>
      </trkpt>
      <trkpt lat="42.476642" lon="2.141045">
        <ele>1977.0</ele>
        <time>2009-06-30T07:20:39Z</time>
      </trkpt>
      <trkpt lat="42.476556" lon="2.141117">
        <ele>1977.0</ele>
        <time>2009-06-30T07:20:46Z</time>
      </trkpt>
      <trkpt lat="42.476469" lon="2.141161">
        <ele>1977.0</ele>
        <time>2009-06-30T07:20:53Z</time>
      </trkpt>
      <trkpt lat="42.476383" lon="2.141224">
        <ele>1985.0</ele>
        <time>2009-06-30T07:20:59Z</time>
      </trkpt>
      <trkpt lat="42.476290" lon="2.141242">
        <ele>1985.0</ele>
        <time>2009-06-30T07:21:06Z</time>
      </trkpt>
      <trkpt lat="42.476196" lon="2.141278">
        <ele>1985.0</ele>
        <time>2009-06-30T07:21:13Z</time>
      </trkpt>
      <trkpt lat="42.476103" lon="2.141296">
        <ele>1985.0</ele>
        <time>2009-06-30T07:21:20Z</time>
      </trkpt>
      <trkpt lat="42.476010" lon="2.141341">
        <ele>1985.0</ele>
        <time>2009-06-30T07:21:26Z</time>
      </trkpt>
      <trkpt lat="42.475924" lon="2.141395">
        <ele>1985.0</ele>
        <time>2009-06-30T07:21:32Z</time>
      </trkpt>
      <trkpt lat="42.475831" lon="2.141467">
        <ele>1993.0</ele>
        <time>2009-06-30T07:21:38Z</time>
      </trkpt>
      <trkpt lat="42.475738" lon="2.141494">
        <ele>1993.0</ele>
        <time>2009-06-30T07:21:45Z</time>
      </trkpt>
      <trkpt lat="42.475645" lon="2.141467">
        <ele>1993.0</ele>
        <time>2009-06-30T07:21:49Z</time>
      </trkpt>
      <trkpt lat="42.475551" lon="2.141494">
        <ele>1993.0</ele>
        <time>2009-06-30T07:21:58Z</time>
      </trkpt>
      <trkpt lat="42.475492" lon="2.141602">
        <ele>1993.0</ele>
        <time>2009-06-30T07:22:04Z</time>
      </trkpt>
      <trkpt lat="42.475412" lon="2.141664">
        <ele>1993.0</ele>
        <time>2009-06-30T07:22:11Z</time>
      </trkpt>
      <trkpt lat="42.475332" lon="2.141736">
        <ele>1993.0</ele>
        <time>2009-06-30T07:22:18Z</time>
      </trkpt>
      <trkpt lat="42.475239" lon="2.141799">
        <ele>1982.0</ele>
        <time>2009-06-30T07:22:26Z</time>
      </trkpt>
      <trkpt lat="42.475159" lon="2.141862">
        <ele>1982.0</ele>
        <time>2009-06-30T07:22:33Z</time>
      </trkpt>
      <trkpt lat="42.475073" lon="2.141916">
        <ele>1982.0</ele>
        <time>2009-06-30T07:22:40Z</time>
      </trkpt>
      <trkpt lat="42.474993" lon="2.142006">
        <ele>1982.0</ele>
        <time>2009-06-30T07:22:46Z</time>
      </trkpt>
      <trkpt lat="42.474933" lon="2.142105">
        <ele>1988.0</ele>
        <time>2009-06-30T07:22:50Z</time>
      </trkpt>
      <trkpt lat="42.474853" lon="2.142194">
        <ele>1988.0</ele>
        <time>2009-06-30T07:22:55Z</time>
      </trkpt>
      <trkpt lat="42.474760" lon="2.142230">
        <ele>1988.0</ele>
        <time>2009-06-30T07:23:03Z</time>
      </trkpt>
      <trkpt lat="42.474687" lon="2.142302">
        <ele>1988.0</ele>
        <time>2009-06-30T07:23:09Z</time>
      </trkpt>
      <trkpt lat="42.474607" lon="2.142383">
        <ele>1988.0</ele>
        <time>2009-06-30T07:23:15Z</time>
      </trkpt>
      <trkpt lat="42.474514" lon="2.142419">
        <ele>1988.0</ele>
        <time>2009-06-30T07:23:23Z</time>
      </trkpt>
      <trkpt lat="42.474421" lon="2.142455">
        <ele>1988.0</ele>
        <time>2009-06-30T07:23:29Z</time>
      </trkpt>
      <trkpt lat="42.474348" lon="2.142536">
        <ele>1988.0</ele>
        <time>2009-06-30T07:23:34Z</time>
      </trkpt>
      <trkpt lat="42.474255" lon="2.142590">
        <ele>1978.0</ele>
        <time>2009-06-30T07:23:41Z</time>
      </trkpt>
      <trkpt lat="42.474168" lon="2.142653">
        <ele>1978.0</ele>
        <time>2009-06-30T07:23:49Z</time>
      </trkpt>
      <trkpt lat="42.474102" lon="2.142742">
        <ele>1978.0</ele>
        <time>2009-06-30T07:23:55Z</time>
      </trkpt>
      <trkpt lat="42.474009" lon="2.142787">
        <ele>1973.0</ele>
        <time>2009-06-30T07:24:01Z</time>
      </trkpt>
      <trkpt lat="42.473922" lon="2.142859">
        <ele>1973.0</ele>
        <time>2009-06-30T07:24:07Z</time>
      </trkpt>
      <trkpt lat="42.473856" lon="2.142949">
        <ele>1973.0</ele>
        <time>2009-06-30T07:24:14Z</time>
      </trkpt>
      <trkpt lat="42.473796" lon="2.143048">
        <ele>1973.0</ele>
        <time>2009-06-30T07:24:20Z</time>
      </trkpt>
      <trkpt lat="42.473723" lon="2.143147">
        <ele>1973.0</ele>
        <time>2009-06-30T07:24:29Z</time>
      </trkpt>
      <trkpt lat="42.473656" lon="2.143246">
        <ele>1966.0</ele>
        <time>2009-06-30T07:24:35Z</time>
      </trkpt>
      <trkpt lat="42.473583" lon="2.143326">
        <ele>1966.0</ele>
        <time>2009-06-30T07:24:41Z</time>
      </trkpt>
      <trkpt lat="42.473510" lon="2.143425">
        <ele>1966.0</ele>
        <time>2009-06-30T07:24:47Z</time>
      </trkpt>
      <trkpt lat="42.473443" lon="2.143515">
        <ele>1966.0</ele>
        <time>2009-06-30T07:24:53Z</time>
      </trkpt>
      <trkpt lat="42.473357" lon="2.143587">
        <ele>1966.0</ele>
        <time>2009-06-30T07:25:00Z</time>
      </trkpt>
      <trkpt lat="42.473284" lon="2.143677">
        <ele>1960.0</ele>
        <time>2009-06-30T07:25:06Z</time>
      </trkpt>
      <trkpt lat="42.473231" lon="2.143785">
        <ele>1960.0</ele>
        <time>2009-06-30T07:25:10Z</time>
      </trkpt>
      <trkpt lat="42.473164" lon="2.143874">
        <ele>1967.0</ele>
        <time>2009-06-30T07:25:14Z</time>
      </trkpt>
      <trkpt lat="42.473084" lon="2.143973">
        <ele>1967.0</ele>
        <time>2009-06-30T07:25:20Z</time>
      </trkpt>
      <trkpt lat="42.472991" lon="2.144072">
        <ele>1967.0</ele>
        <time>2009-06-30T07:25:30Z</time>
      </trkpt>
      <trkpt lat="42.472898" lon="2.144108">
        <ele>1959.0</ele>
        <time>2009-06-30T07:25:43Z</time>
      </trkpt>
      <trkpt lat="42.472818" lon="2.144171">
        <ele>1959.0</ele>
        <time>2009-06-30T07:25:50Z</time>
      </trkpt>
      <trkpt lat="42.472719" lon="2.144207">
        <ele>1952.0</ele>
        <time>2009-06-30T07:25:57Z</time>
      </trkpt>
      <trkpt lat="42.472639" lon="2.144270">
        <ele>1952.0</ele>
        <time>2009-06-30T07:26:03Z</time>
      </trkpt>
      <trkpt lat="42.472566" lon="2.144341">
        <ele>1946.0</ele>
        <time>2009-06-30T07:26:10Z</time>
      </trkpt>
      <trkpt lat="42.472499" lon="2.144449">
        <ele>1946.0</ele>
        <time>2009-06-30T07:26:15Z</time>
      </trkpt>
      <trkpt lat="42.472426" lon="2.144548">
        <ele>1954.0</ele>
        <time>2009-06-30T07:26:21Z</time>
      </trkpt>
      <trkpt lat="42.472339" lon="2.144593">
        <ele>1954.0</ele>
        <time>2009-06-30T07:26:28Z</time>
      </trkpt>
      <trkpt lat="42.472266" lon="2.144692">
        <ele>1954.0</ele>
        <time>2009-06-30T07:26:33Z</time>
      </trkpt>
      <trkpt lat="42.472180" lon="2.144737">
        <ele>1948.0</ele>
        <time>2009-06-30T07:26:41Z</time>
      </trkpt>
      <trkpt lat="42.472100" lon="2.144827">
        <ele>1948.0</ele>
        <time>2009-06-30T07:26:49Z</time>
      </trkpt>
      <trkpt lat="42.472027" lon="2.144907">
        <ele>1948.0</ele>
        <time>2009-06-30T07:26:57Z</time>
      </trkpt>
      <trkpt lat="42.471954" lon="2.144988">
        <ele>1948.0</ele>
        <time>2009-06-30T07:27:04Z</time>
      </trkpt>
      <trkpt lat="42.471894" lon="2.145096">
        <ele>1948.0</ele>
        <time>2009-06-30T07:27:10Z</time>
      </trkpt>
      <trkpt lat="42.471834" lon="2.145204">
        <ele>1948.0</ele>
        <time>2009-06-30T07:27:16Z</time>
      </trkpt>
      <trkpt lat="42.471768" lon="2.145303">
        <ele>1948.0</ele>
        <time>2009-06-30T07:27:23Z</time>
      </trkpt>
      <trkpt lat="42.471701" lon="2.145401">
        <ele>1934.0</ele>
        <time>2009-06-30T07:27:32Z</time>
      </trkpt>
      <trkpt lat="42.471648" lon="2.145500">
        <ele>1934.0</ele>
        <time>2009-06-30T07:27:37Z</time>
      </trkpt>
      <trkpt lat="42.471588" lon="2.145599">
        <ele>1934.0</ele>
        <time>2009-06-30T07:27:43Z</time>
      </trkpt>
      <trkpt lat="42.471521" lon="2.145707">
        <ele>1934.0</ele>
        <time>2009-06-30T07:27:49Z</time>
      </trkpt>
      <trkpt lat="42.471455" lon="2.145815">
        <ele>1943.0</ele>
        <time>2009-06-30T07:27:54Z</time>
      </trkpt>
      <trkpt lat="42.471388" lon="2.145914">
        <ele>1943.0</ele>
        <time>2009-06-30T07:27:58Z</time>
      </trkpt>
      <trkpt lat="42.471315" lon="2.145994">
        <ele>1943.0</ele>
        <time>2009-06-30T07:28:07Z</time>
      </trkpt>
      <trkpt lat="42.471222" lon="2.146030">
        <ele>1943.0</ele>
        <time>2009-06-30T07:28:17Z</time>
      </trkpt>
      <trkpt lat="42.471142" lon="2.146111">
        <ele>1937.0</ele>
        <time>2009-06-30T07:28:26Z</time>
      </trkpt>
      <trkpt lat="42.471063" lon="2.146183">
        <ele>1937.0</ele>
        <time>2009-06-30T07:28:34Z</time>
      </trkpt>
      <trkpt lat="42.470976" lon="2.146228">
        <ele>1944.0</ele>
        <time>2009-06-30T07:28:43Z</time>
      </trkpt>
      <trkpt lat="42.470890" lon="2.146291">
        <ele>1944.0</ele>
        <time>2009-06-30T07:28:51Z</time>
      </trkpt>
      <trkpt lat="42.470797" lon="2.146327">
        <ele>1944.0</ele>
        <time>2009-06-30T07:28:57Z</time>
      </trkpt>
      <trkpt lat="42.470703" lon="2.146336">
        <ele>1944.0</ele>
        <time>2009-06-30T07:29:06Z</time>
      </trkpt>
      <trkpt lat="42.470630" lon="2.146408">
        <ele>1949.0</ele>
        <time>2009-06-30T07:29:11Z</time>
      </trkpt>
      <trkpt lat="42.470550" lon="2.146470">
        <ele>1949.0</ele>
        <time>2009-06-30T07:29:17Z</time>
      </trkpt>
      <trkpt lat="42.470477" lon="2.146542">
        <ele>1939.0</ele>
        <time>2009-06-30T07:29:22Z</time>
      </trkpt>
      <trkpt lat="42.470398" lon="2.146614">
        <ele>1947.0</ele>
        <time>2009-06-30T07:29:27Z</time>
      </trkpt>
      <trkpt lat="42.470318" lon="2.146695">
        <ele>1954.0</ele>
        <time>2009-06-30T07:29:34Z</time>
      </trkpt>
      <trkpt lat="42.470251" lon="2.146785">
        <ele>1954.0</ele>
        <time>2009-06-30T07:29:42Z</time>
      </trkpt>
      <trkpt lat="42.470185" lon="2.146884">
        <ele>1947.0</ele>
        <time>2009-06-30T07:29:51Z</time>
      </trkpt>
      <trkpt lat="42.470125" lon="2.146983">
        <ele>1947.0</ele>
        <time>2009-06-30T07:29:57Z</time>
      </trkpt>
      <trkpt lat="42.470058" lon="2.147081">
        <ele>1947.0</ele>
        <time>2009-06-30T07:30:03Z</time>
      </trkpt>
      <trkpt lat="42.469992" lon="2.147189">
        <ele>1947.0</ele>
        <time>2009-06-30T07:30:10Z</time>
      </trkpt>
      <trkpt lat="42.469932" lon="2.147297">
        <ele>1947.0</ele>
        <time>2009-06-30T07:30:16Z</time>
      </trkpt>
      <trkpt lat="42.469879" lon="2.147396">
        <ele>1941.0</ele>
        <time>2009-06-30T07:30:23Z</time>
      </trkpt>
      <trkpt lat="42.469826" lon="2.147504">
        <ele>1941.0</ele>
        <time>2009-06-30T07:30:29Z</time>
      </trkpt>
      <trkpt lat="42.469766" lon="2.147602">
        <ele>1941.0</ele>
        <time>2009-06-30T07:30:35Z</time>
      </trkpt>
      <trkpt lat="42.469693" lon="2.147701">
        <ele>1941.0</ele>
        <time>2009-06-30T07:30:42Z</time>
      </trkpt>
      <trkpt lat="42.469633" lon="2.147809">
        <ele>1941.0</ele>
        <time>2009-06-30T07:30:48Z</time>
      </trkpt>
      <trkpt lat="42.469560" lon="2.147908">
        <ele>1941.0</ele>
        <time>2009-06-30T07:30:55Z</time>
      </trkpt>
      <trkpt lat="42.469480" lon="2.147989">
        <ele>1941.0</ele>
        <time>2009-06-30T07:31:03Z</time>
      </trkpt>
      <trkpt lat="42.469387" lon="2.148025">
        <ele>1941.0</ele>
        <time>2009-06-30T07:31:14Z</time>
      </trkpt>
      <trkpt lat="42.469300" lon="2.148105">
        <ele>1935.0</ele>
        <time>2009-06-30T07:31:21Z</time>
      </trkpt>
      <trkpt lat="42.469234" lon="2.148195">
        <ele>1935.0</ele>
        <time>2009-06-30T07:31:30Z</time>
      </trkpt>
      <trkpt lat="42.469154" lon="2.148267">
        <ele>1935.0</ele>
        <time>2009-06-30T07:31:36Z</time>
      </trkpt>
      <trkpt lat="42.469107" lon="2.148375">
        <ele>1935.0</ele>
        <time>2009-06-30T07:31:44Z</time>
      </trkpt>
      <trkpt lat="42.469081" lon="2.148492">
        <ele>1935.0</ele>
        <time>2009-06-30T07:31:51Z</time>
      </trkpt>
      <trkpt lat="42.468974" lon="2.148582">
        <ele>1930.0</ele>
        <time>2009-06-30T07:32:54Z</time>
      </trkpt>
      <trkpt lat="42.468881" lon="2.148590">
        <ele>1930.0</ele>
        <time>2009-06-30T07:32:59Z</time>
      </trkpt>
      <trkpt lat="42.468801" lon="2.148680">
        <ele>1940.0</ele>
        <time>2009-06-30T07:33:19Z</time>
      </trkpt>
      <trkpt lat="42.468715" lon="2.148725">
        <ele>1940.0</ele>
        <time>2009-06-30T07:33:26Z</time>
      </trkpt>
      <trkpt lat="42.468628" lon="2.148779">
        <ele>1940.0</ele>
        <time>2009-06-30T07:33:37Z</time>
      </trkpt>
      <trkpt lat="42.468535" lon="2.148797">
        <ele>1940.0</ele>
        <time>2009-06-30T07:33:44Z</time>
      </trkpt>
      <trkpt lat="42.468429" lon="2.148788">
        <ele>1940.0</ele>
        <time>2009-06-30T07:33:50Z</time>
      </trkpt>
      <trkpt lat="42.468329" lon="2.148797">
        <ele>1940.0</ele>
        <time>2009-06-30T07:34:00Z</time>
      </trkpt>
      <trkpt lat="42.468170" lon="2.148842">
        <ele>1951.0</ele>
        <time>2009-06-30T07:34:19Z</time>
      </trkpt>
      <trkpt lat="42.468123" lon="2.148977">
        <ele>1960.0</ele>
        <time>2009-06-30T07:34:26Z</time>
      </trkpt>
      <trkpt lat="42.468096" lon="2.149103">
        <ele>1951.0</ele>
        <time>2009-06-30T07:34:48Z</time>
      </trkpt>
      <trkpt lat="42.468030" lon="2.149219">
        <ele>1951.0</ele>
        <time>2009-06-30T07:34:56Z</time>
      </trkpt>
      <trkpt lat="42.467970" lon="2.149318">
        <ele>1951.0</ele>
        <time>2009-06-30T07:35:09Z</time>
      </trkpt>
      <trkpt lat="42.467923" lon="2.149426">
        <ele>1945.0</ele>
        <time>2009-06-30T07:35:16Z</time>
      </trkpt>
      <trkpt lat="42.467870" lon="2.149525">
        <ele>1952.0</ele>
        <time>2009-06-30T07:35:21Z</time>
      </trkpt>
      <trkpt lat="42.467877" lon="2.149740">
        <ele>1957.0</ele>
        <time>2009-06-30T07:35:39Z</time>
      </trkpt>
      <trkpt lat="42.467897" lon="2.149974">
        <ele>1950.0</ele>
        <time>2009-06-30T07:36:02Z</time>
      </trkpt>
      <trkpt lat="42.467830" lon="2.150082">
        <ele>1962.0</ele>
        <time>2009-06-30T07:36:26Z</time>
      </trkpt>
      <trkpt lat="42.467777" lon="2.150189">
        <ele>1970.0</ele>
        <time>2009-06-30T07:36:34Z</time>
      </trkpt>
      <trkpt lat="42.467724" lon="2.150297">
        <ele>1970.0</ele>
        <time>2009-06-30T07:36:50Z</time>
      </trkpt>
      <trkpt lat="42.467677" lon="2.150414">
        <ele>1970.0</ele>
        <time>2009-06-30T07:36:57Z</time>
      </trkpt>
      <trkpt lat="42.467611" lon="2.150504">
        <ele>1976.0</ele>
        <time>2009-06-30T07:37:05Z</time>
      </trkpt>
      <trkpt lat="42.467538" lon="2.150576">
        <ele>1976.0</ele>
        <time>2009-06-30T07:37:15Z</time>
      </trkpt>
      <trkpt lat="42.467465" lon="2.150666">
        <ele>1982.0</ele>
        <time>2009-06-30T07:37:24Z</time>
      </trkpt>
      <trkpt lat="42.467385" lon="2.150746">
        <ele>1982.0</ele>
        <time>2009-06-30T07:37:31Z</time>
      </trkpt>
      <trkpt lat="42.467312" lon="2.150818">
        <ele>1982.0</ele>
        <time>2009-06-30T07:37:42Z</time>
      </trkpt>
      <trkpt lat="42.467225" lon="2.150899">
        <ele>1982.0</ele>
        <time>2009-06-30T07:37:52Z</time>
      </trkpt>
      <trkpt lat="42.467139" lon="2.150953">
        <ele>1982.0</ele>
        <time>2009-06-30T07:38:01Z</time>
      </trkpt>
      <trkpt lat="42.467072" lon="2.151043">
        <ele>1982.0</ele>
        <time>2009-06-30T07:38:10Z</time>
      </trkpt>
      <trkpt lat="42.466992" lon="2.151106">
        <ele>1982.0</ele>
        <time>2009-06-30T07:38:22Z</time>
      </trkpt>
      <trkpt lat="42.466926" lon="2.151205">
        <ele>1982.0</ele>
        <time>2009-06-30T07:38:32Z</time>
      </trkpt>
      <trkpt lat="42.466866" lon="2.151312">
        <ele>1982.0</ele>
        <time>2009-06-30T07:38:43Z</time>
      </trkpt>
      <trkpt lat="42.466773" lon="2.151330">
        <ele>1982.0</ele>
        <time>2009-06-30T07:38:54Z</time>
      </trkpt>
      <trkpt lat="42.466680" lon="2.151357">
        <ele>1982.0</ele>
        <time>2009-06-30T07:39:03Z</time>
      </trkpt>
      <trkpt lat="42.466580" lon="2.151375">
        <ele>1982.0</ele>
        <time>2009-06-30T07:39:13Z</time>
      </trkpt>
      <trkpt lat="42.466487" lon="2.151411">
        <ele>1982.0</ele>
        <time>2009-06-30T07:39:21Z</time>
      </trkpt>
      <trkpt lat="42.466400" lon="2.151474">
        <ele>1998.0</ele>
        <time>2009-06-30T07:39:30Z</time>
      </trkpt>
      <trkpt lat="42.466301" lon="2.151483">
        <ele>1998.0</ele>
        <time>2009-06-30T07:39:43Z</time>
      </trkpt>
      <trkpt lat="42.466214" lon="2.151537">
        <ele>1998.0</ele>
        <time>2009-06-30T07:39:54Z</time>
      </trkpt>
      <trkpt lat="42.466141" lon="2.151609">
        <ele>1998.0</ele>
        <time>2009-06-30T07:40:04Z</time>
      </trkpt>
      <trkpt lat="42.466055" lon="2.151645">
        <ele>1998.0</ele>
        <time>2009-06-30T07:40:18Z</time>
      </trkpt>
      <trkpt lat="42.465955" lon="2.151636">
        <ele>1991.0</ele>
        <time>2009-06-30T07:40:28Z</time>
      </trkpt>
      <trkpt lat="42.465868" lon="2.151582">
        <ele>1978.0</ele>
        <time>2009-06-30T07:40:35Z</time>
      </trkpt>
      <trkpt lat="42.465656" lon="2.151546">
        <ele>2012.0</ele>
        <time>2009-06-30T07:45:31Z</time>
      </trkpt>
      <trkpt lat="42.465562" lon="2.151546">
        <ele>2012.0</ele>
        <time>2009-06-30T07:45:40Z</time>
      </trkpt>
      <trkpt lat="42.465469" lon="2.151546">
        <ele>2012.0</ele>
        <time>2009-06-30T07:45:47Z</time>
      </trkpt>
      <trkpt lat="42.465376" lon="2.151510">
        <ele>2012.0</ele>
        <time>2009-06-30T07:45:57Z</time>
      </trkpt>
      <trkpt lat="42.465276" lon="2.151474">
        <ele>2018.0</ele>
        <time>2009-06-30T07:46:11Z</time>
      </trkpt>
      <trkpt lat="42.465203" lon="2.151384">
        <ele>2018.0</ele>
        <time>2009-06-30T07:46:18Z</time>
      </trkpt>
      <trkpt lat="42.465137" lon="2.151294">
        <ele>2011.0</ele>
        <time>2009-06-30T07:46:25Z</time>
      </trkpt>
      <trkpt lat="42.465077" lon="2.151187">
        <ele>2011.0</ele>
        <time>2009-06-30T07:46:32Z</time>
      </trkpt>
      <trkpt lat="42.465010" lon="2.151097">
        <ele>2017.0</ele>
        <time>2009-06-30T07:46:41Z</time>
      </trkpt>
      <trkpt lat="42.464937" lon="2.151016">
        <ele>2017.0</ele>
        <time>2009-06-30T07:46:49Z</time>
      </trkpt>
      <trkpt lat="42.464871" lon="2.150926">
        <ele>2017.0</ele>
        <time>2009-06-30T07:46:58Z</time>
      </trkpt>
      <trkpt lat="42.464791" lon="2.150818">
        <ele>2017.0</ele>
        <time>2009-06-30T07:47:08Z</time>
      </trkpt>
      <trkpt lat="42.464711" lon="2.150746">
        <ele>2030.0</ele>
        <time>2009-06-30T07:47:18Z</time>
      </trkpt>
      <trkpt lat="42.464625" lon="2.150702">
        <ele>2030.0</ele>
        <time>2009-06-30T07:47:26Z</time>
      </trkpt>
      <trkpt lat="42.464525" lon="2.150702">
        <ele>2030.0</ele>
        <time>2009-06-30T07:47:33Z</time>
      </trkpt>
      <trkpt lat="42.464432" lon="2.150711">
        <ele>2030.0</ele>
        <time>2009-06-30T07:47:41Z</time>
      </trkpt>
      <trkpt lat="42.464339" lon="2.150746">
        <ele>2035.0</ele>
        <time>2009-06-30T07:47:49Z</time>
      </trkpt>
      <trkpt lat="42.464239" lon="2.150764">
        <ele>2035.0</ele>
        <time>2009-06-30T07:48:01Z</time>
      </trkpt>
      <trkpt lat="42.464159" lon="2.150827">
        <ele>2035.0</ele>
        <time>2009-06-30T07:48:10Z</time>
      </trkpt>
      <trkpt lat="42.464059" lon="2.150800">
        <ele>2035.0</ele>
        <time>2009-06-30T07:48:18Z</time>
      </trkpt>
      <trkpt lat="42.463973" lon="2.150737">
        <ele>2030.0</ele>
        <time>2009-06-30T07:48:28Z</time>
      </trkpt>
      <trkpt lat="42.463880" lon="2.150711">
        <ele>2030.0</ele>
        <time>2009-06-30T07:48:39Z</time>
      </trkpt>
      <trkpt lat="42.463787" lon="2.150684">
        <ele>2030.0</ele>
        <time>2009-06-30T07:48:50Z</time>
      </trkpt>
      <trkpt lat="42.463720" lon="2.150594">
        <ele>2038.0</ele>
        <time>2009-06-30T07:48:59Z</time>
      </trkpt>
      <trkpt lat="42.463627" lon="2.150549">
        <ele>2038.0</ele>
        <time>2009-06-30T07:49:07Z</time>
      </trkpt>
      <trkpt lat="42.463521" lon="2.150540">
        <ele>2038.0</ele>
        <time>2009-06-30T07:49:16Z</time>
      </trkpt>
      <trkpt lat="42.463427" lon="2.150522">
        <ele>2038.0</ele>
        <time>2009-06-30T07:49:25Z</time>
      </trkpt>
      <trkpt lat="42.463334" lon="2.150495">
        <ele>2044.0</ele>
        <time>2009-06-30T07:49:34Z</time>
      </trkpt>
      <trkpt lat="42.463241" lon="2.150504">
        <ele>2044.0</ele>
        <time>2009-06-30T07:49:41Z</time>
      </trkpt>
      <trkpt lat="42.463161" lon="2.150423">
        <ele>2054.0</ele>
        <time>2009-06-30T07:49:50Z</time>
      </trkpt>
      <trkpt lat="42.463088" lon="2.150324">
        <ele>2054.0</ele>
        <time>2009-06-30T07:50:02Z</time>
      </trkpt>
      <trkpt lat="42.463002" lon="2.150270">
        <ele>2060.0</ele>
        <time>2009-06-30T07:50:10Z</time>
      </trkpt>
      <trkpt lat="42.462909" lon="2.150225">
        <ele>2053.0</ele>
        <time>2009-06-30T07:50:17Z</time>
      </trkpt>
      <trkpt lat="42.462822" lon="2.150181">
        <ele>2046.0</ele>
        <time>2009-06-30T07:50:26Z</time>
      </trkpt>
      <trkpt lat="42.462742" lon="2.150109">
        <ele>2046.0</ele>
        <time>2009-06-30T07:50:40Z</time>
      </trkpt>
      <trkpt lat="42.462643" lon="2.150073">
        <ele>2046.0</ele>
        <time>2009-06-30T07:50:52Z</time>
      </trkpt>
      <trkpt lat="42.462549" lon="2.150019">
        <ele>2052.0</ele>
        <time>2009-06-30T07:51:01Z</time>
      </trkpt>
      <trkpt lat="42.462470" lon="2.149947">
        <ele>2057.0</ele>
        <time>2009-06-30T07:51:09Z</time>
      </trkpt>
      <trkpt lat="42.462383" lon="2.149884">
        <ele>2057.0</ele>
        <time>2009-06-30T07:51:19Z</time>
      </trkpt>
      <trkpt lat="42.462297" lon="2.149929">
        <ele>2057.0</ele>
        <time>2009-06-30T07:51:24Z</time>
      </trkpt>
      <trkpt lat="42.462210" lon="2.149893">
        <ele>2057.0</ele>
        <time>2009-06-30T07:51:33Z</time>
      </trkpt>
      <trkpt lat="42.462124" lon="2.149830">
        <ele>2050.0</ele>
        <time>2009-06-30T07:51:41Z</time>
      </trkpt>
      <trkpt lat="42.462037" lon="2.149767">
        <ele>2050.0</ele>
        <time>2009-06-30T07:51:50Z</time>
      </trkpt>
      <trkpt lat="42.461951" lon="2.149713">
        <ele>2050.0</ele>
        <time>2009-06-30T07:52:00Z</time>
      </trkpt>
      <trkpt lat="42.461864" lon="2.149668">
        <ele>2050.0</ele>
        <time>2009-06-30T07:52:09Z</time>
      </trkpt>
      <trkpt lat="42.461771" lon="2.149633">
        <ele>2057.0</ele>
        <time>2009-06-30T07:52:20Z</time>
      </trkpt>
      <trkpt lat="42.461678" lon="2.149633">
        <ele>2057.0</ele>
        <time>2009-06-30T07:52:27Z</time>
      </trkpt>
      <trkpt lat="42.461598" lon="2.149570">
        <ele>2057.0</ele>
        <time>2009-06-30T07:52:37Z</time>
      </trkpt>
      <trkpt lat="42.461505" lon="2.149516">
        <ele>2057.0</ele>
        <time>2009-06-30T07:52:46Z</time>
      </trkpt>
      <trkpt lat="42.461419" lon="2.149480">
        <ele>2057.0</ele>
        <time>2009-06-30T07:52:54Z</time>
      </trkpt>
      <trkpt lat="42.461319" lon="2.149480">
        <ele>2057.0</ele>
        <time>2009-06-30T07:53:02Z</time>
      </trkpt>
      <trkpt lat="42.461239" lon="2.149417">
        <ele>2064.0</ele>
        <time>2009-06-30T07:53:10Z</time>
      </trkpt>
      <trkpt lat="42.461186" lon="2.149318">
        <ele>2064.0</ele>
        <time>2009-06-30T07:53:18Z</time>
      </trkpt>
      <trkpt lat="42.461093" lon="2.149363">
        <ele>2064.0</ele>
        <time>2009-06-30T07:53:26Z</time>
      </trkpt>
      <trkpt lat="42.461006" lon="2.149399">
        <ele>2072.0</ele>
        <time>2009-06-30T07:53:35Z</time>
      </trkpt>
      <trkpt lat="42.460926" lon="2.149336">
        <ele>2072.0</ele>
        <time>2009-06-30T07:53:46Z</time>
      </trkpt>
      <trkpt lat="42.460840" lon="2.149273">
        <ele>2072.0</ele>
        <time>2009-06-30T07:53:59Z</time>
      </trkpt>
      <trkpt lat="42.460747" lon="2.149246">
        <ele>2072.0</ele>
        <time>2009-06-30T07:54:13Z</time>
      </trkpt>
      <trkpt lat="42.460660" lon="2.149300">
        <ele>2080.0</ele>
        <time>2009-06-30T07:54:25Z</time>
      </trkpt>
      <trkpt lat="42.460574" lon="2.149336">
        <ele>2080.0</ele>
        <time>2009-06-30T07:54:36Z</time>
      </trkpt>
      <trkpt lat="42.460487" lon="2.149300">
        <ele>2085.0</ele>
        <time>2009-06-30T07:54:48Z</time>
      </trkpt>
      <trkpt lat="42.460434" lon="2.149201">
        <ele>2085.0</ele>
        <time>2009-06-30T07:55:00Z</time>
      </trkpt>
      <trkpt lat="42.460348" lon="2.149147">
        <ele>2085.0</ele>
        <time>2009-06-30T07:55:15Z</time>
      </trkpt>
      <trkpt lat="42.460281" lon="2.149058">
        <ele>2095.0</ele>
        <time>2009-06-30T07:55:32Z</time>
      </trkpt>
      <trkpt lat="42.460248" lon="2.148932">
        <ele>2095.0</ele>
        <time>2009-06-30T07:55:46Z</time>
      </trkpt>
      <trkpt lat="42.460228" lon="2.148797">
        <ele>2095.0</ele>
        <time>2009-06-30T07:55:58Z</time>
      </trkpt>
      <trkpt lat="42.460162" lon="2.148707">
        <ele>2095.0</ele>
        <time>2009-06-30T07:56:31Z</time>
      </trkpt>
      <trkpt lat="42.460068" lon="2.148725">
        <ele>2101.0</ele>
        <time>2009-06-30T07:57:33Z</time>
      </trkpt>
      <trkpt lat="42.459969" lon="2.148725">
        <ele>2101.0</ele>
        <time>2009-06-30T07:57:43Z</time>
      </trkpt>
      <trkpt lat="42.459882" lon="2.148770">
        <ele>2101.0</ele>
        <time>2009-06-30T07:57:53Z</time>
      </trkpt>
      <trkpt lat="42.459816" lon="2.148671">
        <ele>2101.0</ele>
        <time>2009-06-30T07:58:03Z</time>
      </trkpt>
      <trkpt lat="42.459736" lon="2.148608">
        <ele>2101.0</ele>
        <time>2009-06-30T07:58:10Z</time>
      </trkpt>
      <trkpt lat="42.459663" lon="2.148528">
        <ele>2101.0</ele>
        <time>2009-06-30T07:58:18Z</time>
      </trkpt>
      <trkpt lat="42.459563" lon="2.148501">
        <ele>2101.0</ele>
        <time>2009-06-30T07:58:30Z</time>
      </trkpt>
      <trkpt lat="42.459476" lon="2.148447">
        <ele>2109.0</ele>
        <time>2009-06-30T07:58:44Z</time>
      </trkpt>
      <trkpt lat="42.459383" lon="2.148465">
        <ele>2109.0</ele>
        <time>2009-06-30T07:58:52Z</time>
      </trkpt>
      <trkpt lat="42.459303" lon="2.148393">
        <ele>2109.0</ele>
        <time>2009-06-30T07:59:03Z</time>
      </trkpt>
      <trkpt lat="42.459210" lon="2.148348">
        <ele>2114.0</ele>
        <time>2009-06-30T07:59:13Z</time>
      </trkpt>
      <trkpt lat="42.459137" lon="2.148276">
        <ele>2114.0</ele>
        <time>2009-06-30T07:59:25Z</time>
      </trkpt>
      <trkpt lat="42.459044" lon="2.148276">
        <ele>2114.0</ele>
        <time>2009-06-30T07:59:39Z</time>
      </trkpt>
      <trkpt lat="42.458951" lon="2.148312">
        <ele>2121.0</ele>
        <time>2009-06-30T07:59:50Z</time>
      </trkpt>
      <trkpt lat="42.458858" lon="2.148348">
        <ele>2121.0</ele>
        <time>2009-06-30T07:59:57Z</time>
      </trkpt>
      <trkpt lat="42.458765" lon="2.148330">
        <ele>2121.0</ele>
        <time>2009-06-30T08:00:07Z</time>
      </trkpt>
      <trkpt lat="42.458665" lon="2.148312">
        <ele>2121.0</ele>
        <time>2009-06-30T08:00:16Z</time>
      </trkpt>
      <trkpt lat="42.458572" lon="2.148321">
        <ele>2128.0</ele>
        <time>2009-06-30T08:00:24Z</time>
      </trkpt>
      <trkpt lat="42.458472" lon="2.148339">
        <ele>2128.0</ele>
        <time>2009-06-30T08:00:34Z</time>
      </trkpt>
      <trkpt lat="42.458379" lon="2.148402">
        <ele>2128.0</ele>
        <time>2009-06-30T08:00:41Z</time>
      </trkpt>
      <trkpt lat="42.458286" lon="2.148402">
        <ele>2128.0</ele>
        <time>2009-06-30T08:00:50Z</time>
      </trkpt>
      <trkpt lat="42.458206" lon="2.148339">
        <ele>2128.0</ele>
        <time>2009-06-30T08:01:01Z</time>
      </trkpt>
      <trkpt lat="42.458126" lon="2.148267">
        <ele>2128.0</ele>
        <time>2009-06-30T08:01:17Z</time>
      </trkpt>
      <trkpt lat="42.458026" lon="2.148285">
        <ele>2135.0</ele>
        <time>2009-06-30T08:01:30Z</time>
      </trkpt>
      <trkpt lat="42.457953" lon="2.148213">
        <ele>2135.0</ele>
        <time>2009-06-30T08:01:46Z</time>
      </trkpt>
      <trkpt lat="42.457873" lon="2.148150">
        <ele>2135.0</ele>
        <time>2009-06-30T08:01:54Z</time>
      </trkpt>
      <trkpt lat="42.457787" lon="2.148114">
        <ele>2135.0</ele>
        <time>2009-06-30T08:02:03Z</time>
      </trkpt>
      <trkpt lat="42.457740" lon="2.148007">
        <ele>2141.0</ele>
        <time>2009-06-30T08:02:12Z</time>
      </trkpt>
      <trkpt lat="42.457641" lon="2.147998">
        <ele>2148.0</ele>
        <time>2009-06-30T08:02:23Z</time>
      </trkpt>
      <trkpt lat="42.457587" lon="2.147890">
        <ele>2148.0</ele>
        <time>2009-06-30T08:02:35Z</time>
      </trkpt>
      <trkpt lat="42.457494" lon="2.147899">
        <ele>2148.0</ele>
        <time>2009-06-30T08:02:43Z</time>
      </trkpt>
      <trkpt lat="42.457408" lon="2.147845">
        <ele>2148.0</ele>
        <time>2009-06-30T08:02:52Z</time>
      </trkpt>
      <trkpt lat="42.457328" lon="2.147764">
        <ele>2148.0</ele>
        <time>2009-06-30T08:03:05Z</time>
      </trkpt>
      <trkpt lat="42.457235" lon="2.147773">
        <ele>2148.0</ele>
        <time>2009-06-30T08:03:15Z</time>
      </trkpt>
      <trkpt lat="42.457155" lon="2.147710">
        <ele>2148.0</ele>
        <time>2009-06-30T08:03:25Z</time>
      </trkpt>
      <trkpt lat="42.457062" lon="2.147647">
        <ele>2148.0</ele>
        <time>2009-06-30T08:03:36Z</time>
      </trkpt>
      <trkpt lat="42.456969" lon="2.147620">
        <ele>2148.0</ele>
        <time>2009-06-30T08:03:48Z</time>
      </trkpt>
      <trkpt lat="42.456876" lon="2.147611">
        <ele>2148.0</ele>
        <time>2009-06-30T08:04:00Z</time>
      </trkpt>
      <trkpt lat="42.456782" lon="2.147629">
        <ele>2154.0</ele>
        <time>2009-06-30T08:04:11Z</time>
      </trkpt>
      <trkpt lat="42.456689" lon="2.147665">
        <ele>2154.0</ele>
        <time>2009-06-30T08:04:19Z</time>
      </trkpt>
      <trkpt lat="42.456636" lon="2.147764">
        <ele>2165.0</ele>
        <time>2009-06-30T08:06:25Z</time>
      </trkpt>
      <trkpt lat="42.456563" lon="2.147836">
        <ele>2165.0</ele>
        <time>2009-06-30T08:06:30Z</time>
      </trkpt>
      <trkpt lat="42.456476" lon="2.147917">
        <ele>2165.0</ele>
        <time>2009-06-30T08:06:40Z</time>
      </trkpt>
      <trkpt lat="42.456397" lon="2.147980">
        <ele>2165.0</ele>
        <time>2009-06-30T08:06:53Z</time>
      </trkpt>
      <trkpt lat="42.456304" lon="2.147971">
        <ele>2165.0</ele>
        <time>2009-06-30T08:07:06Z</time>
      </trkpt>
      <trkpt lat="42.456217" lon="2.148016">
        <ele>2165.0</ele>
        <time>2009-06-30T08:07:15Z</time>
      </trkpt>
      <trkpt lat="42.456131" lon="2.148052">
        <ele>2165.0</ele>
        <time>2009-06-30T08:07:30Z</time>
      </trkpt>
      <trkpt lat="42.456037" lon="2.148060">
        <ele>2165.0</ele>
        <time>2009-06-30T08:07:41Z</time>
      </trkpt>
      <trkpt lat="42.455944" lon="2.148034">
        <ele>2165.0</ele>
        <time>2009-06-30T08:07:50Z</time>
      </trkpt>
      <trkpt lat="42.455858" lon="2.147989">
        <ele>2173.0</ele>
        <time>2009-06-30T08:07:58Z</time>
      </trkpt>
      <trkpt lat="42.455771" lon="2.147953">
        <ele>2173.0</ele>
        <time>2009-06-30T08:08:05Z</time>
      </trkpt>
      <trkpt lat="42.455692" lon="2.147872">
        <ele>2179.0</ele>
        <time>2009-06-30T08:08:14Z</time>
      </trkpt>
      <trkpt lat="42.455605" lon="2.147827">
        <ele>2179.0</ele>
        <time>2009-06-30T08:08:23Z</time>
      </trkpt>
      <trkpt lat="42.455512" lon="2.147827">
        <ele>2179.0</ele>
        <time>2009-06-30T08:08:34Z</time>
      </trkpt>
      <trkpt lat="42.455419" lon="2.147818">
        <ele>2179.0</ele>
        <time>2009-06-30T08:08:43Z</time>
      </trkpt>
      <trkpt lat="42.455366" lon="2.147917">
        <ele>2186.0</ele>
        <time>2009-06-30T08:09:19Z</time>
      </trkpt>
      <trkpt lat="42.455279" lon="2.147854">
        <ele>2186.0</ele>
        <time>2009-06-30T08:09:42Z</time>
      </trkpt>
      <trkpt lat="42.455179" lon="2.147854">
        <ele>2186.0</ele>
        <time>2009-06-30T08:09:51Z</time>
      </trkpt>
      <trkpt lat="42.455080" lon="2.147890">
        <ele>2186.0</ele>
        <time>2009-06-30T08:09:59Z</time>
      </trkpt>
      <trkpt lat="42.454980" lon="2.147854">
        <ele>2186.0</ele>
        <time>2009-06-30T08:10:12Z</time>
      </trkpt>
      <trkpt lat="42.454887" lon="2.147881">
        <ele>2186.0</ele>
        <time>2009-06-30T08:10:19Z</time>
      </trkpt>
      <trkpt lat="42.454787" lon="2.147881">
        <ele>2186.0</ele>
        <time>2009-06-30T08:10:28Z</time>
      </trkpt>
      <trkpt lat="42.454694" lon="2.147917">
        <ele>2192.0</ele>
        <time>2009-06-30T08:10:36Z</time>
      </trkpt>
      <trkpt lat="42.454607" lon="2.147962">
        <ele>2192.0</ele>
        <time>2009-06-30T08:10:44Z</time>
      </trkpt>
      <trkpt lat="42.454521" lon="2.148007">
        <ele>2192.0</ele>
        <time>2009-06-30T08:10:51Z</time>
      </trkpt>
      <trkpt lat="42.454428" lon="2.148016">
        <ele>2192.0</ele>
        <time>2009-06-30T08:11:02Z</time>
      </trkpt>
      <trkpt lat="42.454334" lon="2.147998">
        <ele>2192.0</ele>
        <time>2009-06-30T08:11:13Z</time>
      </trkpt>
      <trkpt lat="42.454241" lon="2.148069">
        <ele>2192.0</ele>
        <time>2009-06-30T08:11:21Z</time>
      </trkpt>
      <trkpt lat="42.454148" lon="2.148052">
        <ele>2192.0</ele>
        <time>2009-06-30T08:11:33Z</time>
      </trkpt>
      <trkpt lat="42.454068" lon="2.148159">
        <ele>2192.0</ele>
        <time>2009-06-30T08:11:40Z</time>
      </trkpt>
      <trkpt lat="42.453975" lon="2.148168">
        <ele>2192.0</ele>
        <time>2009-06-30T08:12:00Z</time>
      </trkpt>
      <trkpt lat="42.453942" lon="2.148303">
        <ele>2207.0</ele>
        <time>2009-06-30T08:12:52Z</time>
      </trkpt>
      <trkpt lat="42.453909" lon="2.148429">
        <ele>2207.0</ele>
        <time>2009-06-30T08:12:56Z</time>
      </trkpt>
      <trkpt lat="42.453822" lon="2.148510">
        <ele>2194.0</ele>
        <time>2009-06-30T08:13:04Z</time>
      </trkpt>
      <trkpt lat="42.453736" lon="2.148555">
        <ele>2194.0</ele>
        <time>2009-06-30T08:13:11Z</time>
      </trkpt>
      <trkpt lat="42.453636" lon="2.148528">
        <ele>2194.0</ele>
        <time>2009-06-30T08:13:19Z</time>
      </trkpt>
      <trkpt lat="42.453543" lon="2.148501">
        <ele>2194.0</ele>
        <time>2009-06-30T08:13:27Z</time>
      </trkpt>
      <trkpt lat="42.453476" lon="2.148411">
        <ele>2194.0</ele>
        <time>2009-06-30T08:13:35Z</time>
      </trkpt>
      <trkpt lat="42.453403" lon="2.148339">
        <ele>2194.0</ele>
        <time>2009-06-30T08:13:44Z</time>
      </trkpt>
      <trkpt lat="42.453317" lon="2.148267">
        <ele>2204.0</ele>
        <time>2009-06-30T08:13:52Z</time>
      </trkpt>
      <trkpt lat="42.453230" lon="2.148321">
        <ele>2204.0</ele>
        <time>2009-06-30T08:14:04Z</time>
      </trkpt>
      <trkpt lat="42.453170" lon="2.148213">
        <ele>2204.0</ele>
        <time>2009-06-30T08:14:11Z</time>
      </trkpt>
      <trkpt lat="42.453084" lon="2.148150">
        <ele>2204.0</ele>
        <time>2009-06-30T08:14:21Z</time>
      </trkpt>
      <trkpt lat="42.452971" lon="2.148204">
        <ele>2204.0</ele>
        <time>2009-06-30T08:14:40Z</time>
      </trkpt>
      <trkpt lat="42.452924" lon="2.148312">
        <ele>2204.0</ele>
        <time>2009-06-30T08:14:56Z</time>
      </trkpt>
      <trkpt lat="42.452838" lon="2.148393">
        <ele>2194.0</ele>
        <time>2009-06-30T08:15:16Z</time>
      </trkpt>
      <trkpt lat="42.452745" lon="2.148402">
        <ele>2201.0</ele>
        <time>2009-06-30T08:15:31Z</time>
      </trkpt>
      <trkpt lat="42.452678" lon="2.148492">
        <ele>2221.0</ele>
        <time>2009-06-30T08:15:54Z</time>
      </trkpt>
      <trkpt lat="42.452605" lon="2.148582">
        <ele>2221.0</ele>
        <time>2009-06-30T08:16:06Z</time>
      </trkpt>
      <trkpt lat="42.452512" lon="2.148644">
        <ele>2221.0</ele>
        <time>2009-06-30T08:16:26Z</time>
      </trkpt>
      <trkpt lat="42.452478" lon="2.148761">
        <ele>2245.0</ele>
        <time>2009-06-30T08:16:55Z</time>
      </trkpt>
      <trkpt lat="42.452405" lon="2.148833">
        <ele>2235.0</ele>
        <time>2009-06-30T08:17:12Z</time>
      </trkpt>
      <trkpt lat="42.452359" lon="2.148941">
        <ele>2221.0</ele>
        <time>2009-06-30T08:18:17Z</time>
      </trkpt>
      <trkpt lat="42.452212" lon="2.149022">
        <ele>2240.0</ele>
        <time>2009-06-30T08:18:37Z</time>
      </trkpt>
      <trkpt lat="42.452119" lon="2.149013">
        <ele>2240.0</ele>
        <time>2009-06-30T08:18:51Z</time>
      </trkpt>
      <trkpt lat="42.452026" lon="2.149022">
        <ele>2231.0</ele>
        <time>2009-06-30T08:19:03Z</time>
      </trkpt>
      <trkpt lat="42.451940" lon="2.149067">
        <ele>2226.0</ele>
        <time>2009-06-30T08:19:13Z</time>
      </trkpt>
      <trkpt lat="42.451846" lon="2.149076">
        <ele>2226.0</ele>
        <time>2009-06-30T08:19:23Z</time>
      </trkpt>
      <trkpt lat="42.451753" lon="2.149067">
        <ele>2237.0</ele>
        <time>2009-06-30T08:19:32Z</time>
      </trkpt>
      <trkpt lat="42.451667" lon="2.149031">
        <ele>2237.0</ele>
        <time>2009-06-30T08:19:43Z</time>
      </trkpt>
      <trkpt lat="42.451594" lon="2.148959">
        <ele>2229.0</ele>
        <time>2009-06-30T08:20:02Z</time>
      </trkpt>
      <trkpt lat="42.451494" lon="2.149004">
        <ele>2237.0</ele>
        <time>2009-06-30T08:20:13Z</time>
      </trkpt>
      <trkpt lat="42.451394" lon="2.149004">
        <ele>2242.0</ele>
        <time>2009-06-30T08:20:26Z</time>
      </trkpt>
      <trkpt lat="42.451341" lon="2.148905">
        <ele>2251.0</ele>
        <time>2009-06-30T08:20:36Z</time>
      </trkpt>
      <trkpt lat="42.451254" lon="2.148959">
        <ele>2251.0</ele>
        <time>2009-06-30T08:20:54Z</time>
      </trkpt>
      <trkpt lat="42.451168" lon="2.149013">
        <ele>2245.0</ele>
        <time>2009-06-30T08:21:05Z</time>
      </trkpt>
      <trkpt lat="42.451095" lon="2.148914">
        <ele>2255.0</ele>
        <time>2009-06-30T08:21:24Z</time>
      </trkpt>
      <trkpt lat="42.451002" lon="2.148887">
        <ele>2263.0</ele>
        <time>2009-06-30T08:21:36Z</time>
      </trkpt>
      <trkpt lat="42.450915" lon="2.148851">
        <ele>2270.0</ele>
        <time>2009-06-30T08:21:43Z</time>
      </trkpt>
      <trkpt lat="42.450822" lon="2.148806">
        <ele>2270.0</ele>
        <time>2009-06-30T08:21:52Z</time>
      </trkpt>
      <trkpt lat="42.450742" lon="2.148734">
        <ele>2270.0</ele>
        <time>2009-06-30T08:21:59Z</time>
      </trkpt>
      <trkpt lat="42.450656" lon="2.148680">
        <ele>2277.0</ele>
        <time>2009-06-30T08:22:07Z</time>
      </trkpt>
      <trkpt lat="42.450602" lon="2.148573">
        <ele>2266.0</ele>
        <time>2009-06-30T08:22:40Z</time>
      </trkpt>
      <trkpt lat="42.450509" lon="2.148519">
        <ele>2266.0</ele>
        <time>2009-06-30T08:22:47Z</time>
      </trkpt>
      <trkpt lat="42.450429" lon="2.148447">
        <ele>2266.0</ele>
        <time>2009-06-30T08:22:55Z</time>
      </trkpt>
      <trkpt lat="42.450336" lon="2.148420">
        <ele>2266.0</ele>
        <time>2009-06-30T08:23:02Z</time>
      </trkpt>
      <trkpt lat="42.450243" lon="2.148366">
        <ele>2266.0</ele>
        <time>2009-06-30T08:23:10Z</time>
      </trkpt>
      <trkpt lat="42.450183" lon="2.148267">
        <ele>2266.0</ele>
        <time>2009-06-30T08:23:17Z</time>
      </trkpt>
      <trkpt lat="42.450130" lon="2.148150">
        <ele>2271.0</ele>
        <time>2009-06-30T08:23:28Z</time>
      </trkpt>
      <trkpt lat="42.450090" lon="2.148016">
        <ele>2279.0</ele>
        <time>2009-06-30T08:23:41Z</time>
      </trkpt>
      <trkpt lat="42.450017" lon="2.147926">
        <ele>2289.0</ele>
        <time>2009-06-30T08:23:46Z</time>
      </trkpt>
      <trkpt lat="42.449957" lon="2.147827">
        <ele>2298.0</ele>
        <time>2009-06-30T08:23:53Z</time>
      </trkpt>
      <trkpt lat="42.449904" lon="2.147728">
        <ele>2281.0</ele>
        <time>2009-06-30T08:24:08Z</time>
      </trkpt>
      <trkpt lat="42.449831" lon="2.147656">
        <ele>2281.0</ele>
        <time>2009-06-30T08:24:20Z</time>
      </trkpt>
      <trkpt lat="42.449758" lon="2.147575">
        <ele>2292.0</ele>
        <time>2009-06-30T08:24:33Z</time>
      </trkpt>
      <trkpt lat="42.449658" lon="2.147593">
        <ele>2292.0</ele>
        <time>2009-06-30T08:24:44Z</time>
      </trkpt>
      <trkpt lat="42.449571" lon="2.147656">
        <ele>2284.0</ele>
        <time>2009-06-30T08:24:54Z</time>
      </trkpt>
      <trkpt lat="42.449485" lon="2.147719">
        <ele>2274.0</ele>
        <time>2009-06-30T08:25:02Z</time>
      </trkpt>
      <trkpt lat="42.449392" lon="2.147674">
        <ele>2274.0</ele>
        <time>2009-06-30T08:25:15Z</time>
      </trkpt>
      <trkpt lat="42.449299" lon="2.147674">
        <ele>2281.0</ele>
        <time>2009-06-30T08:25:27Z</time>
      </trkpt>
      <trkpt lat="42.449225" lon="2.147764">
        <ele>2281.0</ele>
        <time>2009-06-30T08:25:40Z</time>
      </trkpt>
      <trkpt lat="42.449132" lon="2.147728">
        <ele>2291.0</ele>
        <time>2009-06-30T08:25:58Z</time>
      </trkpt>
      <trkpt lat="42.449039" lon="2.147710">
        <ele>2297.0</ele>
        <time>2009-06-30T08:26:16Z</time>
      </trkpt>
      <trkpt lat="42.448939" lon="2.147710">
        <ele>2290.0</ele>
        <time>2009-06-30T08:26:40Z</time>
      </trkpt>
      <trkpt lat="42.448866" lon="2.147638">
        <ele>2290.0</ele>
        <time>2009-06-30T08:27:09Z</time>
      </trkpt>
      <trkpt lat="42.448773" lon="2.147656">
        <ele>2299.0</ele>
        <time>2009-06-30T08:27:24Z</time>
      </trkpt>
      <trkpt lat="42.448680" lon="2.147638">
        <ele>2315.0</ele>
        <time>2009-06-30T08:27:43Z</time>
      </trkpt>
      <trkpt lat="42.448587" lon="2.147629">
        <ele>2328.0</ele>
        <time>2009-06-30T08:28:31Z</time>
      </trkpt>
      <trkpt lat="42.448514" lon="2.147710">
        <ele>2328.0</ele>
        <time>2009-06-30T08:28:59Z</time>
      </trkpt>
      <trkpt lat="42.448427" lon="2.147665">
        <ele>2328.0</ele>
        <time>2009-06-30T08:29:36Z</time>
      </trkpt>
      <trkpt lat="42.448334" lon="2.147647">
        <ele>2328.0</ele>
        <time>2009-06-30T08:29:51Z</time>
      </trkpt>
      <trkpt lat="42.448281" lon="2.147522">
        <ele>2340.0</ele>
        <time>2009-06-30T08:30:07Z</time>
      </trkpt>
      <trkpt lat="42.448267" lon="2.147396">
        <ele>2340.0</ele>
        <time>2009-06-30T08:30:17Z</time>
      </trkpt>
      <trkpt lat="42.448234" lon="2.147279">
        <ele>2340.0</ele>
        <time>2009-06-30T08:30:26Z</time>
      </trkpt>
      <trkpt lat="42.448181" lon="2.147180">
        <ele>2340.0</ele>
        <time>2009-06-30T08:30:35Z</time>
      </trkpt>
      <trkpt lat="42.448121" lon="2.147081">
        <ele>2340.0</ele>
        <time>2009-06-30T08:30:46Z</time>
      </trkpt>
      <trkpt lat="42.448048" lon="2.147009">
        <ele>2340.0</ele>
        <time>2009-06-30T08:30:53Z</time>
      </trkpt>
      <trkpt lat="42.447968" lon="2.146938">
        <ele>2351.0</ele>
        <time>2009-06-30T08:31:00Z</time>
      </trkpt>
      <trkpt lat="42.447895" lon="2.146866">
        <ele>2351.0</ele>
        <time>2009-06-30T08:31:09Z</time>
      </trkpt>
      <trkpt lat="42.447808" lon="2.146812">
        <ele>2346.0</ele>
        <time>2009-06-30T08:31:20Z</time>
      </trkpt>
      <trkpt lat="42.447722" lon="2.146758">
        <ele>2346.0</ele>
        <time>2009-06-30T08:31:31Z</time>
      </trkpt>
      <trkpt lat="42.447622" lon="2.146740">
        <ele>2346.0</ele>
        <time>2009-06-30T08:31:41Z</time>
      </trkpt>
      <trkpt lat="42.447529" lon="2.146731">
        <ele>2346.0</ele>
        <time>2009-06-30T08:31:52Z</time>
      </trkpt>
      <trkpt lat="42.447422" lon="2.146758">
        <ele>2339.0</ele>
        <time>2009-06-30T08:32:04Z</time>
      </trkpt>
      <trkpt lat="42.447329" lon="2.146794">
        <ele>2358.0</ele>
        <time>2009-06-30T08:33:08Z</time>
      </trkpt>
      <trkpt lat="42.447256" lon="2.146866">
        <ele>2349.0</ele>
        <time>2009-06-30T08:33:16Z</time>
      </trkpt>
      <trkpt lat="42.447183" lon="2.146938">
        <ele>2349.0</ele>
        <time>2009-06-30T08:33:22Z</time>
      </trkpt>
      <trkpt lat="42.447090" lon="2.146911">
        <ele>2349.0</ele>
        <time>2009-06-30T08:33:38Z</time>
      </trkpt>
      <trkpt lat="42.447003" lon="2.146965">
        <ele>2356.0</ele>
        <time>2009-06-30T08:33:50Z</time>
      </trkpt>
      <trkpt lat="42.446903" lon="2.147009">
        <ele>2361.0</ele>
        <time>2009-06-30T08:34:01Z</time>
      </trkpt>
      <trkpt lat="42.446810" lon="2.146991">
        <ele>2361.0</ele>
        <time>2009-06-30T08:34:11Z</time>
      </trkpt>
      <trkpt lat="42.446717" lon="2.146974">
        <ele>2361.0</ele>
        <time>2009-06-30T08:34:33Z</time>
      </trkpt>
      <trkpt lat="42.446631" lon="2.147027">
        <ele>2361.0</ele>
        <time>2009-06-30T08:34:46Z</time>
      </trkpt>
      <trkpt lat="42.446538" lon="2.147054">
        <ele>2370.0</ele>
        <time>2009-06-30T08:34:59Z</time>
      </trkpt>
      <trkpt lat="42.446451" lon="2.147018">
        <ele>2370.0</ele>
        <time>2009-06-30T08:35:11Z</time>
      </trkpt>
      <trkpt lat="42.446365" lon="2.146983">
        <ele>2361.0</ele>
        <time>2009-06-30T08:35:22Z</time>
      </trkpt>
      <trkpt lat="42.446271" lon="2.146956">
        <ele>2361.0</ele>
        <time>2009-06-30T08:35:34Z</time>
      </trkpt>
      <trkpt lat="42.446178" lon="2.146947">
        <ele>2376.0</ele>
        <time>2009-06-30T08:35:52Z</time>
      </trkpt>
      <trkpt lat="42.446085" lon="2.146947">
        <ele>2371.0</ele>
        <time>2009-06-30T08:36:04Z</time>
      </trkpt>
      <trkpt lat="42.446012" lon="2.146866">
        <ele>2371.0</ele>
        <time>2009-06-30T08:36:16Z</time>
      </trkpt>
      <trkpt lat="42.445945" lon="2.146776">
        <ele>2371.0</ele>
        <time>2009-06-30T08:36:23Z</time>
      </trkpt>
      <trkpt lat="42.445852" lon="2.146722">
        <ele>2383.0</ele>
        <time>2009-06-30T08:36:31Z</time>
      </trkpt>
      <trkpt lat="42.445759" lon="2.146695">
        <ele>2377.0</ele>
        <time>2009-06-30T08:36:40Z</time>
      </trkpt>
      <trkpt lat="42.445666" lon="2.146677">
        <ele>2372.0</ele>
        <time>2009-06-30T08:36:51Z</time>
      </trkpt>
      <trkpt lat="42.445580" lon="2.146614">
        <ele>2372.0</ele>
        <time>2009-06-30T08:37:01Z</time>
      </trkpt>
      <trkpt lat="42.445506" lon="2.146542">
        <ele>2372.0</ele>
        <time>2009-06-30T08:37:09Z</time>
      </trkpt>
      <trkpt lat="42.445420" lon="2.146488">
        <ele>2372.0</ele>
        <time>2009-06-30T08:37:16Z</time>
      </trkpt>
      <trkpt lat="42.445347" lon="2.146417">
        <ele>2372.0</ele>
        <time>2009-06-30T08:37:23Z</time>
      </trkpt>
      <trkpt lat="42.445254" lon="2.146408">
        <ele>2372.0</ele>
        <time>2009-06-30T08:37:32Z</time>
      </trkpt>
      <trkpt lat="42.445160" lon="2.146381">
        <ele>2379.0</ele>
        <time>2009-06-30T08:37:58Z</time>
      </trkpt>
      <trkpt lat="42.445087" lon="2.146453">
        <ele>2379.0</ele>
        <time>2009-06-30T08:38:08Z</time>
      </trkpt>
      <trkpt lat="42.444994" lon="2.146461">
        <ele>2379.0</ele>
        <time>2009-06-30T08:38:17Z</time>
      </trkpt>
      <trkpt lat="42.444908" lon="2.146524">
        <ele>2379.0</ele>
        <time>2009-06-30T08:38:23Z</time>
      </trkpt>
      <trkpt lat="42.444834" lon="2.146596">
        <ele>2388.0</ele>
        <time>2009-06-30T08:38:38Z</time>
      </trkpt>
      <trkpt lat="42.444755" lon="2.146704">
        <ele>2380.0</ele>
        <time>2009-06-30T08:38:47Z</time>
      </trkpt>
      <trkpt lat="42.444695" lon="2.146803">
        <ele>2380.0</ele>
        <time>2009-06-30T08:38:51Z</time>
      </trkpt>
      <trkpt lat="42.444628" lon="2.146893">
        <ele>2380.0</ele>
        <time>2009-06-30T08:38:59Z</time>
      </trkpt>
      <trkpt lat="42.444548" lon="2.146974">
        <ele>2380.0</ele>
        <time>2009-06-30T08:39:16Z</time>
      </trkpt>
      <trkpt lat="42.444495" lon="2.147072">
        <ele>2397.0</ele>
        <time>2009-06-30T08:39:38Z</time>
      </trkpt>
      <trkpt lat="42.444402" lon="2.147072">
        <ele>2392.0</ele>
        <time>2009-06-30T08:40:08Z</time>
      </trkpt>
      <trkpt lat="42.444282" lon="2.146974">
        <ele>2399.0</ele>
        <time>2009-06-30T08:41:34Z</time>
      </trkpt>
      <trkpt lat="42.444222" lon="2.146875">
        <ele>2399.0</ele>
        <time>2009-06-30T08:41:46Z</time>
      </trkpt>
      <trkpt lat="42.444156" lon="2.146785">
        <ele>2407.0</ele>
        <time>2009-06-30T08:41:59Z</time>
      </trkpt>
      <trkpt lat="42.444069" lon="2.146731">
        <ele>2407.0</ele>
        <time>2009-06-30T08:42:16Z</time>
      </trkpt>
      <trkpt lat="42.443969" lon="2.146740">
        <ele>2399.0</ele>
        <time>2009-06-30T08:42:35Z</time>
      </trkpt>
      <trkpt lat="42.443883" lon="2.146695">
        <ele>2417.0</ele>
        <time>2009-06-30T08:42:55Z</time>
      </trkpt>
      <trkpt lat="42.443790" lon="2.146731">
        <ele>2417.0</ele>
        <time>2009-06-30T08:43:10Z</time>
      </trkpt>
      <trkpt lat="42.443730" lon="2.146632">
        <ele>2417.0</ele>
        <time>2009-06-30T08:43:30Z</time>
      </trkpt>
      <trkpt lat="42.443637" lon="2.146623">
        <ele>2417.0</ele>
        <time>2009-06-30T08:44:03Z</time>
      </trkpt>
      <trkpt lat="42.443564" lon="2.146551">
        <ele>2426.0</ele>
        <time>2009-06-30T08:44:30Z</time>
      </trkpt>
      <trkpt lat="42.443437" lon="2.146444">
        <ele>2450.0</ele>
        <time>2009-06-30T08:46:22Z</time>
      </trkpt>
      <trkpt lat="42.443344" lon="2.146408">
        <ele>2440.0</ele>
        <time>2009-06-30T08:46:55Z</time>
      </trkpt>
      <trkpt lat="42.443258" lon="2.146345">
        <ele>2440.0</ele>
        <time>2009-06-30T08:47:30Z</time>
      </trkpt>
      <trkpt lat="42.443218" lon="2.146228">
        <ele>2440.0</ele>
        <time>2009-06-30T08:48:00Z</time>
      </trkpt>
      <trkpt lat="42.443131" lon="2.146075">
        <ele>2486.0</ele>
        <time>2009-06-30T08:51:26Z</time>
      </trkpt>
      <trkpt lat="42.443038" lon="2.146093">
        <ele>2486.0</ele>
        <time>2009-06-30T08:51:41Z</time>
      </trkpt>
      <trkpt lat="42.442932" lon="2.146039">
        <ele>2496.0</ele>
        <time>2009-06-30T08:52:50Z</time>
      </trkpt>
      <trkpt lat="42.442832" lon="2.146030">
        <ele>2496.0</ele>
        <time>2009-06-30T08:54:20Z</time>
      </trkpt>
      <trkpt lat="42.442739" lon="2.146084">
        <ele>2506.0</ele>
        <time>2009-06-30T08:54:54Z</time>
      </trkpt>
      <trkpt lat="42.442672" lon="2.146219">
        <ele>2514.0</ele>
        <time>2009-06-30T08:55:20Z</time>
      </trkpt>
      <trkpt lat="42.442599" lon="2.146300">
        <ele>2505.0</ele>
        <time>2009-06-30T08:55:39Z</time>
      </trkpt>
      <trkpt lat="42.442519" lon="2.146399">
        <ele>2505.0</ele>
        <time>2009-06-30T08:55:50Z</time>
      </trkpt>
      <trkpt lat="42.442466" lon="2.146497">
        <ele>2505.0</ele>
        <time>2009-06-30T08:56:30Z</time>
      </trkpt>
      <trkpt lat="42.442406" lon="2.146605">
        <ele>2511.0</ele>
        <time>2009-06-30T08:56:42Z</time>
      </trkpt>
      <trkpt lat="42.442379" lon="2.146722">
        <ele>2511.0</ele>
        <time>2009-06-30T08:56:52Z</time>
      </trkpt>
      <trkpt lat="42.442326" lon="2.146848">
        <ele>2511.0</ele>
        <time>2009-06-30T08:57:00Z</time>
      </trkpt>
      <trkpt lat="42.442260" lon="2.146938">
        <ele>2516.0</ele>
        <time>2009-06-30T08:57:11Z</time>
      </trkpt>
      <trkpt lat="42.442173" lon="2.146902">
        <ele>2509.0</ele>
        <time>2009-06-30T08:57:54Z</time>
      </trkpt>
      <trkpt lat="42.442073" lon="2.146884">
        <ele>2509.0</ele>
        <time>2009-06-30T08:58:03Z</time>
      </trkpt>
      <trkpt lat="42.441980" lon="2.146848">
        <ele>2517.0</ele>
        <time>2009-06-30T08:58:17Z</time>
      </trkpt>
      <trkpt lat="42.441887" lon="2.146839">
        <ele>2517.0</ele>
        <time>2009-06-30T08:59:22Z</time>
      </trkpt>
      <trkpt lat="42.441800" lon="2.146803">
        <ele>2517.0</ele>
        <time>2009-06-30T08:59:53Z</time>
      </trkpt>
      <trkpt lat="42.441747" lon="2.146695">
        <ele>2517.0</ele>
        <time>2009-06-30T09:00:01Z</time>
      </trkpt>
      <trkpt lat="42.441741" lon="2.146569">
        <ele>2511.0</ele>
        <time>2009-06-30T09:00:11Z</time>
      </trkpt>
      <trkpt lat="42.441721" lon="2.146444">
        <ele>2511.0</ele>
        <time>2009-06-30T09:00:20Z</time>
      </trkpt>
      <trkpt lat="42.441641" lon="2.146381">
        <ele>2511.0</ele>
        <time>2009-06-30T09:00:30Z</time>
      </trkpt>
      <trkpt lat="42.441568" lon="2.146291">
        <ele>2511.0</ele>
        <time>2009-06-30T09:00:44Z</time>
      </trkpt>
      <trkpt lat="42.441474" lon="2.146228">
        <ele>2511.0</ele>
        <time>2009-06-30T09:00:55Z</time>
      </trkpt>
      <trkpt lat="42.441421" lon="2.146120">
        <ele>2511.0</ele>
        <time>2009-06-30T09:01:06Z</time>
      </trkpt>
      <trkpt lat="42.441341" lon="2.146048">
        <ele>2511.0</ele>
        <time>2009-06-30T09:01:20Z</time>
      </trkpt>
      <trkpt lat="42.441248" lon="2.146048">
        <ele>2518.0</ele>
        <time>2009-06-30T09:01:31Z</time>
      </trkpt>
      <trkpt lat="42.441155" lon="2.146021">
        <ele>2518.0</ele>
        <time>2009-06-30T09:01:45Z</time>
      </trkpt>
      <trkpt lat="42.441069" lon="2.146075">
        <ele>2518.0</ele>
        <time>2009-06-30T09:02:00Z</time>
      </trkpt>
      <trkpt lat="42.440975" lon="2.146057">
        <ele>2518.0</ele>
        <time>2009-06-30T09:02:10Z</time>
      </trkpt>
      <trkpt lat="42.440889" lon="2.146102">
        <ele>2518.0</ele>
        <time>2009-06-30T09:02:21Z</time>
      </trkpt>
      <trkpt lat="42.440796" lon="2.146111">
        <ele>2518.0</ele>
        <time>2009-06-30T09:02:31Z</time>
      </trkpt>
      <trkpt lat="42.440709" lon="2.146165">
        <ele>2518.0</ele>
        <time>2009-06-30T09:02:39Z</time>
      </trkpt>
      <trkpt lat="42.440623" lon="2.146210">
        <ele>2518.0</ele>
        <time>2009-06-30T09:02:47Z</time>
      </trkpt>
      <trkpt lat="42.440543" lon="2.146291">
        <ele>2518.0</ele>
        <time>2009-06-30T09:02:55Z</time>
      </trkpt>
      <trkpt lat="42.440450" lon="2.146327">
        <ele>2518.0</ele>
        <time>2009-06-30T09:03:04Z</time>
      </trkpt>
      <trkpt lat="42.440363" lon="2.146363">
        <ele>2518.0</ele>
        <time>2009-06-30T09:03:19Z</time>
      </trkpt>
      <trkpt lat="42.440277" lon="2.146399">
        <ele>2518.0</ele>
        <time>2009-06-30T09:03:28Z</time>
      </trkpt>
      <trkpt lat="42.440184" lon="2.146381">
        <ele>2518.0</ele>
        <time>2009-06-30T09:03:37Z</time>
      </trkpt>
      <trkpt lat="42.440097" lon="2.146417">
        <ele>2518.0</ele>
        <time>2009-06-30T09:03:44Z</time>
      </trkpt>
      <trkpt lat="42.440011" lon="2.146470">
        <ele>2518.0</ele>
        <time>2009-06-30T09:03:51Z</time>
      </trkpt>
      <trkpt lat="42.439917" lon="2.146461">
        <ele>2518.0</ele>
        <time>2009-06-30T09:04:00Z</time>
      </trkpt>
      <trkpt lat="42.439824" lon="2.146470">
        <ele>2518.0</ele>
        <time>2009-06-30T09:04:11Z</time>
      </trkpt>
      <trkpt lat="42.439731" lon="2.146453">
        <ele>2518.0</ele>
        <time>2009-06-30T09:04:21Z</time>
      </trkpt>
      <trkpt lat="42.439678" lon="2.146560">
        <ele>2518.0</ele>
        <time>2009-06-30T09:04:47Z</time>
      </trkpt>
      <trkpt lat="42.439538" lon="2.146542">
        <ele>2512.0</ele>
        <time>2009-06-30T09:05:32Z</time>
      </trkpt>
      <trkpt lat="42.439438" lon="2.146560">
        <ele>2512.0</ele>
        <time>2009-06-30T09:05:46Z</time>
      </trkpt>
      <trkpt lat="42.439352" lon="2.146614">
        <ele>2512.0</ele>
        <time>2009-06-30T09:05:51Z</time>
      </trkpt>
      <trkpt lat="42.439259" lon="2.146596">
        <ele>2529.0</ele>
        <time>2009-06-30T09:06:04Z</time>
      </trkpt>
      <trkpt lat="42.439159" lon="2.146596">
        <ele>2529.0</ele>
        <time>2009-06-30T09:06:10Z</time>
      </trkpt>
      <trkpt lat="42.439066" lon="2.146605">
        <ele>2521.0</ele>
        <time>2009-06-30T09:06:16Z</time>
      </trkpt>
      <trkpt lat="42.438979" lon="2.146542">
        <ele>2521.0</ele>
        <time>2009-06-30T09:06:22Z</time>
      </trkpt>
      <trkpt lat="42.438886" lon="2.146578">
        <ele>2521.0</ele>
        <time>2009-06-30T09:06:29Z</time>
      </trkpt>
      <trkpt lat="42.438793" lon="2.146542">
        <ele>2513.0</ele>
        <time>2009-06-30T09:06:37Z</time>
      </trkpt>
      <trkpt lat="42.438713" lon="2.146470">
        <ele>2513.0</ele>
        <time>2009-06-30T09:06:47Z</time>
      </trkpt>
      <trkpt lat="42.438627" lon="2.146506">
        <ele>2513.0</ele>
        <time>2009-06-30T09:06:57Z</time>
      </trkpt>
      <trkpt lat="42.438540" lon="2.146542">
        <ele>2513.0</ele>
        <time>2009-06-30T09:07:02Z</time>
      </trkpt>
      <trkpt lat="42.438447" lon="2.146524">
        <ele>2521.0</ele>
        <time>2009-06-30T09:07:18Z</time>
      </trkpt>
      <trkpt lat="42.438360" lon="2.146569">
        <ele>2521.0</ele>
        <time>2009-06-30T09:07:32Z</time>
      </trkpt>
      <trkpt lat="42.438281" lon="2.146497">
        <ele>2528.0</ele>
        <time>2009-06-30T09:07:51Z</time>
      </trkpt>
      <trkpt lat="42.438174" lon="2.146479">
        <ele>2528.0</ele>
        <time>2009-06-30T09:08:01Z</time>
      </trkpt>
      <trkpt lat="42.438088" lon="2.146515">
        <ele>2528.0</ele>
        <time>2009-06-30T09:08:10Z</time>
      </trkpt>
      <trkpt lat="42.438008" lon="2.146587">
        <ele>2528.0</ele>
        <time>2009-06-30T09:08:31Z</time>
      </trkpt>
      <trkpt lat="42.437915" lon="2.146659">
        <ele>2528.0</ele>
        <time>2009-06-30T09:08:40Z</time>
      </trkpt>
      <trkpt lat="42.437835" lon="2.146731">
        <ele>2528.0</ele>
        <time>2009-06-30T09:08:47Z</time>
      </trkpt>
      <trkpt lat="42.437742" lon="2.146740">
        <ele>2528.0</ele>
        <time>2009-06-30T09:09:02Z</time>
      </trkpt>
      <trkpt lat="42.437648" lon="2.146731">
        <ele>2528.0</ele>
        <time>2009-06-30T09:09:14Z</time>
      </trkpt>
      <trkpt lat="42.437555" lon="2.146767">
        <ele>2534.0</ele>
        <time>2009-06-30T09:09:22Z</time>
      </trkpt>
      <trkpt lat="42.437469" lon="2.146731">
        <ele>2534.0</ele>
        <time>2009-06-30T09:09:36Z</time>
      </trkpt>
      <trkpt lat="42.437356" lon="2.146731">
        <ele>2552.0</ele>
        <time>2009-06-30T09:10:19Z</time>
      </trkpt>
      <trkpt lat="42.437269" lon="2.146785">
        <ele>2545.0</ele>
        <time>2009-06-30T09:10:27Z</time>
      </trkpt>
      <trkpt lat="42.437183" lon="2.146821">
        <ele>2537.0</ele>
        <time>2009-06-30T09:10:36Z</time>
      </trkpt>
      <trkpt lat="42.437043" lon="2.146884">
        <ele>2554.0</ele>
        <time>2009-06-30T09:11:59Z</time>
      </trkpt>
      <trkpt lat="42.436956" lon="2.146938">
        <ele>2554.0</ele>
        <time>2009-06-30T09:12:09Z</time>
      </trkpt>
      <trkpt lat="42.436976" lon="2.146911">
        <ele>2579.0</ele>
        <time>2009-06-30T09:25:35Z</time>
      </trkpt>
      <trkpt lat="42.436910" lon="2.146884">
        <ele>2555.0</ele>
        <time>2009-06-30T09:27:08Z</time>
      </trkpt>
      <trkpt lat="42.436897" lon="2.146821">
        <ele>2587.0</ele>
        <time>2009-06-30T09:30:44Z</time>
      </trkpt>
      <trkpt lat="42.436810" lon="2.146776">
        <ele>2587.0</ele>
        <time>2009-06-30T09:31:30Z</time>
      </trkpt>
      <trkpt lat="42.436724" lon="2.146740">
        <ele>2587.0</ele>
        <time>2009-06-30T09:32:08Z</time>
      </trkpt>
      <trkpt lat="42.436630" lon="2.146704">
        <ele>2598.0</ele>
        <time>2009-06-30T09:32:54Z</time>
      </trkpt>
      <trkpt lat="42.436544" lon="2.146668">
        <ele>2604.0</ele>
        <time>2009-06-30T09:33:56Z</time>
      </trkpt>
      <trkpt lat="42.436464" lon="2.146596">
        <ele>2610.0</ele>
        <time>2009-06-30T09:34:30Z</time>
      </trkpt>
      <trkpt lat="42.436404" lon="2.146497">
        <ele>2619.0</ele>
        <time>2009-06-30T09:35:11Z</time>
      </trkpt>
      <trkpt lat="42.436331" lon="2.146417">
        <ele>2619.0</ele>
        <time>2009-06-30T09:35:57Z</time>
      </trkpt>
      <trkpt lat="42.436304" lon="2.146300">
        <ele>2629.0</ele>
        <time>2009-06-30T09:36:46Z</time>
      </trkpt>
      <trkpt lat="42.436258" lon="2.146192">
        <ele>2635.0</ele>
        <time>2009-06-30T09:37:27Z</time>
      </trkpt>
      <trkpt lat="42.436165" lon="2.146210">
        <ele>2644.0</ele>
        <time>2009-06-30T09:38:18Z</time>
      </trkpt>
      <trkpt lat="42.436071" lon="2.146219">
        <ele>2657.0</ele>
        <time>2009-06-30T09:40:09Z</time>
      </trkpt>
      <trkpt lat="42.435998" lon="2.146291">
        <ele>2657.0</ele>
        <time>2009-06-30T09:40:47Z</time>
      </trkpt>
      <trkpt lat="42.435912" lon="2.146327">
        <ele>2657.0</ele>
        <time>2009-06-30T09:41:33Z</time>
      </trkpt>
      <trkpt lat="42.435839" lon="2.146408">
        <ele>2672.0</ele>
        <time>2009-06-30T09:45:11Z</time>
      </trkpt>
      <trkpt lat="42.435759" lon="2.146470">
        <ele>2677.0</ele>
        <time>2009-06-30T09:46:11Z</time>
      </trkpt>
      <trkpt lat="42.435692" lon="2.146560">
        <ele>2677.0</ele>
        <time>2009-06-30T09:47:39Z</time>
      </trkpt>
      <trkpt lat="42.435606" lon="2.146605">
        <ele>2684.0</ele>
        <time>2009-06-30T09:48:25Z</time>
      </trkpt>
      <trkpt lat="42.435532" lon="2.146677">
        <ele>2701.0</ele>
        <time>2009-06-30T09:50:55Z</time>
      </trkpt>
      <trkpt lat="42.435493" lon="2.146776">
        <ele>2732.0</ele>
        <time>2009-06-30T09:52:45Z</time>
      </trkpt>
      <trkpt lat="42.435399" lon="2.146803">
        <ele>2719.0</ele>
        <time>2009-06-30T09:53:09Z</time>
      </trkpt>
      <trkpt lat="42.435313" lon="2.146839">
        <ele>2709.0</ele>
        <time>2009-06-30T10:00:11Z</time>
      </trkpt>
      <trkpt lat="42.435206" lon="2.146890">
        <ele>2671.6</ele>
        <time>2009-06-30T10:00:39Z</time>
      </trkpt>
      <trkpt lat="42.435120" lon="2.146932">
        <ele>2681.3</ele>
        <time>2009-06-30T10:07:56Z</time>
      </trkpt>
      <trkpt lat="42.435000" lon="2.147029">
        <ele>2694.1</ele>
        <time>2009-06-30T10:09:58Z</time>
      </trkpt>
      <trkpt lat="42.434922" lon="2.147112">
        <ele>2701.6</ele>
        <time>2009-06-30T10:10:59Z</time>
      </trkpt>
      <trkpt lat="42.434823" lon="2.147182">
        <ele>2710.9</ele>
        <time>2009-06-30T10:11:38Z</time>
      </trkpt>
      <trkpt lat="42.434705" lon="2.147309">
        <ele>2721.7</ele>
        <time>2009-06-30T10:12:39Z</time>
      </trkpt>
      <trkpt lat="42.434625" lon="2.147203">
        <ele>2730.0</ele>
        <time>2009-06-30T10:13:17Z</time>
      </trkpt>
      <trkpt lat="42.434560" lon="2.147101">
        <ele>2736.9</ele>
        <time>2009-06-30T10:13:32Z</time>
      </trkpt>
      <trkpt lat="42.434488" lon="2.147018">
        <ele>2674.0</ele>
        <time>2009-06-30T10:13:51Z</time>
      </trkpt>
      <trkpt lat="42.434441" lon="2.146983">
        <ele>2833.0</ele>
        <time>2009-06-30T11:53:55Z</time>
      </trkpt>
      <trkpt lat="42.434474" lon="2.146866">
        <ele>2833.0</ele>
        <time>2009-06-30T11:54:07Z</time>
      </trkpt>
      <trkpt lat="42.434488" lon="2.146731">
        <ele>2833.0</ele>
        <time>2009-06-30T11:54:28Z</time>
      </trkpt>
      <trkpt lat="42.434501" lon="2.146605">
        <ele>2833.0</ele>
        <time>2009-06-30T11:54:36Z</time>
      </trkpt>
      <trkpt lat="42.434508" lon="2.146470">
        <ele>2833.0</ele>
        <time>2009-06-30T11:54:45Z</time>
      </trkpt>
      <trkpt lat="42.434514" lon="2.146336">
        <ele>2827.0</ele>
        <time>2009-06-30T11:54:52Z</time>
      </trkpt>
      <trkpt lat="42.434534" lon="2.146201">
        <ele>2827.0</ele>
        <time>2009-06-30T11:54:59Z</time>
      </trkpt>
      <trkpt lat="42.434554" lon="2.146075">
        <ele>2827.0</ele>
        <time>2009-06-30T11:55:08Z</time>
      </trkpt>
      <trkpt lat="42.434561" lon="2.145949">
        <ele>2827.0</ele>
        <time>2009-06-30T11:55:15Z</time>
      </trkpt>
      <trkpt lat="42.434561" lon="2.145815">
        <ele>2820.0</ele>
        <time>2009-06-30T11:55:23Z</time>
      </trkpt>
      <trkpt lat="42.434561" lon="2.145680">
        <ele>2820.0</ele>
        <time>2009-06-30T11:55:31Z</time>
      </trkpt>
      <trkpt lat="42.434554" lon="2.145554">
        <ele>2820.0</ele>
        <time>2009-06-30T11:55:43Z</time>
      </trkpt>
      <trkpt lat="42.434568" lon="2.145419">
        <ele>2820.0</ele>
        <time>2009-06-30T11:55:50Z</time>
      </trkpt>
      <trkpt lat="42.434594" lon="2.145285">
        <ele>2820.0</ele>
        <time>2009-06-30T11:55:57Z</time>
      </trkpt>
      <trkpt lat="42.434627" lon="2.145168">
        <ele>2820.0</ele>
        <time>2009-06-30T11:56:04Z</time>
      </trkpt>
      <trkpt lat="42.434647" lon="2.145042">
        <ele>2820.0</ele>
        <time>2009-06-30T11:56:11Z</time>
      </trkpt>
      <trkpt lat="42.434674" lon="2.144925">
        <ele>2820.0</ele>
        <time>2009-06-30T11:56:17Z</time>
      </trkpt>
      <trkpt lat="42.434707" lon="2.144791">
        <ele>2820.0</ele>
        <time>2009-06-30T11:56:24Z</time>
      </trkpt>
      <trkpt lat="42.434741" lon="2.144665">
        <ele>2820.0</ele>
        <time>2009-06-30T11:56:31Z</time>
      </trkpt>
      <trkpt lat="42.434774" lon="2.144539">
        <ele>2820.0</ele>
        <time>2009-06-30T11:56:42Z</time>
      </trkpt>
      <trkpt lat="42.434820" lon="2.144422">
        <ele>2820.0</ele>
        <time>2009-06-30T11:56:51Z</time>
      </trkpt>
      <trkpt lat="42.434860" lon="2.144306">
        <ele>2820.0</ele>
        <time>2009-06-30T11:56:59Z</time>
      </trkpt>
      <trkpt lat="42.434900" lon="2.144189">
        <ele>2820.0</ele>
        <time>2009-06-30T11:57:07Z</time>
      </trkpt>
      <trkpt lat="42.434954" lon="2.144072">
        <ele>2820.0</ele>
        <time>2009-06-30T11:57:15Z</time>
      </trkpt>
      <trkpt lat="42.435020" lon="2.143973">
        <ele>2820.0</ele>
        <time>2009-06-30T11:57:24Z</time>
      </trkpt>
      <trkpt lat="42.435047" lon="2.143856">
        <ele>2813.0</ele>
        <time>2009-06-30T11:58:03Z</time>
      </trkpt>
      <trkpt lat="42.435133" lon="2.143820">
        <ele>2813.0</ele>
        <time>2009-06-30T11:58:11Z</time>
      </trkpt>
      <trkpt lat="42.435220" lon="2.143776">
        <ele>2804.0</ele>
        <time>2009-06-30T11:58:20Z</time>
      </trkpt>
      <trkpt lat="42.435306" lon="2.143731">
        <ele>2804.0</ele>
        <time>2009-06-30T11:58:28Z</time>
      </trkpt>
      <trkpt lat="42.435399" lon="2.143713">
        <ele>2797.0</ele>
        <time>2009-06-30T11:58:34Z</time>
      </trkpt>
      <trkpt lat="42.435446" lon="2.143605">
        <ele>2797.0</ele>
        <time>2009-06-30T11:58:41Z</time>
      </trkpt>
      <trkpt lat="42.435493" lon="2.143497">
        <ele>2792.0</ele>
        <time>2009-06-30T11:58:52Z</time>
      </trkpt>
      <trkpt lat="42.435579" lon="2.143452">
        <ele>2792.0</ele>
        <time>2009-06-30T11:59:04Z</time>
      </trkpt>
      <trkpt lat="42.435646" lon="2.143362">
        <ele>2792.0</ele>
        <time>2009-06-30T11:59:21Z</time>
      </trkpt>
      <trkpt lat="42.435712" lon="2.143272">
        <ele>2783.0</ele>
        <time>2009-06-30T11:59:34Z</time>
      </trkpt>
      <trkpt lat="42.435779" lon="2.143174">
        <ele>2778.0</ele>
        <time>2009-06-30T11:59:53Z</time>
      </trkpt>
      <trkpt lat="42.435858" lon="2.143111">
        <ele>2778.0</ele>
        <time>2009-06-30T12:00:03Z</time>
      </trkpt>
      <trkpt lat="42.435945" lon="2.143066">
        <ele>2778.0</ele>
        <time>2009-06-30T12:00:13Z</time>
      </trkpt>
      <trkpt lat="42.436032" lon="2.142994">
        <ele>2778.0</ele>
        <time>2009-06-30T12:00:25Z</time>
      </trkpt>
      <trkpt lat="42.436105" lon="2.142922">
        <ele>2770.0</ele>
        <time>2009-06-30T12:00:35Z</time>
      </trkpt>
      <trkpt lat="42.436171" lon="2.142832">
        <ele>2770.0</ele>
        <time>2009-06-30T12:00:48Z</time>
      </trkpt>
      <trkpt lat="42.436258" lon="2.142769">
        <ele>2770.0</ele>
        <time>2009-06-30T12:00:59Z</time>
      </trkpt>
      <trkpt lat="42.436331" lon="2.142680">
        <ele>2763.0</ele>
        <time>2009-06-30T12:01:12Z</time>
      </trkpt>
      <trkpt lat="42.436397" lon="2.142590">
        <ele>2763.0</ele>
        <time>2009-06-30T12:01:22Z</time>
      </trkpt>
      <trkpt lat="42.436471" lon="2.142518">
        <ele>2763.0</ele>
        <time>2009-06-30T12:01:32Z</time>
      </trkpt>
      <trkpt lat="42.436557" lon="2.142464">
        <ele>2763.0</ele>
        <time>2009-06-30T12:01:41Z</time>
      </trkpt>
      <trkpt lat="42.436650" lon="2.142446">
        <ele>2763.0</ele>
        <time>2009-06-30T12:01:51Z</time>
      </trkpt>
      <trkpt lat="42.436737" lon="2.142392">
        <ele>2763.0</ele>
        <time>2009-06-30T12:02:02Z</time>
      </trkpt>
      <trkpt lat="42.436817" lon="2.142329">
        <ele>2757.0</ele>
        <time>2009-06-30T12:02:10Z</time>
      </trkpt>
      <trkpt lat="42.436910" lon="2.142293">
        <ele>2757.0</ele>
        <time>2009-06-30T12:02:17Z</time>
      </trkpt>
      <trkpt lat="42.436996" lon="2.142239">
        <ele>2757.0</ele>
        <time>2009-06-30T12:02:23Z</time>
      </trkpt>
      <trkpt lat="42.437076" lon="2.142177">
        <ele>2757.0</ele>
        <time>2009-06-30T12:02:31Z</time>
      </trkpt>
      <trkpt lat="42.437169" lon="2.142114">
        <ele>2746.0</ele>
        <time>2009-06-30T12:02:54Z</time>
      </trkpt>
      <trkpt lat="42.437276" lon="2.142096">
        <ele>2746.0</ele>
        <time>2009-06-30T12:03:02Z</time>
      </trkpt>
      <trkpt lat="42.437376" lon="2.142069">
        <ele>2746.0</ele>
        <time>2009-06-30T12:03:10Z</time>
      </trkpt>
      <trkpt lat="42.437475" lon="2.142069">
        <ele>2746.0</ele>
        <time>2009-06-30T12:03:17Z</time>
      </trkpt>
      <trkpt lat="42.437575" lon="2.142060">
        <ele>2740.0</ele>
        <time>2009-06-30T12:03:24Z</time>
      </trkpt>
      <trkpt lat="42.437668" lon="2.142024">
        <ele>2740.0</ele>
        <time>2009-06-30T12:03:31Z</time>
      </trkpt>
      <trkpt lat="42.437768" lon="2.141979">
        <ele>2740.0</ele>
        <time>2009-06-30T12:03:38Z</time>
      </trkpt>
      <trkpt lat="42.437868" lon="2.141943">
        <ele>2734.0</ele>
        <time>2009-06-30T12:03:45Z</time>
      </trkpt>
      <trkpt lat="42.437955" lon="2.141907">
        <ele>2734.0</ele>
        <time>2009-06-30T12:03:51Z</time>
      </trkpt>
      <trkpt lat="42.438041" lon="2.141835">
        <ele>2734.0</ele>
        <time>2009-06-30T12:03:58Z</time>
      </trkpt>
      <trkpt lat="42.438134" lon="2.141781">
        <ele>2728.0</ele>
        <time>2009-06-30T12:04:06Z</time>
      </trkpt>
      <trkpt lat="42.438221" lon="2.141736">
        <ele>2728.0</ele>
        <time>2009-06-30T12:04:14Z</time>
      </trkpt>
      <trkpt lat="42.438314" lon="2.141691">
        <ele>2728.0</ele>
        <time>2009-06-30T12:04:23Z</time>
      </trkpt>
      <trkpt lat="42.438407" lon="2.141700">
        <ele>2728.0</ele>
        <time>2009-06-30T12:04:36Z</time>
      </trkpt>
      <trkpt lat="42.438500" lon="2.141736">
        <ele>2728.0</ele>
        <time>2009-06-30T12:04:53Z</time>
      </trkpt>
      <trkpt lat="42.438593" lon="2.141745">
        <ele>2735.0</ele>
        <time>2009-06-30T12:05:06Z</time>
      </trkpt>
      <trkpt lat="42.438693" lon="2.141736">
        <ele>2735.0</ele>
        <time>2009-06-30T12:05:20Z</time>
      </trkpt>
      <trkpt lat="42.438793" lon="2.141736">
        <ele>2741.0</ele>
        <time>2009-06-30T12:05:33Z</time>
      </trkpt>
      <trkpt lat="42.438879" lon="2.141682">
        <ele>2741.0</ele>
        <time>2009-06-30T12:08:05Z</time>
      </trkpt>
      <trkpt lat="42.438979" lon="2.141691">
        <ele>2747.0</ele>
        <time>2009-06-30T12:08:15Z</time>
      </trkpt>
      <trkpt lat="42.439079" lon="2.141700">
        <ele>2747.0</ele>
        <time>2009-06-30T12:08:26Z</time>
      </trkpt>
      <trkpt lat="42.439179" lon="2.141691">
        <ele>2747.0</ele>
        <time>2009-06-30T12:08:36Z</time>
      </trkpt>
      <trkpt lat="42.439272" lon="2.141700">
        <ele>2747.0</ele>
        <time>2009-06-30T12:08:46Z</time>
      </trkpt>
      <trkpt lat="42.439365" lon="2.141700">
        <ele>2754.0</ele>
        <time>2009-06-30T12:08:58Z</time>
      </trkpt>
      <trkpt lat="42.439458" lon="2.141656">
        <ele>2754.0</ele>
        <time>2009-06-30T12:09:08Z</time>
      </trkpt>
      <trkpt lat="42.439558" lon="2.141620">
        <ele>2754.0</ele>
        <time>2009-06-30T12:09:19Z</time>
      </trkpt>
      <trkpt lat="42.439638" lon="2.141557">
        <ele>2760.0</ele>
        <time>2009-06-30T12:09:30Z</time>
      </trkpt>
      <trkpt lat="42.439711" lon="2.141485">
        <ele>2760.0</ele>
        <time>2009-06-30T12:09:39Z</time>
      </trkpt>
      <trkpt lat="42.439798" lon="2.141440">
        <ele>2760.0</ele>
        <time>2009-06-30T12:09:47Z</time>
      </trkpt>
      <trkpt lat="42.439891" lon="2.141395">
        <ele>2760.0</ele>
        <time>2009-06-30T12:09:57Z</time>
      </trkpt>
      <trkpt lat="42.439964" lon="2.141323">
        <ele>2760.0</ele>
        <time>2009-06-30T12:10:06Z</time>
      </trkpt>
      <trkpt lat="42.440051" lon="2.141269">
        <ele>2768.0</ele>
        <time>2009-06-30T12:10:18Z</time>
      </trkpt>
      <trkpt lat="42.440137" lon="2.141224">
        <ele>2768.0</ele>
        <time>2009-06-30T12:10:29Z</time>
      </trkpt>
      <trkpt lat="42.440217" lon="2.141161">
        <ele>2768.0</ele>
        <time>2009-06-30T12:10:39Z</time>
      </trkpt>
      <trkpt lat="42.440270" lon="2.141054">
        <ele>2768.0</ele>
        <time>2009-06-30T12:11:06Z</time>
      </trkpt>
      <trkpt lat="42.440297" lon="2.140937">
        <ele>2768.0</ele>
        <time>2009-06-30T12:11:14Z</time>
      </trkpt>
      <trkpt lat="42.440343" lon="2.140811">
        <ele>2768.0</ele>
        <time>2009-06-30T12:11:22Z</time>
      </trkpt>
      <trkpt lat="42.440390" lon="2.140703">
        <ele>2768.0</ele>
        <time>2009-06-30T12:11:28Z</time>
      </trkpt>
      <trkpt lat="42.440443" lon="2.140604">
        <ele>2762.0</ele>
        <time>2009-06-30T12:11:34Z</time>
      </trkpt>
      <trkpt lat="42.440503" lon="2.140497">
        <ele>2762.0</ele>
        <time>2009-06-30T12:11:41Z</time>
      </trkpt>
      <trkpt lat="42.440576" lon="2.140398">
        <ele>2762.0</ele>
        <time>2009-06-30T12:11:48Z</time>
      </trkpt>
      <trkpt lat="42.440649" lon="2.140326">
        <ele>2762.0</ele>
        <time>2009-06-30T12:11:54Z</time>
      </trkpt>
      <trkpt lat="42.440723" lon="2.140227">
        <ele>2762.0</ele>
        <time>2009-06-30T12:12:01Z</time>
      </trkpt>
      <trkpt lat="42.440789" lon="2.140119">
        <ele>2762.0</ele>
        <time>2009-06-30T12:12:09Z</time>
      </trkpt>
      <trkpt lat="42.440869" lon="2.140030">
        <ele>2757.0</ele>
        <time>2009-06-30T12:12:17Z</time>
      </trkpt>
      <trkpt lat="42.440935" lon="2.139931">
        <ele>2757.0</ele>
        <time>2009-06-30T12:12:25Z</time>
      </trkpt>
      <trkpt lat="42.441015" lon="2.139859">
        <ele>2757.0</ele>
        <time>2009-06-30T12:12:39Z</time>
      </trkpt>
      <trkpt lat="42.441082" lon="2.139760">
        <ele>2757.0</ele>
        <time>2009-06-30T12:12:52Z</time>
      </trkpt>
      <trkpt lat="42.441135" lon="2.139652">
        <ele>2748.0</ele>
        <time>2009-06-30T12:13:13Z</time>
      </trkpt>
      <trkpt lat="42.441202" lon="2.139553">
        <ele>2748.0</ele>
        <time>2009-06-30T12:13:24Z</time>
      </trkpt>
      <trkpt lat="42.441275" lon="2.139482">
        <ele>2742.0</ele>
        <time>2009-06-30T12:13:33Z</time>
      </trkpt>
      <trkpt lat="42.441361" lon="2.139419">
        <ele>2742.0</ele>
        <time>2009-06-30T12:13:42Z</time>
      </trkpt>
      <trkpt lat="42.441408" lon="2.139311">
        <ele>2742.0</ele>
        <time>2009-06-30T12:13:51Z</time>
      </trkpt>
      <trkpt lat="42.441494" lon="2.139275">
        <ele>2737.0</ele>
        <time>2009-06-30T12:13:59Z</time>
      </trkpt>
      <trkpt lat="42.441588" lon="2.139221">
        <ele>2737.0</ele>
        <time>2009-06-30T12:14:07Z</time>
      </trkpt>
      <trkpt lat="42.441681" lon="2.139176">
        <ele>2737.0</ele>
        <time>2009-06-30T12:14:14Z</time>
      </trkpt>
      <trkpt lat="42.441767" lon="2.139113">
        <ele>2737.0</ele>
        <time>2009-06-30T12:14:21Z</time>
      </trkpt>
      <trkpt lat="42.441860" lon="2.139041">
        <ele>2731.0</ele>
        <time>2009-06-30T12:14:28Z</time>
      </trkpt>
      <trkpt lat="42.441953" lon="2.138988">
        <ele>2731.0</ele>
        <time>2009-06-30T12:14:35Z</time>
      </trkpt>
      <trkpt lat="42.442020" lon="2.138880">
        <ele>2731.0</ele>
        <time>2009-06-30T12:14:42Z</time>
      </trkpt>
      <trkpt lat="42.442080" lon="2.138781">
        <ele>2731.0</ele>
        <time>2009-06-30T12:14:50Z</time>
      </trkpt>
      <trkpt lat="42.442153" lon="2.138700">
        <ele>2726.0</ele>
        <time>2009-06-30T12:14:58Z</time>
      </trkpt>
      <trkpt lat="42.442226" lon="2.138619">
        <ele>2726.0</ele>
        <time>2009-06-30T12:15:07Z</time>
      </trkpt>
      <trkpt lat="42.442299" lon="2.138529">
        <ele>2726.0</ele>
        <time>2009-06-30T12:15:17Z</time>
      </trkpt>
      <trkpt lat="42.442359" lon="2.138431">
        <ele>2726.0</ele>
        <time>2009-06-30T12:15:26Z</time>
      </trkpt>
      <trkpt lat="42.442439" lon="2.138350">
        <ele>2726.0</ele>
        <time>2009-06-30T12:15:35Z</time>
      </trkpt>
      <trkpt lat="42.442519" lon="2.138287">
        <ele>2726.0</ele>
        <time>2009-06-30T12:15:44Z</time>
      </trkpt>
      <trkpt lat="42.442605" lon="2.138224">
        <ele>2720.0</ele>
        <time>2009-06-30T12:15:53Z</time>
      </trkpt>
      <trkpt lat="42.442685" lon="2.138152">
        <ele>2720.0</ele>
        <time>2009-06-30T12:16:01Z</time>
      </trkpt>
      <trkpt lat="42.442759" lon="2.138080">
        <ele>2720.0</ele>
        <time>2009-06-30T12:16:11Z</time>
      </trkpt>
      <trkpt lat="42.442838" lon="2.138008">
        <ele>2720.0</ele>
        <time>2009-06-30T12:16:19Z</time>
      </trkpt>
      <trkpt lat="42.442938" lon="2.137972">
        <ele>2720.0</ele>
        <time>2009-06-30T12:16:27Z</time>
      </trkpt>
      <trkpt lat="42.443031" lon="2.137954">
        <ele>2720.0</ele>
        <time>2009-06-30T12:16:34Z</time>
      </trkpt>
      <trkpt lat="42.443124" lon="2.137972">
        <ele>2720.0</ele>
        <time>2009-06-30T12:16:41Z</time>
      </trkpt>
      <trkpt lat="42.443224" lon="2.137990">
        <ele>2720.0</ele>
        <time>2009-06-30T12:16:49Z</time>
      </trkpt>
      <trkpt lat="42.443324" lon="2.138008">
        <ele>2720.0</ele>
        <time>2009-06-30T12:16:57Z</time>
      </trkpt>
      <trkpt lat="42.443417" lon="2.137981">
        <ele>2720.0</ele>
        <time>2009-06-30T12:17:04Z</time>
      </trkpt>
      <trkpt lat="42.443510" lon="2.137954">
        <ele>2714.0</ele>
        <time>2009-06-30T12:17:11Z</time>
      </trkpt>
      <trkpt lat="42.443597" lon="2.137910">
        <ele>2714.0</ele>
        <time>2009-06-30T12:17:17Z</time>
      </trkpt>
      <trkpt lat="42.443703" lon="2.137883">
        <ele>2714.0</ele>
        <time>2009-06-30T12:17:24Z</time>
      </trkpt>
      <trkpt lat="42.443790" lon="2.137838">
        <ele>2708.0</ele>
        <time>2009-06-30T12:17:30Z</time>
      </trkpt>
      <trkpt lat="42.443876" lon="2.137784">
        <ele>2708.0</ele>
        <time>2009-06-30T12:17:36Z</time>
      </trkpt>
      <trkpt lat="42.443949" lon="2.137685">
        <ele>2708.0</ele>
        <time>2009-06-30T12:17:43Z</time>
      </trkpt>
      <trkpt lat="42.443996" lon="2.137577">
        <ele>2703.0</ele>
        <time>2009-06-30T12:17:50Z</time>
      </trkpt>
      <trkpt lat="42.444043" lon="2.137469">
        <ele>2703.0</ele>
        <time>2009-06-30T12:17:56Z</time>
      </trkpt>
      <trkpt lat="42.444069" lon="2.137353">
        <ele>2703.0</ele>
        <time>2009-06-30T12:18:02Z</time>
      </trkpt>
      <trkpt lat="42.444103" lon="2.137236">
        <ele>2697.0</ele>
        <time>2009-06-30T12:18:08Z</time>
      </trkpt>
      <trkpt lat="42.444136" lon="2.137119">
        <ele>2697.0</ele>
        <time>2009-06-30T12:18:14Z</time>
      </trkpt>
      <trkpt lat="42.444169" lon="2.137002">
        <ele>2697.0</ele>
        <time>2009-06-30T12:18:21Z</time>
      </trkpt>
      <trkpt lat="42.444209" lon="2.136885">
        <ele>2697.0</ele>
        <time>2009-06-30T12:18:28Z</time>
      </trkpt>
      <trkpt lat="42.444242" lon="2.136760">
        <ele>2697.0</ele>
        <time>2009-06-30T12:18:36Z</time>
      </trkpt>
      <trkpt lat="42.444309" lon="2.136661">
        <ele>2697.0</ele>
        <time>2009-06-30T12:18:43Z</time>
      </trkpt>
      <trkpt lat="42.444355" lon="2.136526">
        <ele>2690.0</ele>
        <time>2009-06-30T12:18:50Z</time>
      </trkpt>
      <trkpt lat="42.444409" lon="2.136427">
        <ele>2690.0</ele>
        <time>2009-06-30T12:18:56Z</time>
      </trkpt>
      <trkpt lat="42.444455" lon="2.136302">
        <ele>2690.0</ele>
        <time>2009-06-30T12:19:03Z</time>
      </trkpt>
      <trkpt lat="42.444488" lon="2.136176">
        <ele>2690.0</ele>
        <time>2009-06-30T12:19:10Z</time>
      </trkpt>
      <trkpt lat="42.444508" lon="2.136050">
        <ele>2684.0</ele>
        <time>2009-06-30T12:19:17Z</time>
      </trkpt>
      <trkpt lat="42.444535" lon="2.135933">
        <ele>2684.0</ele>
        <time>2009-06-30T12:19:24Z</time>
      </trkpt>
      <trkpt lat="42.444588" lon="2.135834">
        <ele>2684.0</ele>
        <time>2009-06-30T12:19:30Z</time>
      </trkpt>
      <trkpt lat="42.444621" lon="2.135718">
        <ele>2684.0</ele>
        <time>2009-06-30T12:19:37Z</time>
      </trkpt>
      <trkpt lat="42.444661" lon="2.135592">
        <ele>2684.0</ele>
        <time>2009-06-30T12:19:45Z</time>
      </trkpt>
      <trkpt lat="42.444708" lon="2.135484">
        <ele>2684.0</ele>
        <time>2009-06-30T12:19:51Z</time>
      </trkpt>
      <trkpt lat="42.444761" lon="2.135385">
        <ele>2684.0</ele>
        <time>2009-06-30T12:19:59Z</time>
      </trkpt>
      <trkpt lat="42.444808" lon="2.135268">
        <ele>2679.0</ele>
        <time>2009-06-30T12:20:07Z</time>
      </trkpt>
      <trkpt lat="42.444861" lon="2.135161">
        <ele>2679.0</ele>
        <time>2009-06-30T12:20:15Z</time>
      </trkpt>
      <trkpt lat="42.444928" lon="2.135053">
        <ele>2679.0</ele>
        <time>2009-06-30T12:20:24Z</time>
      </trkpt>
      <trkpt lat="42.445001" lon="2.134954">
        <ele>2679.0</ele>
        <time>2009-06-30T12:20:33Z</time>
      </trkpt>
      <trkpt lat="42.445081" lon="2.134873">
        <ele>2679.0</ele>
        <time>2009-06-30T12:20:41Z</time>
      </trkpt>
      <trkpt lat="42.445167" lon="2.134828">
        <ele>2679.0</ele>
        <time>2009-06-30T12:20:48Z</time>
      </trkpt>
      <trkpt lat="42.445240" lon="2.134738">
        <ele>2679.0</ele>
        <time>2009-06-30T12:20:55Z</time>
      </trkpt>
      <trkpt lat="42.445327" lon="2.134676">
        <ele>2673.0</ele>
        <time>2009-06-30T12:21:02Z</time>
      </trkpt>
      <trkpt lat="42.445393" lon="2.134577">
        <ele>2673.0</ele>
        <time>2009-06-30T12:21:50Z</time>
      </trkpt>
      <trkpt lat="42.445466" lon="2.134505">
        <ele>2673.0</ele>
        <time>2009-06-30T12:21:56Z</time>
      </trkpt>
      <trkpt lat="42.445540" lon="2.134433">
        <ele>2668.0</ele>
        <time>2009-06-30T12:22:03Z</time>
      </trkpt>
      <trkpt lat="42.445606" lon="2.134343">
        <ele>2668.0</ele>
        <time>2009-06-30T12:22:10Z</time>
      </trkpt>
      <trkpt lat="42.445686" lon="2.134280">
        <ele>2668.0</ele>
        <time>2009-06-30T12:22:24Z</time>
      </trkpt>
      <trkpt lat="42.445772" lon="2.134217">
        <ele>2668.0</ele>
        <time>2009-06-30T12:23:11Z</time>
      </trkpt>
      <trkpt lat="42.445859" lon="2.134173">
        <ele>2668.0</ele>
        <time>2009-06-30T12:23:22Z</time>
      </trkpt>
      <trkpt lat="42.445952" lon="2.134155">
        <ele>2668.0</ele>
        <time>2009-06-30T12:23:33Z</time>
      </trkpt>
      <trkpt lat="42.446032" lon="2.134092">
        <ele>2668.0</ele>
        <time>2009-06-30T12:23:42Z</time>
      </trkpt>
      <trkpt lat="42.446125" lon="2.134056">
        <ele>2668.0</ele>
        <time>2009-06-30T12:23:51Z</time>
      </trkpt>
      <trkpt lat="42.446218" lon="2.134038">
        <ele>2668.0</ele>
        <time>2009-06-30T12:23:59Z</time>
      </trkpt>
      <trkpt lat="42.446305" lon="2.133993">
        <ele>2668.0</ele>
        <time>2009-06-30T12:24:07Z</time>
      </trkpt>
      <trkpt lat="42.446391" lon="2.133957">
        <ele>2668.0</ele>
        <time>2009-06-30T12:24:15Z</time>
      </trkpt>
      <trkpt lat="42.446478" lon="2.133894">
        <ele>2668.0</ele>
        <time>2009-06-30T12:24:23Z</time>
      </trkpt>
      <trkpt lat="42.446571" lon="2.133831">
        <ele>2668.0</ele>
        <time>2009-06-30T12:24:32Z</time>
      </trkpt>
      <trkpt lat="42.446657" lon="2.133777">
        <ele>2668.0</ele>
        <time>2009-06-30T12:24:40Z</time>
      </trkpt>
      <trkpt lat="42.446737" lon="2.133714">
        <ele>2668.0</ele>
        <time>2009-06-30T12:24:47Z</time>
      </trkpt>
      <trkpt lat="42.446817" lon="2.133643">
        <ele>2668.0</ele>
        <time>2009-06-30T12:24:55Z</time>
      </trkpt>
      <trkpt lat="42.446903" lon="2.133589">
        <ele>2668.0</ele>
        <time>2009-06-30T12:25:04Z</time>
      </trkpt>
      <trkpt lat="42.446990" lon="2.133526">
        <ele>2668.0</ele>
        <time>2009-06-30T12:25:14Z</time>
      </trkpt>
      <trkpt lat="42.447083" lon="2.133481">
        <ele>2668.0</ele>
        <time>2009-06-30T12:25:26Z</time>
      </trkpt>
      <trkpt lat="42.447156" lon="2.133409">
        <ele>2668.0</ele>
        <time>2009-06-30T12:25:34Z</time>
      </trkpt>
      <trkpt lat="42.447236" lon="2.133337">
        <ele>2668.0</ele>
        <time>2009-06-30T12:25:42Z</time>
      </trkpt>
      <trkpt lat="42.447323" lon="2.133283">
        <ele>2668.0</ele>
        <time>2009-06-30T12:25:50Z</time>
      </trkpt>
      <trkpt lat="42.447409" lon="2.133238">
        <ele>2668.0</ele>
        <time>2009-06-30T12:25:58Z</time>
      </trkpt>
      <trkpt lat="42.447502" lon="2.133193">
        <ele>2668.0</ele>
        <time>2009-06-30T12:26:07Z</time>
      </trkpt>
      <trkpt lat="42.447575" lon="2.133122">
        <ele>2668.0</ele>
        <time>2009-06-30T12:26:20Z</time>
      </trkpt>
      <trkpt lat="42.447662" lon="2.133077">
        <ele>2668.0</ele>
        <time>2009-06-30T12:28:15Z</time>
      </trkpt>
      <trkpt lat="42.447748" lon="2.133041">
        <ele>2668.0</ele>
        <time>2009-06-30T12:28:22Z</time>
      </trkpt>
      <trkpt lat="42.447835" lon="2.133005">
        <ele>2668.0</ele>
        <time>2009-06-30T12:28:30Z</time>
      </trkpt>
      <trkpt lat="42.447928" lon="2.133005">
        <ele>2668.0</ele>
        <time>2009-06-30T12:28:40Z</time>
      </trkpt>
      <trkpt lat="42.448021" lon="2.132996">
        <ele>2668.0</ele>
        <time>2009-06-30T12:28:49Z</time>
      </trkpt>
      <trkpt lat="42.448101" lon="2.132933">
        <ele>2668.0</ele>
        <time>2009-06-30T12:28:57Z</time>
      </trkpt>
      <trkpt lat="42.448201" lon="2.132906">
        <ele>2668.0</ele>
        <time>2009-06-30T12:29:05Z</time>
      </trkpt>
      <trkpt lat="42.448294" lon="2.132852">
        <ele>2668.0</ele>
        <time>2009-06-30T12:29:13Z</time>
      </trkpt>
      <trkpt lat="42.448380" lon="2.132816">
        <ele>2668.0</ele>
        <time>2009-06-30T12:29:22Z</time>
      </trkpt>
      <trkpt lat="42.448480" lon="2.132798">
        <ele>2668.0</ele>
        <time>2009-06-30T12:29:37Z</time>
      </trkpt>
      <trkpt lat="42.448573" lon="2.132762">
        <ele>2668.0</ele>
        <time>2009-06-30T12:29:49Z</time>
      </trkpt>
      <trkpt lat="42.448667" lon="2.132726">
        <ele>2674.0</ele>
        <time>2009-06-30T12:29:59Z</time>
      </trkpt>
      <trkpt lat="42.448753" lon="2.132681">
        <ele>2674.0</ele>
        <time>2009-06-30T12:30:14Z</time>
      </trkpt>
      <trkpt lat="42.448839" lon="2.132627">
        <ele>2674.0</ele>
        <time>2009-06-30T12:30:24Z</time>
      </trkpt>
      <trkpt lat="42.448919" lon="2.132565">
        <ele>2680.0</ele>
        <time>2009-06-30T12:30:34Z</time>
      </trkpt>
      <trkpt lat="42.449012" lon="2.132556">
        <ele>2680.0</ele>
        <time>2009-06-30T12:30:49Z</time>
      </trkpt>
      <trkpt lat="42.449099" lon="2.132493">
        <ele>2680.0</ele>
        <time>2009-06-30T12:31:01Z</time>
      </trkpt>
      <trkpt lat="42.449172" lon="2.132403">
        <ele>2680.0</ele>
        <time>2009-06-30T12:31:19Z</time>
      </trkpt>
      <trkpt lat="42.449272" lon="2.132349">
        <ele>2680.0</ele>
        <time>2009-06-30T12:31:32Z</time>
      </trkpt>
      <trkpt lat="42.449352" lon="2.132277">
        <ele>2680.0</ele>
        <time>2009-06-30T12:31:43Z</time>
      </trkpt>
      <trkpt lat="42.449425" lon="2.132205">
        <ele>2680.0</ele>
        <time>2009-06-30T12:31:55Z</time>
      </trkpt>
      <trkpt lat="42.449511" lon="2.132160">
        <ele>2687.0</ele>
        <time>2009-06-30T12:32:05Z</time>
      </trkpt>
      <trkpt lat="42.449571" lon="2.132061">
        <ele>2687.0</ele>
        <time>2009-06-30T12:32:17Z</time>
      </trkpt>
      <trkpt lat="42.449631" lon="2.131963">
        <ele>2687.0</ele>
        <time>2009-06-30T12:32:27Z</time>
      </trkpt>
      <trkpt lat="42.449698" lon="2.131873">
        <ele>2687.0</ele>
        <time>2009-06-30T12:32:36Z</time>
      </trkpt>
      <trkpt lat="42.449764" lon="2.131783">
        <ele>2687.0</ele>
        <time>2009-06-30T12:32:45Z</time>
      </trkpt>
      <trkpt lat="42.449837" lon="2.131711">
        <ele>2687.0</ele>
        <time>2009-06-30T12:32:53Z</time>
      </trkpt>
      <trkpt lat="42.449924" lon="2.131657">
        <ele>2693.0</ele>
        <time>2009-06-30T12:33:08Z</time>
      </trkpt>
      <trkpt lat="42.450010" lon="2.131603">
        <ele>2693.0</ele>
        <time>2009-06-30T12:33:20Z</time>
      </trkpt>
      <trkpt lat="42.450077" lon="2.131514">
        <ele>2693.0</ele>
        <time>2009-06-30T12:33:29Z</time>
      </trkpt>
      <trkpt lat="42.450123" lon="2.131397">
        <ele>2693.0</ele>
        <time>2009-06-30T12:33:38Z</time>
      </trkpt>
      <trkpt lat="42.450170" lon="2.131280">
        <ele>2699.0</ele>
        <time>2009-06-30T12:33:48Z</time>
      </trkpt>
      <trkpt lat="42.450217" lon="2.131172">
        <ele>2699.0</ele>
        <time>2009-06-30T12:33:57Z</time>
      </trkpt>
      <trkpt lat="42.450270" lon="2.131064">
        <ele>2699.0</ele>
        <time>2009-06-30T12:34:05Z</time>
      </trkpt>
      <trkpt lat="42.450323" lon="2.130966">
        <ele>2699.0</ele>
        <time>2009-06-30T12:34:14Z</time>
      </trkpt>
      <trkpt lat="42.450370" lon="2.130849">
        <ele>2699.0</ele>
        <time>2009-06-30T12:34:24Z</time>
      </trkpt>
      <trkpt lat="42.450456" lon="2.130804">
        <ele>2704.0</ele>
        <time>2009-06-30T12:34:42Z</time>
      </trkpt>
      <trkpt lat="42.450529" lon="2.130705">
        <ele>2704.0</ele>
        <time>2009-06-30T12:34:56Z</time>
      </trkpt>
      <trkpt lat="42.450622" lon="2.130714">
        <ele>2715.0</ele>
        <time>2009-06-30T12:35:47Z</time>
      </trkpt>
      <trkpt lat="42.450716" lon="2.130714">
        <ele>2715.0</ele>
        <time>2009-06-30T12:36:15Z</time>
      </trkpt>
      <trkpt lat="42.450789" lon="2.130786">
        <ele>2729.0</ele>
        <time>2009-06-30T12:36:59Z</time>
      </trkpt>
      <trkpt lat="42.450862" lon="2.130705">
        <ele>2729.0</ele>
        <time>2009-06-30T12:37:12Z</time>
      </trkpt>
      <trkpt lat="42.450955" lon="2.130705">
        <ele>2729.0</ele>
        <time>2009-06-30T12:37:42Z</time>
      </trkpt>
      <trkpt lat="42.451048" lon="2.130723">
        <ele>2739.0</ele>
        <time>2009-06-30T12:46:08Z</time>
      </trkpt>
      <trkpt lat="42.451141" lon="2.130705">
        <ele>2733.0</ele>
        <time>2009-06-30T12:46:55Z</time>
      </trkpt>
      <trkpt lat="42.451228" lon="2.130669">
        <ele>2733.0</ele>
        <time>2009-06-30T12:47:21Z</time>
      </trkpt>
      <trkpt lat="42.451314" lon="2.130624">
        <ele>2726.0</ele>
        <time>2009-06-30T12:47:34Z</time>
      </trkpt>
      <trkpt lat="42.451414" lon="2.130588">
        <ele>2726.0</ele>
        <time>2009-06-30T12:47:44Z</time>
      </trkpt>
      <trkpt lat="42.451501" lon="2.130543">
        <ele>2726.0</ele>
        <time>2009-06-30T12:47:57Z</time>
      </trkpt>
      <trkpt lat="42.451587" lon="2.130498">
        <ele>2726.0</ele>
        <time>2009-06-30T12:48:09Z</time>
      </trkpt>
      <trkpt lat="42.451674" lon="2.130454">
        <ele>2726.0</ele>
        <time>2009-06-30T12:48:35Z</time>
      </trkpt>
      <trkpt lat="42.451800" lon="2.130364">
        <ele>2655.0</ele>
        <time>2009-06-30T15:05:19Z</time>
      </trkpt>
      <trkpt lat="42.451886" lon="2.130301">
        <ele>2655.0</ele>
        <time>2009-06-30T15:05:56Z</time>
      </trkpt>
      <trkpt lat="42.451980" lon="2.130247">
        <ele>2639.0</ele>
        <time>2009-06-30T15:06:17Z</time>
      </trkpt>
      <trkpt lat="42.452073" lon="2.130238">
        <ele>2639.0</ele>
        <time>2009-06-30T15:06:31Z</time>
      </trkpt>
      <trkpt lat="42.452139" lon="2.130139">
        <ele>2639.0</ele>
        <time>2009-06-30T15:06:43Z</time>
      </trkpt>
      <trkpt lat="42.452232" lon="2.130103">
        <ele>2639.0</ele>
        <time>2009-06-30T15:06:54Z</time>
      </trkpt>
      <trkpt lat="42.452299" lon="2.130013">
        <ele>2629.0</ele>
        <time>2009-06-30T15:07:10Z</time>
      </trkpt>
      <trkpt lat="42.452365" lon="2.129924">
        <ele>2622.0</ele>
        <time>2009-06-30T15:07:23Z</time>
      </trkpt>
      <trkpt lat="42.452459" lon="2.129906">
        <ele>2622.0</ele>
        <time>2009-06-30T15:07:39Z</time>
      </trkpt>
      <trkpt lat="42.452558" lon="2.129897">
        <ele>2622.0</ele>
        <time>2009-06-30T15:07:58Z</time>
      </trkpt>
      <trkpt lat="42.452645" lon="2.129861">
        <ele>2622.0</ele>
        <time>2009-06-30T15:08:07Z</time>
      </trkpt>
      <trkpt lat="42.452725" lon="2.129798">
        <ele>2622.0</ele>
        <time>2009-06-30T15:08:16Z</time>
      </trkpt>
      <trkpt lat="42.452804" lon="2.129735">
        <ele>2630.0</ele>
        <time>2009-06-30T15:08:22Z</time>
      </trkpt>
      <trkpt lat="42.452878" lon="2.129663">
        <ele>2630.0</ele>
        <time>2009-06-30T15:08:34Z</time>
      </trkpt>
      <trkpt lat="42.452964" lon="2.129627">
        <ele>2630.0</ele>
        <time>2009-06-30T15:08:44Z</time>
      </trkpt>
      <trkpt lat="42.453064" lon="2.129564">
        <ele>2630.0</ele>
        <time>2009-06-30T15:08:54Z</time>
      </trkpt>
      <trkpt lat="42.453110" lon="2.129510">
        <ele>2518.0</ele>
      </trkpt>
      <trkpt lat="42.453204" lon="2.129456">
        <ele>2509.0</ele>
      </trkpt>
      <trkpt lat="42.453290" lon="2.129402">
        <ele>2502.0</ele>
      </trkpt>
      <trkpt lat="42.453363" lon="2.129322">
        <ele>2502.0</ele>
      </trkpt>
      <trkpt lat="42.453456" lon="2.129295">
        <ele>2492.0</ele>
      </trkpt>
      <trkpt lat="42.453536" lon="2.129232">
        <ele>2492.0</ele>
      </trkpt>
      <trkpt lat="42.453629" lon="2.129259">
        <ele>2497.0</ele>
      </trkpt>
      <trkpt lat="42.453669" lon="2.129250">
        <ele>2497.0</ele>
      </trkpt>
      <trkpt lat="42.453762" lon="2.129241">
        <ele>2486.0</ele>
      </trkpt>
      <trkpt lat="42.453836" lon="2.129169">
        <ele>2477.0</ele>
      </trkpt>
      <trkpt lat="42.453922" lon="2.129079">
        <ele>2459.0</ele>
      </trkpt>
      <trkpt lat="42.453989" lon="2.128980">
        <ele>2459.0</ele>
      </trkpt>
      <trkpt lat="42.454082" lon="2.128971">
        <ele>2453.0</ele>
      </trkpt>
      <trkpt lat="42.454175" lon="2.128944">
        <ele>2448.0</ele>
      </trkpt>
      <trkpt lat="42.454261" lon="2.128890">
        <ele>2448.0</ele>
      </trkpt>
      <trkpt lat="42.454334" lon="2.128810">
        <ele>2426.0</ele>
      </trkpt>
      <trkpt lat="42.454414" lon="2.128738">
        <ele>2426.0</ele>
      </trkpt>
      <trkpt lat="42.454454" lon="2.128621">
        <ele>2426.0</ele>
      </trkpt>
      <trkpt lat="42.454527" lon="2.128540">
        <ele>2411.0</ele>
      </trkpt>
      <trkpt lat="42.454601" lon="2.128468">
        <ele>2411.0</ele>
      </trkpt>
      <trkpt lat="42.454654" lon="2.128369">
        <ele>2411.0</ele>
      </trkpt>
      <trkpt lat="42.454840" lon="2.128262">
        <ele>2414.0</ele>
      </trkpt>
      <trkpt lat="42.454907" lon="2.128163">
        <ele>2402.0</ele>
      </trkpt>
      <trkpt lat="42.454986" lon="2.128082">
        <ele>2394.0</ele>
      </trkpt>
      <trkpt lat="42.455073" lon="2.128019">
        <ele>2394.0</ele>
      </trkpt>
      <trkpt lat="42.455166" lon="2.127974">
        <ele>2387.0</ele>
      </trkpt>
      <trkpt lat="42.455266" lon="2.127947">
        <ele>2387.0</ele>
      </trkpt>
      <trkpt lat="42.455352" lon="2.127911">
        <ele>2380.0</ele>
      </trkpt>
      <trkpt lat="42.455439" lon="2.127857">
        <ele>2374.0</ele>
      </trkpt>
      <trkpt lat="42.455512" lon="2.127777">
        <ele>2380.0</ele>
      </trkpt>
      <trkpt lat="42.455565" lon="2.127624">
        <ele>2359.0</ele>
      </trkpt>
      <trkpt lat="42.455658" lon="2.127606">
        <ele>2359.0</ele>
      </trkpt>
      <trkpt lat="42.455765" lon="2.127579">
        <ele>2359.0</ele>
      </trkpt>
      <trkpt lat="42.455858" lon="2.127597">
        <ele>2373.0</ele>
      </trkpt>
      <trkpt lat="42.455951" lon="2.127606">
        <ele>2373.0</ele>
      </trkpt>
      <trkpt lat="42.456037" lon="2.127642">
        <ele>2365.0</ele>
      </trkpt>
      <trkpt lat="42.456137" lon="2.127660">
        <ele>2365.0</ele>
      </trkpt>
      <trkpt lat="42.456210" lon="2.127750">
        <ele>2352.0</ele>
      </trkpt>
      <trkpt lat="42.456284" lon="2.127821">
        <ele>2352.0</ele>
      </trkpt>
      <trkpt lat="42.456370" lon="2.127866">
        <ele>2352.0</ele>
      </trkpt>
      <trkpt lat="42.456437" lon="2.127965">
        <ele>2352.0</ele>
      </trkpt>
      <trkpt lat="42.456523" lon="2.128019">
        <ele>2352.0</ele>
      </trkpt>
      <trkpt lat="42.456596" lon="2.128091">
        <ele>2352.0</ele>
      </trkpt>
      <trkpt lat="42.456669" lon="2.128163">
        <ele>2352.0</ele>
      </trkpt>
      <trkpt lat="42.456743" lon="2.128244">
        <ele>2352.0</ele>
      </trkpt>
      <trkpt lat="42.456809" lon="2.128342">
        <ele>2352.0</ele>
      </trkpt>
      <trkpt lat="42.456902" lon="2.128342">
        <ele>2352.0</ele>
      </trkpt>
      <trkpt lat="42.456989" lon="2.128271">
        <ele>2352.0</ele>
      </trkpt>
      <trkpt lat="42.457062" lon="2.128199">
        <ele>2345.0</ele>
      </trkpt>
      <trkpt lat="42.457142" lon="2.128109">
        <ele>2345.0</ele>
      </trkpt>
      <trkpt lat="42.457228" lon="2.128046">
        <ele>2345.0</ele>
      </trkpt>
      <trkpt lat="42.457321" lon="2.128046">
        <ele>2345.0</ele>
      </trkpt>
      <trkpt lat="42.457414" lon="2.128010">
        <ele>2345.0</ele>
      </trkpt>
      <trkpt lat="42.457508" lon="2.127965">
        <ele>2338.0</ele>
      </trkpt>
      <trkpt lat="42.457601" lon="2.127911">
        <ele>2338.0</ele>
      </trkpt>
      <trkpt lat="42.457680" lon="2.127848">
        <ele>2331.0</ele>
      </trkpt>
      <trkpt lat="42.457774" lon="2.127803">
        <ele>2331.0</ele>
      </trkpt>
      <trkpt lat="42.457867" lon="2.127759">
        <ele>2331.0</ele>
      </trkpt>
      <trkpt lat="42.457947" lon="2.127687">
        <ele>2326.0</ele>
      </trkpt>
      <trkpt lat="42.458026" lon="2.127615">
        <ele>2326.0</ele>
      </trkpt>
      <trkpt lat="42.458113" lon="2.127561">
        <ele>2320.0</ele>
      </trkpt>
      <trkpt lat="42.458199" lon="2.127498">
        <ele>2320.0</ele>
      </trkpt>
      <trkpt lat="42.458286" lon="2.127462">
        <ele>2320.0</ele>
      </trkpt>
      <trkpt lat="42.458386" lon="2.127426">
        <ele>2320.0</ele>
      </trkpt>
      <trkpt lat="42.458479" lon="2.127408">
        <ele>2320.0</ele>
      </trkpt>
      <trkpt lat="42.458565" lon="2.127372">
        <ele>2320.0</ele>
      </trkpt>
      <trkpt lat="42.458665" lon="2.127363">
        <ele>2320.0</ele>
      </trkpt>
      <trkpt lat="42.458758" lon="2.127354">
        <ele>2320.0</ele>
      </trkpt>
      <trkpt lat="42.458845" lon="2.127300">
        <ele>2320.0</ele>
      </trkpt>
      <trkpt lat="42.458938" lon="2.127282">
        <ele>2320.0</ele>
      </trkpt>
      <trkpt lat="42.459031" lon="2.127273">
        <ele>2320.0</ele>
      </trkpt>
      <trkpt lat="42.459117" lon="2.127238">
        <ele>2320.0</ele>
      </trkpt>
      <trkpt lat="42.459217" lon="2.127238">
        <ele>2313.0</ele>
      </trkpt>
      <trkpt lat="42.459310" lon="2.127220">
        <ele>2313.0</ele>
      </trkpt>
      <trkpt lat="42.459397" lon="2.127184">
        <ele>2313.0</ele>
      </trkpt>
      <trkpt lat="42.459476" lon="2.127121">
        <ele>2313.0</ele>
      </trkpt>
      <trkpt lat="42.459563" lon="2.127076">
        <ele>2307.0</ele>
      </trkpt>
      <trkpt lat="42.459649" lon="2.127013">
        <ele>2307.0</ele>
      </trkpt>
      <trkpt lat="42.459736" lon="2.126968">
        <ele>2307.0</ele>
      </trkpt>
      <trkpt lat="42.459836" lon="2.126941">
        <ele>2299.0</ele>
      </trkpt>
      <trkpt lat="42.459929" lon="2.126932">
        <ele>2299.0</ele>
      </trkpt>
      <trkpt lat="42.460029" lon="2.126896">
        <ele>2299.0</ele>
      </trkpt>
      <trkpt lat="42.460122" lon="2.126860">
        <ele>2292.0</ele>
      </trkpt>
      <trkpt lat="42.460208" lon="2.126806">
        <ele>2292.0</ele>
      </trkpt>
      <trkpt lat="42.460295" lon="2.126752">
        <ele>2292.0</ele>
      </trkpt>
      <trkpt lat="42.460374" lon="2.126690">
        <ele>2286.0</ele>
      </trkpt>
      <trkpt lat="42.460468" lon="2.126663">
        <ele>2286.0</ele>
      </trkpt>
      <trkpt lat="42.460554" lon="2.126627">
        <ele>2286.0</ele>
      </trkpt>
      <trkpt lat="42.460647" lon="2.126591">
        <ele>2280.0</ele>
      </trkpt>
      <trkpt lat="42.460734" lon="2.126528">
        <ele>2280.0</ele>
      </trkpt>
      <trkpt lat="42.460813" lon="2.126465">
        <ele>2280.0</ele>
      </trkpt>
      <trkpt lat="42.460893" lon="2.126402">
        <ele>2280.0</ele>
      </trkpt>
      <trkpt lat="42.460980" lon="2.126357">
        <ele>2275.0</ele>
      </trkpt>
      <trkpt lat="42.461066" lon="2.126276">
        <ele>2275.0</ele>
      </trkpt>
      <trkpt lat="42.461153" lon="2.126222">
        <ele>2275.0</ele>
      </trkpt>
      <trkpt lat="42.461232" lon="2.126160">
        <ele>2269.0</ele>
      </trkpt>
      <trkpt lat="42.461306" lon="2.126079">
        <ele>2269.0</ele>
      </trkpt>
      <trkpt lat="42.461379" lon="2.126007">
        <ele>2269.0</ele>
      </trkpt>
      <trkpt lat="42.461452" lon="2.125935">
        <ele>2269.0</ele>
      </trkpt>
      <trkpt lat="42.461518" lon="2.125836">
        <ele>2269.0</ele>
      </trkpt>
      <trkpt lat="42.461552" lon="2.125710">
        <ele>2263.0</ele>
      </trkpt>
      <trkpt lat="42.461572" lon="2.125585">
        <ele>2263.0</ele>
      </trkpt>
      <trkpt lat="42.461678" lon="2.125594">
        <ele>2256.0</ele>
      </trkpt>
      <trkpt lat="42.461751" lon="2.125674">
        <ele>2256.0</ele>
      </trkpt>
      <trkpt lat="42.461824" lon="2.125746">
        <ele>2256.0</ele>
      </trkpt>
      <trkpt lat="42.461918" lon="2.125719">
        <ele>2245.0</ele>
      </trkpt>
      <trkpt lat="42.461951" lon="2.125755">
        <ele>2238.0</ele>
      </trkpt>
      <trkpt lat="42.462044" lon="2.125737">
        <ele>2238.0</ele>
      </trkpt>
      <trkpt lat="42.462137" lon="2.125710">
        <ele>2232.0</ele>
      </trkpt>
      <trkpt lat="42.462224" lon="2.125674">
        <ele>2232.0</ele>
      </trkpt>
      <trkpt lat="42.462263" lon="2.125558">
        <ele>2225.0</ele>
      </trkpt>
      <trkpt lat="42.462290" lon="2.125441">
        <ele>2215.0</ele>
      </trkpt>
      <trkpt lat="42.462343" lon="2.125342">
        <ele>2215.0</ele>
      </trkpt>
      <trkpt lat="42.462430" lon="2.125288">
        <ele>2215.0</ele>
      </trkpt>
      <trkpt lat="42.462523" lon="2.125279">
        <ele>2209.0</ele>
      </trkpt>
      <trkpt lat="42.462609" lon="2.125225">
        <ele>2209.0</ele>
      </trkpt>
      <trkpt lat="42.462696" lon="2.125171">
        <ele>2203.0</ele>
      </trkpt>
      <trkpt lat="42.462782" lon="2.125118">
        <ele>2203.0</ele>
      </trkpt>
      <trkpt lat="42.462855" lon="2.125037">
        <ele>2198.0</ele>
      </trkpt>
      <trkpt lat="42.462955" lon="2.125001">
        <ele>2198.0</ele>
      </trkpt>
      <trkpt lat="42.463048" lon="2.124983">
        <ele>2192.0</ele>
      </trkpt>
      <trkpt lat="42.463148" lon="2.124956">
        <ele>2192.0</ele>
      </trkpt>
      <trkpt lat="42.463248" lon="2.124956">
        <ele>2186.0</ele>
      </trkpt>
      <trkpt lat="42.463341" lon="2.124920">
        <ele>2186.0</ele>
      </trkpt>
      <trkpt lat="42.463427" lon="2.124866">
        <ele>2186.0</ele>
      </trkpt>
      <trkpt lat="42.463507" lon="2.124794">
        <ele>2186.0</ele>
      </trkpt>
      <trkpt lat="42.463594" lon="2.124758">
        <ele>2186.0</ele>
      </trkpt>
      <trkpt lat="42.463667" lon="2.124686">
        <ele>2179.0</ele>
      </trkpt>
      <trkpt lat="42.463740" lon="2.124614">
        <ele>2172.0</ele>
      </trkpt>
      <trkpt lat="42.463833" lon="2.124588">
        <ele>2172.0</ele>
      </trkpt>
      <trkpt lat="42.463913" lon="2.124525">
        <ele>2172.0</ele>
      </trkpt>
      <trkpt lat="42.463979" lon="2.124426">
        <ele>2161.0</ele>
      </trkpt>
      <trkpt lat="42.464066" lon="2.124354">
        <ele>2155.0</ele>
      </trkpt>
      <trkpt lat="42.464152" lon="2.124291">
        <ele>2155.0</ele>
      </trkpt>
      <trkpt lat="42.464219" lon="2.124201">
        <ele>2144.0</ele>
      </trkpt>
      <trkpt lat="42.464272" lon="2.124084">
        <ele>2144.0</ele>
      </trkpt>
      <trkpt lat="42.464359" lon="2.124040">
        <ele>2144.0</ele>
      </trkpt>
      <trkpt lat="42.464398" lon="2.123923">
        <ele>2133.0</ele>
      </trkpt>
      <trkpt lat="42.464478" lon="2.123860">
        <ele>2133.0</ele>
      </trkpt>
      <trkpt lat="42.464485" lon="2.123725">
        <ele>2128.0</ele>
      </trkpt>
      <trkpt lat="42.464518" lon="2.123608">
        <ele>2128.0</ele>
      </trkpt>
      <trkpt lat="42.464585" lon="2.123519">
        <ele>2128.0</ele>
      </trkpt>
      <trkpt lat="42.464638" lon="2.123420">
        <ele>2122.0</ele>
      </trkpt>
      <trkpt lat="42.464651" lon="2.123294">
        <ele>2122.0</ele>
      </trkpt>
      <trkpt lat="42.464678" lon="2.123159">
        <ele>2116.0</ele>
      </trkpt>
      <trkpt lat="42.464731" lon="2.123060">
        <ele>2116.0</ele>
      </trkpt>
      <trkpt lat="42.464818" lon="2.123015">
        <ele>2116.0</ele>
      </trkpt>
      <trkpt lat="42.464884" lon="2.122917">
        <ele>2110.0</ele>
      </trkpt>
      <trkpt lat="42.464957" lon="2.122845">
        <ele>2110.0</ele>
      </trkpt>
      <trkpt lat="42.465024" lon="2.122755">
        <ele>2110.0</ele>
      </trkpt>
      <trkpt lat="42.465117" lon="2.122737">
        <ele>2110.0</ele>
      </trkpt>
      <trkpt lat="42.465110" lon="2.122611">
        <ele>2101.0</ele>
      </trkpt>
      <trkpt lat="42.465123" lon="2.122485">
        <ele>2101.0</ele>
      </trkpt>
      <trkpt lat="42.465177" lon="2.122387">
        <ele>2101.0</ele>
      </trkpt>
      <trkpt lat="42.465270" lon="2.122333">
        <ele>2101.0</ele>
      </trkpt>
      <trkpt lat="42.465356" lon="2.122297">
        <ele>2096.0</ele>
      </trkpt>
      <trkpt lat="42.465463" lon="2.122306">
        <ele>2096.0</ele>
      </trkpt>
      <trkpt lat="42.465556" lon="2.122279">
        <ele>2096.0</ele>
      </trkpt>
      <trkpt lat="42.465649" lon="2.122315">
        <ele>2096.0</ele>
      </trkpt>
      <trkpt lat="42.465742" lon="2.122333">
        <ele>2090.0</ele>
      </trkpt>
      <trkpt lat="42.465795" lon="2.122234">
        <ele>2090.0</ele>
      </trkpt>
      <trkpt lat="42.465809" lon="2.122108">
        <ele>2084.0</ele>
      </trkpt>
      <trkpt lat="42.465855" lon="2.122000">
        <ele>2084.0</ele>
      </trkpt>
      <trkpt lat="42.465908" lon="2.121902">
        <ele>2084.0</ele>
      </trkpt>
      <trkpt lat="42.465961" lon="2.121785">
        <ele>2077.0</ele>
      </trkpt>
      <trkpt lat="42.466008" lon="2.121677">
        <ele>2077.0</ele>
      </trkpt>
      <trkpt lat="42.466075" lon="2.121587">
        <ele>2071.0</ele>
      </trkpt>
      <trkpt lat="42.466134" lon="2.121488">
        <ele>2071.0</ele>
      </trkpt>
      <trkpt lat="42.466201" lon="2.121398">
        <ele>2064.0</ele>
      </trkpt>
      <trkpt lat="42.466267" lon="2.121309">
        <ele>2064.0</ele>
      </trkpt>
      <trkpt lat="42.466334" lon="2.121219">
        <ele>2054.0</ele>
      </trkpt>
      <trkpt lat="42.466400" lon="2.121129">
        <ele>2054.0</ele>
      </trkpt>
      <trkpt lat="42.466474" lon="2.121048">
        <ele>2048.0</ele>
      </trkpt>
      <trkpt lat="42.466540" lon="2.120949">
        <ele>2048.0</ele>
      </trkpt>
      <trkpt lat="42.466593" lon="2.120851">
        <ele>2048.0</ele>
      </trkpt>
      <trkpt lat="42.466673" lon="2.120761">
        <ele>2042.0</ele>
      </trkpt>
      <trkpt lat="42.466760" lon="2.120707">
        <ele>2042.0</ele>
      </trkpt>
      <trkpt lat="42.466846" lon="2.120662">
        <ele>2042.0</ele>
      </trkpt>
      <trkpt lat="42.466933" lon="2.120626">
        <ele>2042.0</ele>
      </trkpt>
      <trkpt lat="42.467026" lon="2.120599">
        <ele>2042.0</ele>
      </trkpt>
      <trkpt lat="42.467119" lon="2.120590">
        <ele>2042.0</ele>
      </trkpt>
      <trkpt lat="42.467185" lon="2.120500">
        <ele>2035.0</ele>
      </trkpt>
      <trkpt lat="42.467258" lon="2.120401">
        <ele>2035.0</ele>
      </trkpt>
      <trkpt lat="42.467332" lon="2.120329">
        <ele>2028.0</ele>
      </trkpt>
      <trkpt lat="42.467425" lon="2.120267">
        <ele>2028.0</ele>
      </trkpt>
      <trkpt lat="42.467518" lon="2.120213">
        <ele>2028.0</ele>
      </trkpt>
      <trkpt lat="42.467604" lon="2.120150">
        <ele>2028.0</ele>
      </trkpt>
      <trkpt lat="42.467691" lon="2.120096">
        <ele>2023.0</ele>
      </trkpt>
      <trkpt lat="42.467784" lon="2.120060">
        <ele>2023.0</ele>
      </trkpt>
      <trkpt lat="42.467884" lon="2.120024">
        <ele>2023.0</ele>
      </trkpt>
      <trkpt lat="42.467977" lon="2.120006">
        <ele>2023.0</ele>
      </trkpt>
      <trkpt lat="42.468083" lon="2.119979">
        <ele>2023.0</ele>
      </trkpt>
      <trkpt lat="42.468183" lon="2.119979">
        <ele>2023.0</ele>
      </trkpt>
      <trkpt lat="42.468269" lon="2.119934">
        <ele>2023.0</ele>
      </trkpt>
      <trkpt lat="42.468349" lon="2.119871">
        <ele>2018.0</ele>
      </trkpt>
      <trkpt lat="42.468429" lon="2.119799">
        <ele>2018.0</ele>
      </trkpt>
      <trkpt lat="42.468502" lon="2.119728">
        <ele>2018.0</ele>
      </trkpt>
      <trkpt lat="42.468569" lon="2.119620">
        <ele>2009.0</ele>
      </trkpt>
      <trkpt lat="42.468642" lon="2.119530">
        <ele>2009.0</ele>
      </trkpt>
      <trkpt lat="42.468715" lon="2.119449">
        <ele>2009.0</ele>
      </trkpt>
      <trkpt lat="42.468795" lon="2.119386">
        <ele>2003.0</ele>
      </trkpt>
      <trkpt lat="42.468881" lon="2.119332">
        <ele>2003.0</ele>
      </trkpt>
      <trkpt lat="42.468968" lon="2.119269">
        <ele>2003.0</ele>
      </trkpt>
      <trkpt lat="42.469054" lon="2.119216">
        <ele>2003.0</ele>
      </trkpt>
      <trkpt lat="42.469141" lon="2.119162">
        <ele>1996.0</ele>
      </trkpt>
      <trkpt lat="42.469234" lon="2.119144">
        <ele>1996.0</ele>
      </trkpt>
      <trkpt lat="42.469320" lon="2.119081">
        <ele>1996.0</ele>
      </trkpt>
      <trkpt lat="42.469400" lon="2.119018">
        <ele>1990.0</ele>
      </trkpt>
      <trkpt lat="42.469486" lon="2.118946">
        <ele>1990.0</ele>
      </trkpt>
      <trkpt lat="42.469566" lon="2.118874">
        <ele>1990.0</ele>
      </trkpt>
      <trkpt lat="42.469653" lon="2.118820">
        <ele>1990.0</ele>
      </trkpt>
      <trkpt lat="42.469746" lon="2.118766">
        <ele>1983.0</ele>
      </trkpt>
      <trkpt lat="42.469839" lon="2.118748">
        <ele>1983.0</ele>
      </trkpt>
      <trkpt lat="42.469932" lon="2.118748">
        <ele>1983.0</ele>
      </trkpt>
      <trkpt lat="42.470025" lon="2.118784">
        <ele>1983.0</ele>
      </trkpt>
      <trkpt lat="42.470118" lon="2.118793">
        <ele>1983.0</ele>
      </trkpt>
      <trkpt lat="42.470205" lon="2.118757">
        <ele>1983.0</ele>
      </trkpt>
      <trkpt lat="42.470298" lon="2.118739">
        <ele>1983.0</ele>
      </trkpt>
      <trkpt lat="42.470391" lon="2.118695">
        <ele>1983.0</ele>
      </trkpt>
      <trkpt lat="42.470477" lon="2.118650">
        <ele>1976.0</ele>
      </trkpt>
      <trkpt lat="42.470570" lon="2.118596">
        <ele>1976.0</ele>
      </trkpt>
      <trkpt lat="42.470657" lon="2.118524">
        <ele>1968.0</ele>
      </trkpt>
      <trkpt lat="42.470737" lon="2.118461">
        <ele>1968.0</ele>
      </trkpt>
      <trkpt lat="42.470810" lon="2.118389">
        <ele>1962.0</ele>
      </trkpt>
      <trkpt lat="42.470896" lon="2.118326">
        <ele>1962.0</ele>
      </trkpt>
      <trkpt lat="42.470989" lon="2.118281">
        <ele>1962.0</ele>
      </trkpt>
      <trkpt lat="42.471076" lon="2.118236">
        <ele>1962.0</ele>
      </trkpt>
      <trkpt lat="42.471169" lon="2.118183">
        <ele>1956.0</ele>
      </trkpt>
      <trkpt lat="42.471255" lon="2.118129">
        <ele>1956.0</ele>
      </trkpt>
      <trkpt lat="42.471342" lon="2.118066">
        <ele>1949.0</ele>
      </trkpt>
      <trkpt lat="42.471422" lon="2.118003">
        <ele>1949.0</ele>
      </trkpt>
      <trkpt lat="42.471515" lon="2.117940">
        <ele>1949.0</ele>
      </trkpt>
      <trkpt lat="42.471601" lon="2.117877">
        <ele>1949.0</ele>
      </trkpt>
      <trkpt lat="42.471688" lon="2.117796">
        <ele>1949.0</ele>
      </trkpt>
      <trkpt lat="42.471774" lon="2.117724">
        <ele>1949.0</ele>
      </trkpt>
      <trkpt lat="42.471861" lon="2.117653">
        <ele>1944.0</ele>
      </trkpt>
      <trkpt lat="42.471934" lon="2.117563">
        <ele>1944.0</ele>
      </trkpt>
      <trkpt lat="42.472014" lon="2.117491">
        <ele>1944.0</ele>
      </trkpt>
      <trkpt lat="42.472087" lon="2.117410">
        <ele>1944.0</ele>
      </trkpt>
      <trkpt lat="42.472173" lon="2.117347">
        <ele>1944.0</ele>
      </trkpt>
      <trkpt lat="42.472266" lon="2.117302">
        <ele>1944.0</ele>
      </trkpt>
      <trkpt lat="42.472353" lon="2.117248">
        <ele>1944.0</ele>
      </trkpt>
      <trkpt lat="42.472446" lon="2.117203">
        <ele>1944.0</ele>
      </trkpt>
      <trkpt lat="42.472532" lon="2.117167">
        <ele>1944.0</ele>
      </trkpt>
      <trkpt lat="42.472619" lon="2.117131">
        <ele>1944.0</ele>
      </trkpt>
      <trkpt lat="42.472705" lon="2.117078">
        <ele>1944.0</ele>
      </trkpt>
      <trkpt lat="42.472785" lon="2.117006">
        <ele>1944.0</ele>
      </trkpt>
      <trkpt lat="42.472858" lon="2.116925">
        <ele>1944.0</ele>
      </trkpt>
      <trkpt lat="42.472925" lon="2.116835">
        <ele>1944.0</ele>
      </trkpt>
      <trkpt lat="42.472985" lon="2.116736">
        <ele>1938.0</ele>
      </trkpt>
      <trkpt lat="42.473038" lon="2.116637">
        <ele>1938.0</ele>
      </trkpt>
      <trkpt lat="42.473091" lon="2.116530">
        <ele>1938.0</ele>
      </trkpt>
      <trkpt lat="42.473151" lon="2.116431">
        <ele>1938.0</ele>
      </trkpt>
      <trkpt lat="42.473211" lon="2.116332">
        <ele>1932.0</ele>
      </trkpt>
      <trkpt lat="42.473251" lon="2.116206">
        <ele>1932.0</ele>
      </trkpt>
      <trkpt lat="42.473277" lon="2.116089">
        <ele>1932.0</ele>
      </trkpt>
      <trkpt lat="42.473290" lon="2.115955">
        <ele>1932.0</ele>
      </trkpt>
      <trkpt lat="42.473317" lon="2.115829">
        <ele>1932.0</ele>
      </trkpt>
      <trkpt lat="42.473357" lon="2.115712">
        <ele>1932.0</ele>
      </trkpt>
      <trkpt lat="42.473403" lon="2.115604">
        <ele>1932.0</ele>
      </trkpt>
      <trkpt lat="42.473443" lon="2.115488">
        <ele>1932.0</ele>
      </trkpt>
      <trkpt lat="42.473523" lon="2.115407">
        <ele>1932.0</ele>
      </trkpt>
      <trkpt lat="42.473596" lon="2.115317">
        <ele>1926.0</ele>
      </trkpt>
      <trkpt lat="42.473650" lon="2.115218">
        <ele>1926.0</ele>
      </trkpt>
      <trkpt lat="42.473696" lon="2.115101">
        <ele>1926.0</ele>
      </trkpt>
      <trkpt lat="42.473729" lon="2.114976">
        <ele>1926.0</ele>
      </trkpt>
      <trkpt lat="42.473756" lon="2.114850">
        <ele>1926.0</ele>
      </trkpt>
      <trkpt lat="42.473776" lon="2.114724">
        <ele>1926.0</ele>
      </trkpt>
      <trkpt lat="42.473816" lon="2.114607">
        <ele>1926.0</ele>
      </trkpt>
      <trkpt lat="42.473869" lon="2.114499">
        <ele>1919.0</ele>
      </trkpt>
      <trkpt lat="42.473942" lon="2.114392">
        <ele>1919.0</ele>
      </trkpt>
      <trkpt lat="42.473982" lon="2.114275">
        <ele>1919.0</ele>
      </trkpt>
      <trkpt lat="42.474022" lon="2.114158">
        <ele>1919.0</ele>
      </trkpt>
      <trkpt lat="42.474062" lon="2.114032">
        <ele>1919.0</ele>
      </trkpt>
      <trkpt lat="42.474082" lon="2.113907">
        <ele>1919.0</ele>
      </trkpt>
      <trkpt lat="42.474095" lon="2.113781">
        <ele>1919.0</ele>
      </trkpt>
      <trkpt lat="42.474102" lon="2.113646">
        <ele>1919.0</ele>
      </trkpt>
      <trkpt lat="42.474102" lon="2.113520">
        <ele>1919.0</ele>
      </trkpt>
      <trkpt lat="42.474108" lon="2.113386">
        <ele>1919.0</ele>
      </trkpt>
      <trkpt lat="42.474115" lon="2.113260">
        <ele>1919.0</ele>
      </trkpt>
      <trkpt lat="42.474128" lon="2.113125">
        <ele>1914.0</ele>
      </trkpt>
      <trkpt lat="42.474128" lon="2.112999">
        <ele>1914.0</ele>
      </trkpt>
      <trkpt lat="42.474128" lon="2.112864">
        <ele>1914.0</ele>
      </trkpt>
      <trkpt lat="42.474142" lon="2.112730">
        <ele>1914.0</ele>
      </trkpt>
      <trkpt lat="42.474155" lon="2.112586">
        <ele>1914.0</ele>
      </trkpt>
      <trkpt lat="42.474128" lon="2.112469">
        <ele>1914.0</ele>
      </trkpt>
      <trkpt lat="42.474142" lon="2.112334">
        <ele>1914.0</ele>
      </trkpt>
      <trkpt lat="42.474148" lon="2.112191">
        <ele>1914.0</ele>
      </trkpt>
      <trkpt lat="42.474148" lon="2.112065">
        <ele>1914.0</ele>
      </trkpt>
      <trkpt lat="42.474162" lon="2.111939">
        <ele>1914.0</ele>
      </trkpt>
      <trkpt lat="42.474175" lon="2.111813">
        <ele>1914.0</ele>
      </trkpt>
      <trkpt lat="42.474182" lon="2.111688">
        <ele>1914.0</ele>
      </trkpt>
      <trkpt lat="42.474195" lon="2.111562">
        <ele>1914.0</ele>
      </trkpt>
      <trkpt lat="42.474182" lon="2.111436">
        <ele>1914.0</ele>
      </trkpt>
      <trkpt lat="42.474175" lon="2.111310">
        <ele>1908.0</ele>
      </trkpt>
      <trkpt lat="42.474162" lon="2.111185">
        <ele>1908.0</ele>
      </trkpt>
      <trkpt lat="42.474148" lon="2.111059">
        <ele>1908.0</ele>
      </trkpt>
      <trkpt lat="42.474135" lon="2.110924">
        <ele>1908.0</ele>
      </trkpt>
      <trkpt lat="42.474122" lon="2.110789">
        <ele>1908.0</ele>
      </trkpt>
      <trkpt lat="42.474128" lon="2.110655">
        <ele>1908.0</ele>
      </trkpt>
      <trkpt lat="42.474135" lon="2.110520">
        <ele>1908.0</ele>
      </trkpt>
      <trkpt lat="42.474148" lon="2.110385">
        <ele>1901.0</ele>
      </trkpt>
      <trkpt lat="42.474162" lon="2.110259">
        <ele>1901.0</ele>
      </trkpt>
      <trkpt lat="42.474175" lon="2.110125">
        <ele>1896.0</ele>
      </trkpt>
      <trkpt lat="42.474195" lon="2.109990">
        <ele>1896.0</ele>
      </trkpt>
      <trkpt lat="42.474202" lon="2.109864">
        <ele>1896.0</ele>
      </trkpt>
      <trkpt lat="42.474195" lon="2.109738">
        <ele>1896.0</ele>
      </trkpt>
      <trkpt lat="42.474188" lon="2.109613">
        <ele>1896.0</ele>
      </trkpt>
      <trkpt lat="42.474175" lon="2.109478">
        <ele>1896.0</ele>
      </trkpt>
      <trkpt lat="42.474148" lon="2.109361">
        <ele>1896.0</ele>
      </trkpt>
      <trkpt lat="42.474122" lon="2.109244">
        <ele>1896.0</ele>
      </trkpt>
      <trkpt lat="42.474095" lon="2.109119">
        <ele>1896.0</ele>
      </trkpt>
      <trkpt lat="42.474055" lon="2.109002">
        <ele>1896.0</ele>
      </trkpt>
      <trkpt lat="42.474029" lon="2.108885">
        <ele>1896.0</ele>
      </trkpt>
      <trkpt lat="42.474002" lon="2.108768">
        <ele>1896.0</ele>
      </trkpt>
      <trkpt lat="42.473969" lon="2.108651">
        <ele>1896.0</ele>
      </trkpt>
      <trkpt lat="42.473922" lon="2.108526">
        <ele>1896.0</ele>
      </trkpt>
      <trkpt lat="42.473882" lon="2.108400">
        <ele>1890.0</ele>
      </trkpt>
      <trkpt lat="42.473816" lon="2.108301">
        <ele>1890.0</ele>
      </trkpt>
      <trkpt lat="42.473736" lon="2.108220">
        <ele>1890.0</ele>
      </trkpt>
      <trkpt lat="42.473643" lon="2.108157">
        <ele>1885.0</ele>
      </trkpt>
      <trkpt lat="42.473550" lon="2.108103">
        <ele>1885.0</ele>
      </trkpt>
      <trkpt lat="42.473450" lon="2.108059">
        <ele>1885.0</ele>
      </trkpt>
      <trkpt lat="42.473350" lon="2.108023">
        <ele>1885.0</ele>
      </trkpt>
      <trkpt lat="42.473270" lon="2.107951">
        <ele>1885.0</ele>
      </trkpt>
      <trkpt lat="42.473244" lon="2.107834">
        <ele>1880.0</ele>
      </trkpt>
      <trkpt lat="42.473330" lon="2.107771">
        <ele>1880.0</ele>
      </trkpt>
      <trkpt lat="42.473417" lon="2.107735">
        <ele>1880.0</ele>
      </trkpt>
      <trkpt lat="42.473510" lon="2.107717">
        <ele>1880.0</ele>
      </trkpt>
      <trkpt lat="42.473603" lon="2.107753">
        <ele>1880.0</ele>
      </trkpt>
      <trkpt lat="42.473656" lon="2.107654">
        <ele>1868.0</ele>
      </trkpt>
      <trkpt lat="42.473683" lon="2.107537">
        <ele>1861.0</ele>
      </trkpt>
      <trkpt lat="42.473769" lon="2.107484">
        <ele>1861.0</ele>
      </trkpt>
      <trkpt lat="42.473856" lon="2.107421">
        <ele>1861.0</ele>
      </trkpt>
      <trkpt lat="42.473949" lon="2.107358">
        <ele>1861.0</ele>
      </trkpt>
      <trkpt lat="42.474015" lon="2.107259">
        <ele>1856.0</ele>
      </trkpt>
      <trkpt lat="42.474108" lon="2.107223">
        <ele>1856.0</ele>
      </trkpt>
      <trkpt lat="42.474202" lon="2.107250">
        <ele>1856.0</ele>
      </trkpt>
      <trkpt lat="42.474288" lon="2.107214">
        <ele>1856.0</ele>
      </trkpt>
      <trkpt lat="42.474374" lon="2.107178">
        <ele>1856.0</ele>
      </trkpt>
      <trkpt lat="42.474474" lon="2.107160">
        <ele>1856.0</ele>
      </trkpt>
      <trkpt lat="42.474567" lon="2.107151">
        <ele>1850.0</ele>
      </trkpt>
      <trkpt lat="42.474660" lon="2.107106">
        <ele>1850.0</ele>
      </trkpt>
      <trkpt lat="42.474753" lon="2.107052">
        <ele>1845.0</ele>
      </trkpt>
      <trkpt lat="42.474847" lon="2.107025">
        <ele>1845.0</ele>
      </trkpt>
      <trkpt lat="42.474940" lon="2.106990">
        <ele>1845.0</ele>
      </trkpt>
      <trkpt lat="42.475033" lon="2.107016">
        <ele>1845.0</ele>
      </trkpt>
      <trkpt lat="42.475113" lon="2.106954">
        <ele>1840.0</ele>
      </trkpt>
      <trkpt lat="42.475206" lon="2.106909">
        <ele>1840.0</ele>
      </trkpt>
      <trkpt lat="42.475292" lon="2.106873">
        <ele>1840.0</ele>
      </trkpt>
      <trkpt lat="42.475385" lon="2.106846">
        <ele>1840.0</ele>
      </trkpt>
      <trkpt lat="42.475485" lon="2.106828">
        <ele>1833.0</ele>
      </trkpt>
      <trkpt lat="42.475585" lon="2.106792">
        <ele>1826.0</ele>
      </trkpt>
      <trkpt lat="42.475678" lon="2.106738">
        <ele>1826.0</ele>
      </trkpt>
      <trkpt lat="42.475778" lon="2.106720">
        <ele>1821.0</ele>
      </trkpt>
      <trkpt lat="42.475864" lon="2.106684">
        <ele>1821.0</ele>
      </trkpt>
      <trkpt lat="42.475931" lon="2.106594">
        <ele>1815.0</ele>
      </trkpt>
      <trkpt lat="42.475990" lon="2.106486">
        <ele>1815.0</ele>
      </trkpt>
      <trkpt lat="42.476037" lon="2.106379">
        <ele>1815.0</ele>
      </trkpt>
      <trkpt lat="42.476083" lon="2.106271">
        <ele>1809.0</ele>
      </trkpt>
      <trkpt lat="42.476130" lon="2.106154">
        <ele>1809.0</ele>
      </trkpt>
      <trkpt lat="42.476183" lon="2.106037">
        <ele>1809.0</ele>
      </trkpt>
      <trkpt lat="42.476230" lon="2.105930">
        <ele>1809.0</ele>
      </trkpt>
      <trkpt lat="42.476276" lon="2.105813">
        <ele>1809.0</ele>
      </trkpt>
      <trkpt lat="42.476329" lon="2.105705">
        <ele>1809.0</ele>
      </trkpt>
      <trkpt lat="42.476363" lon="2.105579">
        <ele>1809.0</ele>
      </trkpt>
      <trkpt lat="42.476403" lon="2.105453">
        <ele>1809.0</ele>
      </trkpt>
      <trkpt lat="42.476429" lon="2.105328">
        <ele>1809.0</ele>
      </trkpt>
      <trkpt lat="42.476449" lon="2.105202">
        <ele>1809.0</ele>
      </trkpt>
      <trkpt lat="42.476489" lon="2.105076">
        <ele>1809.0</ele>
      </trkpt>
      <trkpt lat="42.476522" lon="2.104959">
        <ele>1803.0</ele>
      </trkpt>
      <trkpt lat="42.476549" lon="2.104843">
        <ele>1803.0</ele>
      </trkpt>
      <trkpt lat="42.476549" lon="2.104717">
        <ele>1803.0</ele>
      </trkpt>
      <trkpt lat="42.476542" lon="2.104591">
        <ele>1803.0</ele>
      </trkpt>
      <trkpt lat="42.476536" lon="2.104465">
        <ele>1803.0</ele>
      </trkpt>
      <trkpt lat="42.476516" lon="2.104339">
        <ele>1803.0</ele>
      </trkpt>
      <trkpt lat="42.476522" lon="2.104214">
        <ele>1803.0</ele>
      </trkpt>
      <trkpt lat="42.476569" lon="2.104088">
        <ele>1803.0</ele>
      </trkpt>
    </trkseg>
  </trk>
</gpx>

